<?xml version="1.0" encoding="UTF-8" standalone="no" ?>
<gpx xmlns="http://www.topografix.com/GPX/1/1" xmlns:xsi="http://www.w3.org/2001/XMLSchema-instance" xsi:schemaLocation="http://www.topografix.com/GPX/1/1 http://www.topografix.com/GPX/1/1/gpx.xsd" version="1.1" creator="VisuGPX - https://www.visugpx.com">
  <metadata>
    <name>Grand Chavallard</name>
    <desc><![CDATA[Fully - Sorniot - Grand Chavallard - L'Erié]]></desc>
  </metadata>
  <trk>
    <name><![CDATA[Fully Course à pied]]></name>
    <trkseg>
      <trkpt lat="46.13895" lon="7.11504">
        <ele>476.39999389648</ele>
        <time>2017-10-13T07:01:22.000Z</time>
      </trkpt>
      <trkpt lat="46.13917" lon="7.1151">
        <ele>477.79998779297</ele>
        <time>2017-10-13T07:01:42.000Z</time>
      </trkpt>
      <trkpt lat="46.13935" lon="7.11503">
        <ele>480.39999389648</ele>
        <time>2017-10-13T07:01:57.000Z</time>
      </trkpt>
      <trkpt lat="46.13954" lon="7.11508">
        <ele>482</ele>
        <time>2017-10-13T07:02:06.000Z</time>
      </trkpt>
      <trkpt lat="46.13962" lon="7.11462">
        <ele>486.79998779297</ele>
        <time>2017-10-13T07:02:28.000Z</time>
      </trkpt>
      <trkpt lat="46.1397" lon="7.11435">
        <ele>491</ele>
        <time>2017-10-13T07:02:48.000Z</time>
      </trkpt>
      <trkpt lat="46.13971" lon="7.11432">
        <ele>491.60000610352</ele>
        <time>2017-10-13T07:02:51.000Z</time>
      </trkpt>
      <trkpt lat="46.13986" lon="7.11415">
        <ele>495.79998779297</ele>
        <time>2017-10-13T07:03:10.000Z</time>
      </trkpt>
      <trkpt lat="46.13995" lon="7.11415">
        <ele>497.20001220703</ele>
        <time>2017-10-13T07:03:20.000Z</time>
      </trkpt>
      <trkpt lat="46.13996" lon="7.1141">
        <ele>497.39999389648</ele>
        <time>2017-10-13T07:03:23.000Z</time>
      </trkpt>
      <trkpt lat="46.14013" lon="7.1142">
        <ele>499.20001220703</ele>
        <time>2017-10-13T07:03:36.000Z</time>
      </trkpt>
      <trkpt lat="46.14027" lon="7.11439">
        <ele>500.20001220703</ele>
        <time>2017-10-13T07:03:50.000Z</time>
      </trkpt>
      <trkpt lat="46.14038" lon="7.11453">
        <ele>501</ele>
        <time>2017-10-13T07:04:04.000Z</time>
      </trkpt>
      <trkpt lat="46.14041" lon="7.1145">
        <ele>501.39999389648</ele>
        <time>2017-10-13T07:04:07.000Z</time>
      </trkpt>
      <trkpt lat="46.14054" lon="7.11432">
        <ele>504</ele>
        <time>2017-10-13T07:04:22.000Z</time>
      </trkpt>
      <trkpt lat="46.14068" lon="7.11415">
        <ele>507.20001220703</ele>
        <time>2017-10-13T07:04:39.000Z</time>
      </trkpt>
      <trkpt lat="46.1407" lon="7.11408">
        <ele>508.20001220703</ele>
        <time>2017-10-13T07:04:46.000Z</time>
      </trkpt>
      <trkpt lat="46.14074" lon="7.11408">
        <ele>509</ele>
        <time>2017-10-13T07:04:52.000Z</time>
      </trkpt>
      <trkpt lat="46.1409" lon="7.11414">
        <ele>511.79998779297</ele>
        <time>2017-10-13T07:05:07.000Z</time>
      </trkpt>
      <trkpt lat="46.14095" lon="7.11393">
        <ele>515</ele>
        <time>2017-10-13T07:05:27.000Z</time>
      </trkpt>
      <trkpt lat="46.14097" lon="7.11367">
        <ele>517.40002441406</ele>
        <time>2017-10-13T07:05:42.000Z</time>
      </trkpt>
      <trkpt lat="46.14109" lon="7.11346">
        <ele>523</ele>
        <time>2017-10-13T07:06:00.000Z</time>
      </trkpt>
      <trkpt lat="46.14122" lon="7.11328">
        <ele>528.79998779297</ele>
        <time>2017-10-13T07:06:17.000Z</time>
      </trkpt>
      <trkpt lat="46.14126" lon="7.11302">
        <ele>532</ele>
        <time>2017-10-13T07:06:35.000Z</time>
      </trkpt>
      <trkpt lat="46.14136" lon="7.11281">
        <ele>536.20001220703</ele>
        <time>2017-10-13T07:06:49.000Z</time>
      </trkpt>
      <trkpt lat="46.14151" lon="7.11265">
        <ele>541</ele>
        <time>2017-10-13T07:07:05.000Z</time>
      </trkpt>
      <trkpt lat="46.1416" lon="7.11264">
        <ele>543.20001220703</ele>
        <time>2017-10-13T07:07:15.000Z</time>
      </trkpt>
      <trkpt lat="46.14167" lon="7.11268">
        <ele>544.40002441406</ele>
        <time>2017-10-13T07:07:23.000Z</time>
      </trkpt>
      <trkpt lat="46.14184" lon="7.11272">
        <ele>549.20001220703</ele>
        <time>2017-10-13T07:07:42.000Z</time>
      </trkpt>
      <trkpt lat="46.14195" lon="7.11276">
        <ele>552</ele>
        <time>2017-10-13T07:07:55.000Z</time>
      </trkpt>
      <trkpt lat="46.14212" lon="7.11265">
        <ele>558.79998779297</ele>
        <time>2017-10-13T07:08:14.000Z</time>
      </trkpt>
      <trkpt lat="46.14229" lon="7.11264">
        <ele>564</ele>
        <time>2017-10-13T07:08:32.000Z</time>
      </trkpt>
      <trkpt lat="46.14246" lon="7.11254">
        <ele>567.59997558594</ele>
        <time>2017-10-13T07:08:49.000Z</time>
      </trkpt>
      <trkpt lat="46.14263" lon="7.11247">
        <ele>572.20001220703</ele>
        <time>2017-10-13T07:09:06.000Z</time>
      </trkpt>
      <trkpt lat="46.14281" lon="7.11247">
        <ele>575.20001220703</ele>
        <time>2017-10-13T07:09:21.000Z</time>
      </trkpt>
      <trkpt lat="46.14299" lon="7.11245">
        <ele>578.59997558594</ele>
        <time>2017-10-13T07:09:38.000Z</time>
      </trkpt>
      <trkpt lat="46.14306" lon="7.11222">
        <ele>582.40002441406</ele>
        <time>2017-10-13T07:10:01.000Z</time>
      </trkpt>
      <trkpt lat="46.14311" lon="7.1122">
        <ele>584</ele>
        <time>2017-10-13T07:10:06.000Z</time>
      </trkpt>
      <trkpt lat="46.14329" lon="7.11223">
        <ele>586.40002441406</ele>
        <time>2017-10-13T07:10:21.000Z</time>
      </trkpt>
      <trkpt lat="46.14348" lon="7.11224">
        <ele>589</ele>
        <time>2017-10-13T07:10:35.000Z</time>
      </trkpt>
      <trkpt lat="46.14366" lon="7.1122">
        <ele>592.40002441406</ele>
        <time>2017-10-13T07:10:51.000Z</time>
      </trkpt>
      <trkpt lat="46.14375" lon="7.11215">
        <ele>595.40002441406</ele>
        <time>2017-10-13T07:11:06.000Z</time>
      </trkpt>
      <trkpt lat="46.14374" lon="7.11209">
        <ele>596</ele>
        <time>2017-10-13T07:11:11.000Z</time>
      </trkpt>
      <trkpt lat="46.1438" lon="7.11202">
        <ele>599</ele>
        <time>2017-10-13T07:11:21.000Z</time>
      </trkpt>
      <trkpt lat="46.14382" lon="7.11193">
        <ele>601.59997558594</ele>
        <time>2017-10-13T07:11:28.000Z</time>
      </trkpt>
      <trkpt lat="46.14372" lon="7.11171">
        <ele>603.40002441406</ele>
        <time>2017-10-13T07:11:43.000Z</time>
      </trkpt>
      <trkpt lat="46.1436" lon="7.11162">
        <ele>602.40002441406</ele>
        <time>2017-10-13T07:11:58.000Z</time>
      </trkpt>
      <trkpt lat="46.14362" lon="7.11159">
        <ele>603.40002441406</ele>
        <time>2017-10-13T07:13:51.000Z</time>
      </trkpt>
      <trkpt lat="46.14367" lon="7.11157">
        <ele>604.79998779297</ele>
        <time>2017-10-13T07:14:49.000Z</time>
      </trkpt>
      <trkpt lat="46.14374" lon="7.1115">
        <ele>607.20001220703</ele>
        <time>2017-10-13T07:15:00.000Z</time>
      </trkpt>
      <trkpt lat="46.14378" lon="7.11151">
        <ele>608</ele>
        <time>2017-10-13T07:15:07.000Z</time>
      </trkpt>
      <trkpt lat="46.1438" lon="7.11152">
        <ele>608.40002441406</ele>
        <time>2017-10-13T07:15:10.000Z</time>
      </trkpt>
      <trkpt lat="46.1439" lon="7.11161">
        <ele>609.79998779297</ele>
        <time>2017-10-13T07:15:22.000Z</time>
      </trkpt>
      <trkpt lat="46.14407" lon="7.11169">
        <ele>612.59997558594</ele>
        <time>2017-10-13T07:15:34.000Z</time>
      </trkpt>
      <trkpt lat="46.14425" lon="7.11165">
        <ele>619.40002441406</ele>
        <time>2017-10-13T07:15:47.000Z</time>
      </trkpt>
      <trkpt lat="46.14444" lon="7.11165">
        <ele>625.20001220703</ele>
        <time>2017-10-13T07:15:59.000Z</time>
      </trkpt>
      <trkpt lat="46.14447" lon="7.11187">
        <ele>619.59997558594</ele>
        <time>2017-10-13T07:16:11.000Z</time>
      </trkpt>
      <trkpt lat="46.14443" lon="7.11213">
        <ele>611.40002441406</ele>
        <time>2017-10-13T07:16:26.000Z</time>
      </trkpt>
      <trkpt lat="46.14453" lon="7.11229">
        <ele>610.40002441406</ele>
        <time>2017-10-13T07:16:41.000Z</time>
      </trkpt>
      <trkpt lat="46.14457" lon="7.11227">
        <ele>611.59997558594</ele>
        <time>2017-10-13T07:16:44.000Z</time>
      </trkpt>
      <trkpt lat="46.14457" lon="7.11219">
        <ele>613.59997558594</ele>
        <time>2017-10-13T07:16:50.000Z</time>
      </trkpt>
      <trkpt lat="46.14455" lon="7.11194">
        <ele>620.20001220703</ele>
        <time>2017-10-13T07:17:06.000Z</time>
      </trkpt>
      <trkpt lat="46.14464" lon="7.11187">
        <ele>625.20001220703</ele>
        <time>2017-10-13T07:17:15.000Z</time>
      </trkpt>
      <trkpt lat="46.14467" lon="7.11194">
        <ele>624</ele>
        <time>2017-10-13T07:17:20.000Z</time>
      </trkpt>
      <trkpt lat="46.14469" lon="7.11205">
        <ele>621.40002441406</ele>
        <time>2017-10-13T07:17:27.000Z</time>
      </trkpt>
      <trkpt lat="46.14485" lon="7.11217">
        <ele>624.59997558594</ele>
        <time>2017-10-13T07:17:42.000Z</time>
      </trkpt>
      <trkpt lat="46.14503" lon="7.11222">
        <ele>631.79998779297</ele>
        <time>2017-10-13T07:18:00.000Z</time>
      </trkpt>
      <trkpt lat="46.14521" lon="7.11231">
        <ele>638.40002441406</ele>
        <time>2017-10-13T07:18:21.000Z</time>
      </trkpt>
      <trkpt lat="46.14539" lon="7.1124">
        <ele>645</ele>
        <time>2017-10-13T07:18:40.000Z</time>
      </trkpt>
      <trkpt lat="46.14557" lon="7.11248">
        <ele>651.20001220703</ele>
        <time>2017-10-13T07:18:54.000Z</time>
      </trkpt>
      <trkpt lat="46.14574" lon="7.1126">
        <ele>653.59997558594</ele>
        <time>2017-10-13T07:19:10.000Z</time>
      </trkpt>
      <trkpt lat="46.1459" lon="7.11272">
        <ele>655.40002441406</ele>
        <time>2017-10-13T07:19:27.000Z</time>
      </trkpt>
      <trkpt lat="46.14607" lon="7.11279">
        <ele>658.79998779297</ele>
        <time>2017-10-13T07:19:41.000Z</time>
      </trkpt>
      <trkpt lat="46.14627" lon="7.11278">
        <ele>666</ele>
        <time>2017-10-13T07:19:57.000Z</time>
      </trkpt>
      <trkpt lat="46.14645" lon="7.11273">
        <ele>674.40002441406</ele>
        <time>2017-10-13T07:20:12.000Z</time>
      </trkpt>
      <trkpt lat="46.14663" lon="7.11271">
        <ele>683.79998779297</ele>
        <time>2017-10-13T07:20:25.000Z</time>
      </trkpt>
      <trkpt lat="46.14681" lon="7.11266">
        <ele>692.20001220703</ele>
        <time>2017-10-13T07:20:41.000Z</time>
      </trkpt>
      <trkpt lat="46.147" lon="7.11269">
        <ele>698.59997558594</ele>
        <time>2017-10-13T07:20:55.000Z</time>
      </trkpt>
      <trkpt lat="46.14717" lon="7.11262">
        <ele>706.20001220703</ele>
        <time>2017-10-13T07:21:07.000Z</time>
      </trkpt>
      <trkpt lat="46.14735" lon="7.11258">
        <ele>716</ele>
        <time>2017-10-13T07:21:22.000Z</time>
      </trkpt>
      <trkpt lat="46.14751" lon="7.11269">
        <ele>724.79998779297</ele>
        <time>2017-10-13T07:21:37.000Z</time>
      </trkpt>
      <trkpt lat="46.14756" lon="7.11294">
        <ele>723</ele>
        <time>2017-10-13T07:21:50.000Z</time>
      </trkpt>
      <trkpt lat="46.14756" lon="7.11321">
        <ele>717.40002441406</ele>
        <time>2017-10-13T07:22:06.000Z</time>
      </trkpt>
      <trkpt lat="46.14756" lon="7.11328">
        <ele>715.79998779297</ele>
        <time>2017-10-13T07:22:11.000Z</time>
      </trkpt>
      <trkpt lat="46.14755" lon="7.11354">
        <ele>711.40002441406</ele>
        <time>2017-10-13T07:22:26.000Z</time>
      </trkpt>
      <trkpt lat="46.14761" lon="7.1138">
        <ele>712.40002441406</ele>
        <time>2017-10-13T07:22:43.000Z</time>
      </trkpt>
      <trkpt lat="46.14773" lon="7.114">
        <ele>718.59997558594</ele>
        <time>2017-10-13T07:23:00.000Z</time>
      </trkpt>
      <trkpt lat="46.14787" lon="7.11417">
        <ele>725.59997558594</ele>
        <time>2017-10-13T07:23:16.000Z</time>
      </trkpt>
      <trkpt lat="46.14799" lon="7.11435">
        <ele>731.20001220703</ele>
        <time>2017-10-13T07:23:34.000Z</time>
      </trkpt>
      <trkpt lat="46.14807" lon="7.11447">
        <ele>735.20001220703</ele>
        <time>2017-10-13T07:23:44.000Z</time>
      </trkpt>
      <trkpt lat="46.14811" lon="7.11444">
        <ele>737.79998779297</ele>
        <time>2017-10-13T07:23:48.000Z</time>
      </trkpt>
      <trkpt lat="46.14805" lon="7.11419">
        <ele>737</ele>
        <time>2017-10-13T07:24:05.000Z</time>
      </trkpt>
      <trkpt lat="46.14804" lon="7.11393">
        <ele>739.59997558594</ele>
        <time>2017-10-13T07:24:20.000Z</time>
      </trkpt>
      <trkpt lat="46.14797" lon="7.11368">
        <ele>738.40002441406</ele>
        <time>2017-10-13T07:24:38.000Z</time>
      </trkpt>
      <trkpt lat="46.14803" lon="7.11353">
        <ele>744.79998779297</ele>
        <time>2017-10-13T07:24:53.000Z</time>
      </trkpt>
      <trkpt lat="46.14816" lon="7.11373">
        <ele>750.20001220703</ele>
        <time>2017-10-13T07:25:10.000Z</time>
      </trkpt>
      <trkpt lat="46.1483" lon="7.1139">
        <ele>756.40002441406</ele>
        <time>2017-10-13T07:25:26.000Z</time>
      </trkpt>
      <trkpt lat="46.14842" lon="7.11408">
        <ele>761.59997558594</ele>
        <time>2017-10-13T07:25:43.000Z</time>
      </trkpt>
      <trkpt lat="46.14854" lon="7.11429">
        <ele>764.40002441406</ele>
        <time>2017-10-13T07:25:59.000Z</time>
      </trkpt>
      <trkpt lat="46.14864" lon="7.11451">
        <ele>766.40002441406</ele>
        <time>2017-10-13T07:26:14.000Z</time>
      </trkpt>
      <trkpt lat="46.14872" lon="7.11476">
        <ele>766.20001220703</ele>
        <time>2017-10-13T07:26:30.000Z</time>
      </trkpt>
      <trkpt lat="46.14881" lon="7.11499">
        <ele>768.59997558594</ele>
        <time>2017-10-13T07:26:45.000Z</time>
      </trkpt>
      <trkpt lat="46.14888" lon="7.11517">
        <ele>770.59997558594</ele>
        <time>2017-10-13T07:26:59.000Z</time>
      </trkpt>
      <trkpt lat="46.14893" lon="7.11541">
        <ele>771</ele>
        <time>2017-10-13T07:27:14.000Z</time>
      </trkpt>
      <trkpt lat="46.14896" lon="7.11554">
        <ele>770.79998779297</ele>
        <time>2017-10-13T07:27:24.000Z</time>
      </trkpt>
      <trkpt lat="46.14896" lon="7.11549">
        <ele>771.40002441406</ele>
        <time>2017-10-13T07:27:28.000Z</time>
      </trkpt>
      <trkpt lat="46.14896" lon="7.11546">
        <ele>771.79998779297</ele>
        <time>2017-10-13T07:27:30.000Z</time>
      </trkpt>
      <trkpt lat="46.14899" lon="7.11542">
        <ele>773.40002441406</ele>
        <time>2017-10-13T07:27:37.000Z</time>
      </trkpt>
      <trkpt lat="46.14905" lon="7.11567">
        <ele>773.20001220703</ele>
        <time>2017-10-13T07:27:58.000Z</time>
      </trkpt>
      <trkpt lat="46.14905" lon="7.11568">
        <ele>773</ele>
        <time>2017-10-13T07:27:59.000Z</time>
      </trkpt>
      <trkpt lat="46.14905" lon="7.11574">
        <ele>772.40002441406</ele>
        <time>2017-10-13T07:28:04.000Z</time>
      </trkpt>
      <trkpt lat="46.14911" lon="7.11583">
        <ele>773</ele>
        <time>2017-10-13T07:28:15.000Z</time>
      </trkpt>
      <trkpt lat="46.14925" lon="7.11569">
        <ele>781.20001220703</ele>
        <time>2017-10-13T07:28:34.000Z</time>
      </trkpt>
      <trkpt lat="46.14943" lon="7.11561">
        <ele>789</ele>
        <time>2017-10-13T07:28:50.000Z</time>
      </trkpt>
      <trkpt lat="46.1496" lon="7.1155">
        <ele>797.79998779297</ele>
        <time>2017-10-13T07:29:08.000Z</time>
      </trkpt>
      <trkpt lat="46.14978" lon="7.11543">
        <ele>808.40002441406</ele>
        <time>2017-10-13T07:29:26.000Z</time>
      </trkpt>
      <trkpt lat="46.14996" lon="7.11552">
        <ele>815.40002441406</ele>
        <time>2017-10-13T07:29:40.000Z</time>
      </trkpt>
      <trkpt lat="46.1501" lon="7.1157">
        <ele>819.20001220703</ele>
        <time>2017-10-13T07:29:54.000Z</time>
      </trkpt>
      <trkpt lat="46.15012" lon="7.11585">
        <ele>816</ele>
        <time>2017-10-13T07:30:03.000Z</time>
      </trkpt>
      <trkpt lat="46.15025" lon="7.11581">
        <ele>824.20001220703</ele>
        <time>2017-10-13T07:30:40.000Z</time>
      </trkpt>
      <trkpt lat="46.15038" lon="7.116">
        <ele>824.20001220703</ele>
        <time>2017-10-13T07:30:51.000Z</time>
      </trkpt>
      <trkpt lat="46.15049" lon="7.1162">
        <ele>823.20001220703</ele>
        <time>2017-10-13T07:31:06.000Z</time>
      </trkpt>
      <trkpt lat="46.15051" lon="7.1162">
        <ele>824</ele>
        <time>2017-10-13T07:31:09.000Z</time>
      </trkpt>
      <trkpt lat="46.15051" lon="7.11617">
        <ele>825</ele>
        <time>2017-10-13T07:31:11.000Z</time>
      </trkpt>
      <trkpt lat="46.15043" lon="7.11593">
        <ele>829.20001220703</ele>
        <time>2017-10-13T07:31:24.000Z</time>
      </trkpt>
      <trkpt lat="46.15033" lon="7.11569">
        <ele>831.20001220703</ele>
        <time>2017-10-13T07:31:36.000Z</time>
      </trkpt>
      <trkpt lat="46.15026" lon="7.11548">
        <ele>832</ele>
        <time>2017-10-13T07:31:46.000Z</time>
      </trkpt>
      <trkpt lat="46.15025" lon="7.11548">
        <ele>831.40002441406</ele>
        <time>2017-10-13T07:31:54.000Z</time>
      </trkpt>
      <trkpt lat="46.15025" lon="7.11548">
        <ele>831.40002441406</ele>
        <time>2017-10-13T07:31:57.000Z</time>
      </trkpt>
      <trkpt lat="46.15026" lon="7.1155">
        <ele>831.40002441406</ele>
        <time>2017-10-13T07:32:01.000Z</time>
      </trkpt>
      <trkpt lat="46.15023" lon="7.11542">
        <ele>831.59997558594</ele>
        <time>2017-10-13T07:34:03.000Z</time>
      </trkpt>
      <trkpt lat="46.15017" lon="7.11517">
        <ele>835</ele>
        <time>2017-10-13T07:34:17.000Z</time>
      </trkpt>
      <trkpt lat="46.15009" lon="7.11492">
        <ele>837.40002441406</ele>
        <time>2017-10-13T07:34:29.000Z</time>
      </trkpt>
      <trkpt lat="46.14998" lon="7.11469">
        <ele>835.79998779297</ele>
        <time>2017-10-13T07:34:43.000Z</time>
      </trkpt>
      <trkpt lat="46.14997" lon="7.11448">
        <ele>840.40002441406</ele>
        <time>2017-10-13T07:34:59.000Z</time>
      </trkpt>
      <trkpt lat="46.15004" lon="7.1145">
        <ele>844</ele>
        <time>2017-10-13T07:35:09.000Z</time>
      </trkpt>
      <trkpt lat="46.15012" lon="7.11438">
        <ele>851.40002441406</ele>
        <time>2017-10-13T07:35:25.000Z</time>
      </trkpt>
      <trkpt lat="46.15013" lon="7.11437">
        <ele>852.59997558594</ele>
        <time>2017-10-13T07:35:29.000Z</time>
      </trkpt>
      <trkpt lat="46.15024" lon="7.11433">
        <ele>859.79998779297</ele>
        <time>2017-10-13T07:35:55.000Z</time>
      </trkpt>
      <trkpt lat="46.15035" lon="7.11444">
        <ele>863.79998779297</ele>
        <time>2017-10-13T07:36:18.000Z</time>
      </trkpt>
      <trkpt lat="46.1505" lon="7.11461">
        <ele>869.20001220703</ele>
        <time>2017-10-13T07:36:37.000Z</time>
      </trkpt>
      <trkpt lat="46.15052" lon="7.11461">
        <ele>870.40002441406</ele>
        <time>2017-10-13T07:36:41.000Z</time>
      </trkpt>
      <trkpt lat="46.1506" lon="7.11467">
        <ele>873.79998779297</ele>
        <time>2017-10-13T07:36:56.000Z</time>
      </trkpt>
      <trkpt lat="46.1507" lon="7.11473">
        <ele>880.40002441406</ele>
        <time>2017-10-13T07:37:10.000Z</time>
      </trkpt>
      <trkpt lat="46.15071" lon="7.11471">
        <ele>881.40002441406</ele>
        <time>2017-10-13T07:37:13.000Z</time>
      </trkpt>
      <trkpt lat="46.15069" lon="7.11468">
        <ele>880.79998779297</ele>
        <time>2017-10-13T07:37:15.000Z</time>
      </trkpt>
      <trkpt lat="46.15068" lon="7.11465">
        <ele>880.40002441406</ele>
        <time>2017-10-13T07:37:18.000Z</time>
      </trkpt>
      <trkpt lat="46.15067" lon="7.11463">
        <ele>880.20001220703</ele>
        <time>2017-10-13T07:37:20.000Z</time>
      </trkpt>
      <trkpt lat="46.15066" lon="7.11453">
        <ele>881.59997558594</ele>
        <time>2017-10-13T07:37:27.000Z</time>
      </trkpt>
      <trkpt lat="46.15064" lon="7.11446">
        <ele>881.40002441406</ele>
        <time>2017-10-13T07:37:31.000Z</time>
      </trkpt>
      <trkpt lat="46.15063" lon="7.11427">
        <ele>884.20001220703</ele>
        <time>2017-10-13T07:37:47.000Z</time>
      </trkpt>
      <trkpt lat="46.15065" lon="7.11425">
        <ele>886</ele>
        <time>2017-10-13T07:37:51.000Z</time>
      </trkpt>
      <trkpt lat="46.15065" lon="7.11424">
        <ele>886.59997558594</ele>
        <time>2017-10-13T07:37:53.000Z</time>
      </trkpt>
      <trkpt lat="46.15073" lon="7.11425">
        <ele>892.59997558594</ele>
        <time>2017-10-13T07:38:04.000Z</time>
      </trkpt>
      <trkpt lat="46.15078" lon="7.11435">
        <ele>894.20001220703</ele>
        <time>2017-10-13T07:38:12.000Z</time>
      </trkpt>
      <trkpt lat="46.15085" lon="7.1144">
        <ele>898.59997558594</ele>
        <time>2017-10-13T07:38:23.000Z</time>
      </trkpt>
      <trkpt lat="46.15097" lon="7.11444">
        <ele>907</ele>
        <time>2017-10-13T07:38:50.000Z</time>
      </trkpt>
      <trkpt lat="46.15107" lon="7.11467">
        <ele>910.59997558594</ele>
        <time>2017-10-13T07:39:06.000Z</time>
      </trkpt>
      <trkpt lat="46.15112" lon="7.11492">
        <ele>909</ele>
        <time>2017-10-13T07:39:20.000Z</time>
      </trkpt>
      <trkpt lat="46.15115" lon="7.11491">
        <ele>911.59997558594</ele>
        <time>2017-10-13T07:39:25.000Z</time>
      </trkpt>
      <trkpt lat="46.15117" lon="7.11486">
        <ele>914.20001220703</ele>
        <time>2017-10-13T07:39:29.000Z</time>
      </trkpt>
      <trkpt lat="46.15118" lon="7.1147">
        <ele>918</ele>
        <time>2017-10-13T07:39:39.000Z</time>
      </trkpt>
      <trkpt lat="46.15119" lon="7.11471">
        <ele>919</ele>
        <time>2017-10-13T07:39:43.000Z</time>
      </trkpt>
      <trkpt lat="46.1512" lon="7.11475">
        <ele>918.79998779297</ele>
        <time>2017-10-13T07:39:46.000Z</time>
      </trkpt>
      <trkpt lat="46.15121" lon="7.11478">
        <ele>918.79998779297</ele>
        <time>2017-10-13T07:39:49.000Z</time>
      </trkpt>
      <trkpt lat="46.15123" lon="7.11493">
        <ele>917.40002441406</ele>
        <time>2017-10-13T07:40:00.000Z</time>
      </trkpt>
      <trkpt lat="46.15127" lon="7.11507">
        <ele>916.59997558594</ele>
        <time>2017-10-13T07:40:09.000Z</time>
      </trkpt>
      <trkpt lat="46.15139" lon="7.11526">
        <ele>920</ele>
        <time>2017-10-13T07:40:24.000Z</time>
      </trkpt>
      <trkpt lat="46.15141" lon="7.11529">
        <ele>920.40002441406</ele>
        <time>2017-10-13T07:40:28.000Z</time>
      </trkpt>
      <trkpt lat="46.15142" lon="7.11531">
        <ele>920.79998779297</ele>
        <time>2017-10-13T07:40:31.000Z</time>
      </trkpt>
      <trkpt lat="46.15147" lon="7.1154">
        <ele>921</ele>
        <time>2017-10-13T07:40:39.000Z</time>
      </trkpt>
      <trkpt lat="46.15151" lon="7.11536">
        <ele>924.20001220703</ele>
        <time>2017-10-13T07:40:45.000Z</time>
      </trkpt>
      <trkpt lat="46.15151" lon="7.11526">
        <ele>927.20001220703</ele>
        <time>2017-10-13T07:40:54.000Z</time>
      </trkpt>
      <trkpt lat="46.15154" lon="7.11521">
        <ele>930.40002441406</ele>
        <time>2017-10-13T07:41:01.000Z</time>
      </trkpt>
      <trkpt lat="46.15154" lon="7.11516">
        <ele>931.59997558594</ele>
        <time>2017-10-13T07:41:05.000Z</time>
      </trkpt>
      <trkpt lat="46.15155" lon="7.11503">
        <ele>936.59997558594</ele>
        <time>2017-10-13T07:41:18.000Z</time>
      </trkpt>
      <trkpt lat="46.15155" lon="7.11504">
        <ele>936.59997558594</ele>
        <time>2017-10-13T07:41:20.000Z</time>
      </trkpt>
      <trkpt lat="46.15162" lon="7.11483">
        <ele>946.40002441406</ele>
        <time>2017-10-13T07:41:42.000Z</time>
      </trkpt>
      <trkpt lat="46.15163" lon="7.11458">
        <ele>950.20001220703</ele>
        <time>2017-10-13T07:42:07.000Z</time>
      </trkpt>
      <trkpt lat="46.15165" lon="7.11431">
        <ele>955.40002441406</ele>
        <time>2017-10-13T07:42:28.000Z</time>
      </trkpt>
      <trkpt lat="46.1517" lon="7.11418">
        <ele>961.59997558594</ele>
        <time>2017-10-13T07:42:40.000Z</time>
      </trkpt>
      <trkpt lat="46.15182" lon="7.11424">
        <ele>968.59997558594</ele>
        <time>2017-10-13T07:43:10.000Z</time>
      </trkpt>
      <trkpt lat="46.15182" lon="7.11399">
        <ele>974.59997558594</ele>
        <time>2017-10-13T07:43:31.000Z</time>
      </trkpt>
      <trkpt lat="46.15195" lon="7.11391">
        <ele>985.59997558594</ele>
        <time>2017-10-13T07:43:56.000Z</time>
      </trkpt>
      <trkpt lat="46.15204" lon="7.11367">
        <ele>994.59997558594</ele>
        <time>2017-10-13T07:44:16.000Z</time>
      </trkpt>
      <trkpt lat="46.15208" lon="7.11348">
        <ele>999.20001220703</ele>
        <time>2017-10-13T07:44:33.000Z</time>
      </trkpt>
      <trkpt lat="46.1521" lon="7.11339">
        <ele>1000.799987793</ele>
        <time>2017-10-13T07:44:40.000Z</time>
      </trkpt>
      <trkpt lat="46.15213" lon="7.11315">
        <ele>1005.799987793</ele>
        <time>2017-10-13T07:45:10.000Z</time>
      </trkpt>
      <trkpt lat="46.15224" lon="7.11295">
        <ele>1016</ele>
        <time>2017-10-13T07:45:36.000Z</time>
      </trkpt>
      <trkpt lat="46.1524" lon="7.1128">
        <ele>1027.8000488281</ele>
        <time>2017-10-13T07:46:04.000Z</time>
      </trkpt>
      <trkpt lat="46.15249" lon="7.11271">
        <ele>1034.4000244141</ele>
        <time>2017-10-13T07:46:15.000Z</time>
      </trkpt>
      <trkpt lat="46.15251" lon="7.11269">
        <ele>1036.1999511719</ele>
        <time>2017-10-13T07:46:17.000Z</time>
      </trkpt>
      <trkpt lat="46.15253" lon="7.1127">
        <ele>1037.4000244141</ele>
        <time>2017-10-13T07:46:21.000Z</time>
      </trkpt>
      <trkpt lat="46.15251" lon="7.11276">
        <ele>1035.1999511719</ele>
        <time>2017-10-13T07:46:25.000Z</time>
      </trkpt>
      <trkpt lat="46.15251" lon="7.11278">
        <ele>1034.5999755859</ele>
        <time>2017-10-13T07:46:26.000Z</time>
      </trkpt>
      <trkpt lat="46.1525" lon="7.11302">
        <ele>1030</ele>
        <time>2017-10-13T07:46:43.000Z</time>
      </trkpt>
      <trkpt lat="46.15259" lon="7.11308">
        <ele>1034.1999511719</ele>
        <time>2017-10-13T07:46:54.000Z</time>
      </trkpt>
      <trkpt lat="46.1526" lon="7.11307">
        <ele>1034.8000488281</ele>
        <time>2017-10-13T07:46:56.000Z</time>
      </trkpt>
      <trkpt lat="46.1526" lon="7.11305">
        <ele>1035.4000244141</ele>
        <time>2017-10-13T07:46:58.000Z</time>
      </trkpt>
      <trkpt lat="46.15261" lon="7.11303">
        <ele>1036</ele>
        <time>2017-10-13T07:47:00.000Z</time>
      </trkpt>
      <trkpt lat="46.15263" lon="7.11299">
        <ele>1038</ele>
        <time>2017-10-13T07:47:04.000Z</time>
      </trkpt>
      <trkpt lat="46.15263" lon="7.11296">
        <ele>1038.5999755859</ele>
        <time>2017-10-13T07:47:06.000Z</time>
      </trkpt>
      <trkpt lat="46.15266" lon="7.11292">
        <ele>1041.1999511719</ele>
        <time>2017-10-13T07:47:11.000Z</time>
      </trkpt>
      <trkpt lat="46.15268" lon="7.11291">
        <ele>1042.1999511719</ele>
        <time>2017-10-13T07:47:13.000Z</time>
      </trkpt>
      <trkpt lat="46.15272" lon="7.11293">
        <ele>1044.1999511719</ele>
        <time>2017-10-13T07:47:17.000Z</time>
      </trkpt>
      <trkpt lat="46.15279" lon="7.11308">
        <ele>1046.1999511719</ele>
        <time>2017-10-13T07:47:36.000Z</time>
      </trkpt>
      <trkpt lat="46.15295" lon="7.11296">
        <ele>1057.5999755859</ele>
        <time>2017-10-13T07:48:04.000Z</time>
      </trkpt>
      <trkpt lat="46.15308" lon="7.11311">
        <ele>1062.1999511719</ele>
        <time>2017-10-13T07:48:25.000Z</time>
      </trkpt>
      <trkpt lat="46.15314" lon="7.11335">
        <ele>1060.1999511719</ele>
        <time>2017-10-13T07:48:40.000Z</time>
      </trkpt>
      <trkpt lat="46.15329" lon="7.11353">
        <ele>1061.5999755859</ele>
        <time>2017-10-13T07:49:02.000Z</time>
      </trkpt>
      <trkpt lat="46.15337" lon="7.11355">
        <ele>1064.8000488281</ele>
        <time>2017-10-13T07:49:13.000Z</time>
      </trkpt>
      <trkpt lat="46.15337" lon="7.11353">
        <ele>1065.4000244141</ele>
        <time>2017-10-13T07:49:16.000Z</time>
      </trkpt>
      <trkpt lat="46.15336" lon="7.11346">
        <ele>1067.5999755859</ele>
        <time>2017-10-13T07:49:22.000Z</time>
      </trkpt>
      <trkpt lat="46.15335" lon="7.1134">
        <ele>1069.4000244141</ele>
        <time>2017-10-13T07:49:27.000Z</time>
      </trkpt>
      <trkpt lat="46.15335" lon="7.11338">
        <ele>1070.1999511719</ele>
        <time>2017-10-13T07:49:29.000Z</time>
      </trkpt>
      <trkpt lat="46.15334" lon="7.11312">
        <ele>1076.4000244141</ele>
        <time>2017-10-13T07:49:46.000Z</time>
      </trkpt>
      <trkpt lat="46.15336" lon="7.11286">
        <ele>1083</ele>
        <time>2017-10-13T07:50:14.000Z</time>
      </trkpt>
      <trkpt lat="46.15337" lon="7.1126">
        <ele>1088.8000488281</ele>
        <time>2017-10-13T07:50:35.000Z</time>
      </trkpt>
      <trkpt lat="46.15343" lon="7.11241">
        <ele>1096.5999755859</ele>
        <time>2017-10-13T07:51:27.000Z</time>
      </trkpt>
      <trkpt lat="46.15347" lon="7.11233">
        <ele>1100.1999511719</ele>
        <time>2017-10-13T07:51:36.000Z</time>
      </trkpt>
      <trkpt lat="46.15351" lon="7.11222">
        <ele>1105</ele>
        <time>2017-10-13T07:51:48.000Z</time>
      </trkpt>
      <trkpt lat="46.15347" lon="7.11197">
        <ele>1107.8000488281</ele>
        <time>2017-10-13T07:52:04.000Z</time>
      </trkpt>
      <trkpt lat="46.15342" lon="7.1118">
        <ele>1108.8000488281</ele>
        <time>2017-10-13T07:52:23.000Z</time>
      </trkpt>
      <trkpt lat="46.15344" lon="7.11182">
        <ele>1109.4000244141</ele>
        <time>2017-10-13T07:52:25.000Z</time>
      </trkpt>
      <trkpt lat="46.15346" lon="7.11184">
        <ele>1110</ele>
        <time>2017-10-13T07:52:27.000Z</time>
      </trkpt>
      <trkpt lat="46.1535" lon="7.11184">
        <ele>1112.5999755859</ele>
        <time>2017-10-13T07:52:32.000Z</time>
      </trkpt>
      <trkpt lat="46.15352" lon="7.11183">
        <ele>1114.1999511719</ele>
        <time>2017-10-13T07:52:34.000Z</time>
      </trkpt>
      <trkpt lat="46.15354" lon="7.11183">
        <ele>1115</ele>
        <time>2017-10-13T07:52:36.000Z</time>
      </trkpt>
      <trkpt lat="46.15372" lon="7.11187">
        <ele>1125</ele>
        <time>2017-10-13T07:52:57.000Z</time>
      </trkpt>
      <trkpt lat="46.15383" lon="7.1119">
        <ele>1130.4000244141</ele>
        <time>2017-10-13T07:53:08.000Z</time>
      </trkpt>
      <trkpt lat="46.15389" lon="7.11192">
        <ele>1133.5999755859</ele>
        <time>2017-10-13T07:53:17.000Z</time>
      </trkpt>
      <trkpt lat="46.15387" lon="7.1119">
        <ele>1133.1999511719</ele>
        <time>2017-10-13T07:53:21.000Z</time>
      </trkpt>
      <trkpt lat="46.15385" lon="7.11185">
        <ele>1132.5999755859</ele>
        <time>2017-10-13T07:53:25.000Z</time>
      </trkpt>
      <trkpt lat="46.15373" lon="7.11164">
        <ele>1130.8000488281</ele>
        <time>2017-10-13T07:53:47.000Z</time>
      </trkpt>
      <trkpt lat="46.15372" lon="7.11159">
        <ele>1131</ele>
        <time>2017-10-13T07:53:51.000Z</time>
      </trkpt>
      <trkpt lat="46.15379" lon="7.11154">
        <ele>1135</ele>
        <time>2017-10-13T07:54:03.000Z</time>
      </trkpt>
      <trkpt lat="46.15382" lon="7.11158">
        <ele>1136.5999755859</ele>
        <time>2017-10-13T07:54:08.000Z</time>
      </trkpt>
      <trkpt lat="46.154" lon="7.11158">
        <ele>1147.1999511719</ele>
        <time>2017-10-13T07:54:22.000Z</time>
      </trkpt>
      <trkpt lat="46.15414" lon="7.11149">
        <ele>1155</ele>
        <time>2017-10-13T07:54:41.000Z</time>
      </trkpt>
      <trkpt lat="46.15414" lon="7.11146">
        <ele>1155.4000244141</ele>
        <time>2017-10-13T07:54:42.000Z</time>
      </trkpt>
      <trkpt lat="46.15415" lon="7.11141">
        <ele>1155.8000488281</ele>
        <time>2017-10-13T07:54:50.000Z</time>
      </trkpt>
      <trkpt lat="46.1541" lon="7.11138">
        <ele>1153.5999755859</ele>
        <time>2017-10-13T07:55:43.000Z</time>
      </trkpt>
      <trkpt lat="46.15412" lon="7.11135">
        <ele>1155</ele>
        <time>2017-10-13T07:55:47.000Z</time>
      </trkpt>
      <trkpt lat="46.15425" lon="7.11117">
        <ele>1162.8000488281</ele>
        <time>2017-10-13T07:56:10.000Z</time>
      </trkpt>
      <trkpt lat="46.15433" lon="7.11105">
        <ele>1169.4000244141</ele>
        <time>2017-10-13T07:56:28.000Z</time>
      </trkpt>
      <trkpt lat="46.15448" lon="7.11101">
        <ele>1179.5999755859</ele>
        <time>2017-10-13T07:56:58.000Z</time>
      </trkpt>
      <trkpt lat="46.15462" lon="7.11117">
        <ele>1185.4000244141</ele>
        <time>2017-10-13T07:57:16.000Z</time>
      </trkpt>
      <trkpt lat="46.15466" lon="7.11114">
        <ele>1188.4000244141</ele>
        <time>2017-10-13T07:57:21.000Z</time>
      </trkpt>
      <trkpt lat="46.15466" lon="7.11111">
        <ele>1189.1999511719</ele>
        <time>2017-10-13T07:57:24.000Z</time>
      </trkpt>
      <trkpt lat="46.15466" lon="7.11088">
        <ele>1193.1999511719</ele>
        <time>2017-10-13T07:57:48.000Z</time>
      </trkpt>
      <trkpt lat="46.15481" lon="7.11098">
        <ele>1200.5999755859</ele>
        <time>2017-10-13T07:58:11.000Z</time>
      </trkpt>
      <trkpt lat="46.15493" lon="7.11118">
        <ele>1202.4000244141</ele>
        <time>2017-10-13T07:58:26.000Z</time>
      </trkpt>
      <trkpt lat="46.15499" lon="7.11124">
        <ele>1204.4000244141</ele>
        <time>2017-10-13T07:58:37.000Z</time>
      </trkpt>
      <trkpt lat="46.15502" lon="7.11118">
        <ele>1207</ele>
        <time>2017-10-13T07:58:42.000Z</time>
      </trkpt>
      <trkpt lat="46.15503" lon="7.11113">
        <ele>1208.4000244141</ele>
        <time>2017-10-13T07:58:46.000Z</time>
      </trkpt>
      <trkpt lat="46.15511" lon="7.11108">
        <ele>1213.1999511719</ele>
        <time>2017-10-13T07:59:08.000Z</time>
      </trkpt>
      <trkpt lat="46.15526" lon="7.11126">
        <ele>1216.5999755859</ele>
        <time>2017-10-13T07:59:28.000Z</time>
      </trkpt>
      <trkpt lat="46.15539" lon="7.1114">
        <ele>1220.4000244141</ele>
        <time>2017-10-13T07:59:47.000Z</time>
      </trkpt>
      <trkpt lat="46.15541" lon="7.1114">
        <ele>1221.4000244141</ele>
        <time>2017-10-13T07:59:50.000Z</time>
      </trkpt>
      <trkpt lat="46.15559" lon="7.11144">
        <ele>1229.8000488281</ele>
        <time>2017-10-13T08:00:15.000Z</time>
      </trkpt>
      <trkpt lat="46.15572" lon="7.11138">
        <ele>1238.1999511719</ele>
        <time>2017-10-13T08:00:44.000Z</time>
      </trkpt>
      <trkpt lat="46.15583" lon="7.11132">
        <ele>1245.1999511719</ele>
        <time>2017-10-13T08:01:06.000Z</time>
      </trkpt>
      <trkpt lat="46.15594" lon="7.1114">
        <ele>1248.8000488281</ele>
        <time>2017-10-13T08:01:20.000Z</time>
      </trkpt>
      <trkpt lat="46.15592" lon="7.11113">
        <ele>1254.1999511719</ele>
        <time>2017-10-13T08:01:44.000Z</time>
      </trkpt>
      <trkpt lat="46.1559" lon="7.11101">
        <ele>1256.5999755859</ele>
        <time>2017-10-13T08:01:57.000Z</time>
      </trkpt>
      <trkpt lat="46.15588" lon="7.11102">
        <ele>1255.4000244141</ele>
        <time>2017-10-13T08:02:47.000Z</time>
      </trkpt>
      <trkpt lat="46.1559" lon="7.11102">
        <ele>1256.4000244141</ele>
        <time>2017-10-13T08:02:49.000Z</time>
      </trkpt>
      <trkpt lat="46.15592" lon="7.11103">
        <ele>1257</ele>
        <time>2017-10-13T08:02:52.000Z</time>
      </trkpt>
      <trkpt lat="46.15593" lon="7.11104">
        <ele>1257.4000244141</ele>
        <time>2017-10-13T08:02:54.000Z</time>
      </trkpt>
      <trkpt lat="46.15595" lon="7.11106">
        <ele>1257.8000488281</ele>
        <time>2017-10-13T08:02:57.000Z</time>
      </trkpt>
      <trkpt lat="46.15597" lon="7.11107">
        <ele>1258.4000244141</ele>
        <time>2017-10-13T08:02:59.000Z</time>
      </trkpt>
      <trkpt lat="46.156" lon="7.11104">
        <ele>1260.8000488281</ele>
        <time>2017-10-13T08:03:03.000Z</time>
      </trkpt>
      <trkpt lat="46.15602" lon="7.111">
        <ele>1262.4000244141</ele>
        <time>2017-10-13T08:03:07.000Z</time>
      </trkpt>
      <trkpt lat="46.15602" lon="7.111">
        <ele>1262.4000244141</ele>
        <time>2017-10-13T08:03:08.000Z</time>
      </trkpt>
      <trkpt lat="46.15602" lon="7.11099">
        <ele>1262.8000488281</ele>
        <time>2017-10-13T08:03:10.000Z</time>
      </trkpt>
      <trkpt lat="46.15603" lon="7.11097">
        <ele>1263.4000244141</ele>
        <time>2017-10-13T08:03:12.000Z</time>
      </trkpt>
      <trkpt lat="46.15609" lon="7.11076">
        <ele>1271.1999511719</ele>
        <time>2017-10-13T08:03:32.000Z</time>
      </trkpt>
      <trkpt lat="46.15612" lon="7.11072">
        <ele>1272.8000488281</ele>
        <time>2017-10-13T08:03:38.000Z</time>
      </trkpt>
      <trkpt lat="46.15612" lon="7.11071">
        <ele>1273</ele>
        <time>2017-10-13T08:03:40.000Z</time>
      </trkpt>
      <trkpt lat="46.15612" lon="7.1107">
        <ele>1273.1999511719</ele>
        <time>2017-10-13T08:03:42.000Z</time>
      </trkpt>
      <trkpt lat="46.15619" lon="7.11059">
        <ele>1277.8000488281</ele>
        <time>2017-10-13T08:04:00.000Z</time>
      </trkpt>
      <trkpt lat="46.1562" lon="7.11056">
        <ele>1278.1999511719</ele>
        <time>2017-10-13T08:04:03.000Z</time>
      </trkpt>
      <trkpt lat="46.1562" lon="7.11054">
        <ele>1278.8000488281</ele>
        <time>2017-10-13T08:04:05.000Z</time>
      </trkpt>
      <trkpt lat="46.15621" lon="7.1105">
        <ele>1280</ele>
        <time>2017-10-13T08:04:09.000Z</time>
      </trkpt>
      <trkpt lat="46.15626" lon="7.11026">
        <ele>1288.8000488281</ele>
        <time>2017-10-13T08:04:37.000Z</time>
      </trkpt>
      <trkpt lat="46.15626" lon="7.11024">
        <ele>1289</ele>
        <time>2017-10-13T08:04:38.000Z</time>
      </trkpt>
      <trkpt lat="46.1564" lon="7.11012">
        <ele>1300.4000244141</ele>
        <time>2017-10-13T08:05:09.000Z</time>
      </trkpt>
      <trkpt lat="46.15643" lon="7.10992">
        <ele>1307.4000244141</ele>
        <time>2017-10-13T08:05:29.000Z</time>
      </trkpt>
      <trkpt lat="46.15644" lon="7.1099">
        <ele>1308.1999511719</ele>
        <time>2017-10-13T08:05:31.000Z</time>
      </trkpt>
      <trkpt lat="46.15651" lon="7.10968">
        <ele>1314.5999755859</ele>
        <time>2017-10-13T08:06:00.000Z</time>
      </trkpt>
      <trkpt lat="46.15656" lon="7.10949">
        <ele>1319</ele>
        <time>2017-10-13T08:06:29.000Z</time>
      </trkpt>
      <trkpt lat="46.15671" lon="7.1095">
        <ele>1329</ele>
        <time>2017-10-13T08:06:49.000Z</time>
      </trkpt>
      <trkpt lat="46.15673" lon="7.10954">
        <ele>1329.1999511719</ele>
        <time>2017-10-13T08:06:50.000Z</time>
      </trkpt>
      <trkpt lat="46.15682" lon="7.10977">
        <ele>1333.1999511719</ele>
        <time>2017-10-13T08:07:07.000Z</time>
      </trkpt>
      <trkpt lat="46.15686" lon="7.10975">
        <ele>1336</ele>
        <time>2017-10-13T08:07:13.000Z</time>
      </trkpt>
      <trkpt lat="46.15686" lon="7.10972">
        <ele>1336.1999511719</ele>
        <time>2017-10-13T08:07:15.000Z</time>
      </trkpt>
      <trkpt lat="46.15685" lon="7.1097">
        <ele>1336.1999511719</ele>
        <time>2017-10-13T08:07:17.000Z</time>
      </trkpt>
      <trkpt lat="46.15685" lon="7.10966">
        <ele>1336.1999511719</ele>
        <time>2017-10-13T08:07:21.000Z</time>
      </trkpt>
      <trkpt lat="46.15688" lon="7.10942">
        <ele>1342</ele>
        <time>2017-10-13T08:07:50.000Z</time>
      </trkpt>
      <trkpt lat="46.157" lon="7.10925">
        <ele>1354.1999511719</ele>
        <time>2017-10-13T08:08:17.000Z</time>
      </trkpt>
      <trkpt lat="46.15715" lon="7.10932">
        <ele>1365</ele>
        <time>2017-10-13T08:08:46.000Z</time>
      </trkpt>
      <trkpt lat="46.15731" lon="7.10942">
        <ele>1374.4000244141</ele>
        <time>2017-10-13T08:09:16.000Z</time>
      </trkpt>
      <trkpt lat="46.15737" lon="7.1095">
        <ele>1376.4000244141</ele>
        <time>2017-10-13T08:09:23.000Z</time>
      </trkpt>
      <trkpt lat="46.15739" lon="7.10953">
        <ele>1376.8000488281</ele>
        <time>2017-10-13T08:09:25.000Z</time>
      </trkpt>
      <trkpt lat="46.15744" lon="7.1096">
        <ele>1378.4000244141</ele>
        <time>2017-10-13T08:09:34.000Z</time>
      </trkpt>
      <trkpt lat="46.15744" lon="7.10957">
        <ele>1379.1999511719</ele>
        <time>2017-10-13T08:09:37.000Z</time>
      </trkpt>
      <trkpt lat="46.15737" lon="7.10932">
        <ele>1380.4000244141</ele>
        <time>2017-10-13T08:10:03.000Z</time>
      </trkpt>
      <trkpt lat="46.15739" lon="7.10914">
        <ele>1385.5999755859</ele>
        <time>2017-10-13T08:10:19.000Z</time>
      </trkpt>
      <trkpt lat="46.1574" lon="7.10912">
        <ele>1386.8000488281</ele>
        <time>2017-10-13T08:10:21.000Z</time>
      </trkpt>
      <trkpt lat="46.1574" lon="7.10908">
        <ele>1388.1999511719</ele>
        <time>2017-10-13T08:10:25.000Z</time>
      </trkpt>
      <trkpt lat="46.15741" lon="7.10907">
        <ele>1388.5999755859</ele>
        <time>2017-10-13T08:10:26.000Z</time>
      </trkpt>
      <trkpt lat="46.15742" lon="7.10881">
        <ele>1394</ele>
        <time>2017-10-13T08:10:48.000Z</time>
      </trkpt>
      <trkpt lat="46.15742" lon="7.10856">
        <ele>1397.8000488281</ele>
        <time>2017-10-13T08:11:08.000Z</time>
      </trkpt>
      <trkpt lat="46.15742" lon="7.10836">
        <ele>1401</ele>
        <time>2017-10-13T08:11:26.000Z</time>
      </trkpt>
      <trkpt lat="46.15742" lon="7.10829">
        <ele>1402.1999511719</ele>
        <time>2017-10-13T08:11:31.000Z</time>
      </trkpt>
      <trkpt lat="46.15744" lon="7.10816">
        <ele>1406</ele>
        <time>2017-10-13T08:11:46.000Z</time>
      </trkpt>
      <trkpt lat="46.15745" lon="7.10818">
        <ele>1406.4000244141</ele>
        <time>2017-10-13T08:11:48.000Z</time>
      </trkpt>
      <trkpt lat="46.15749" lon="7.10815">
        <ele>1410.1999511719</ele>
        <time>2017-10-13T08:11:53.000Z</time>
      </trkpt>
      <trkpt lat="46.1575" lon="7.10814">
        <ele>1410.8000488281</ele>
        <time>2017-10-13T08:11:54.000Z</time>
      </trkpt>
      <trkpt lat="46.15751" lon="7.10813">
        <ele>1411.8000488281</ele>
        <time>2017-10-13T08:11:56.000Z</time>
      </trkpt>
      <trkpt lat="46.15753" lon="7.10809">
        <ele>1413.8000488281</ele>
        <time>2017-10-13T08:11:59.000Z</time>
      </trkpt>
      <trkpt lat="46.15753" lon="7.10806">
        <ele>1414.8000488281</ele>
        <time>2017-10-13T08:12:02.000Z</time>
      </trkpt>
      <trkpt lat="46.15754" lon="7.10803">
        <ele>1416.1999511719</ele>
        <time>2017-10-13T08:12:05.000Z</time>
      </trkpt>
      <trkpt lat="46.15754" lon="7.10801">
        <ele>1416.5999755859</ele>
        <time>2017-10-13T08:12:07.000Z</time>
      </trkpt>
      <trkpt lat="46.15756" lon="7.10794">
        <ele>1419.4000244141</ele>
        <time>2017-10-13T08:12:14.000Z</time>
      </trkpt>
      <trkpt lat="46.15763" lon="7.10801">
        <ele>1422.4000244141</ele>
        <time>2017-10-13T08:12:29.000Z</time>
      </trkpt>
      <trkpt lat="46.15772" lon="7.10814">
        <ele>1425.4000244141</ele>
        <time>2017-10-13T08:12:42.000Z</time>
      </trkpt>
      <trkpt lat="46.15771" lon="7.10812">
        <ele>1425.4000244141</ele>
        <time>2017-10-13T08:12:44.000Z</time>
      </trkpt>
      <trkpt lat="46.15771" lon="7.10808">
        <ele>1426.4000244141</ele>
        <time>2017-10-13T08:12:48.000Z</time>
      </trkpt>
      <trkpt lat="46.1577" lon="7.10805">
        <ele>1426.4000244141</ele>
        <time>2017-10-13T08:12:51.000Z</time>
      </trkpt>
      <trkpt lat="46.1577" lon="7.10803">
        <ele>1426.5999755859</ele>
        <time>2017-10-13T08:12:53.000Z</time>
      </trkpt>
      <trkpt lat="46.15768" lon="7.10776">
        <ele>1431.1999511719</ele>
        <time>2017-10-13T08:13:19.000Z</time>
      </trkpt>
      <trkpt lat="46.15767" lon="7.10749">
        <ele>1436.5999755859</ele>
        <time>2017-10-13T08:13:36.000Z</time>
      </trkpt>
      <trkpt lat="46.15768" lon="7.10735">
        <ele>1441.5999755859</ele>
        <time>2017-10-13T08:13:52.000Z</time>
      </trkpt>
      <trkpt lat="46.15769" lon="7.10711">
        <ele>1449.1999511719</ele>
        <time>2017-10-13T08:14:09.000Z</time>
      </trkpt>
      <trkpt lat="46.15769" lon="7.10706">
        <ele>1451.4000244141</ele>
        <time>2017-10-13T08:14:12.000Z</time>
      </trkpt>
      <trkpt lat="46.15769" lon="7.107">
        <ele>1453</ele>
        <time>2017-10-13T08:14:17.000Z</time>
      </trkpt>
      <trkpt lat="46.15768" lon="7.10698">
        <ele>1452.5999755859</ele>
        <time>2017-10-13T08:14:20.000Z</time>
      </trkpt>
      <trkpt lat="46.15766" lon="7.10695">
        <ele>1452.4000244141</ele>
        <time>2017-10-13T08:14:23.000Z</time>
      </trkpt>
      <trkpt lat="46.15766" lon="7.10691">
        <ele>1453</ele>
        <time>2017-10-13T08:14:27.000Z</time>
      </trkpt>
      <trkpt lat="46.15765" lon="7.10686">
        <ele>1454.1999511719</ele>
        <time>2017-10-13T08:14:30.000Z</time>
      </trkpt>
      <trkpt lat="46.15764" lon="7.1068">
        <ele>1454.5999755859</ele>
        <time>2017-10-13T08:14:35.000Z</time>
      </trkpt>
      <trkpt lat="46.15761" lon="7.10676">
        <ele>1454.1999511719</ele>
        <time>2017-10-13T08:14:39.000Z</time>
      </trkpt>
      <trkpt lat="46.1576" lon="7.10671">
        <ele>1454.8000488281</ele>
        <time>2017-10-13T08:14:44.000Z</time>
      </trkpt>
      <trkpt lat="46.15759" lon="7.10665">
        <ele>1455.4000244141</ele>
        <time>2017-10-13T08:14:51.000Z</time>
      </trkpt>
      <trkpt lat="46.15758" lon="7.10657">
        <ele>1456.5999755859</ele>
        <time>2017-10-13T08:14:57.000Z</time>
      </trkpt>
      <trkpt lat="46.1576" lon="7.10654">
        <ele>1458</ele>
        <time>2017-10-13T08:15:01.000Z</time>
      </trkpt>
      <trkpt lat="46.15764" lon="7.10648">
        <ele>1461.1999511719</ele>
        <time>2017-10-13T08:15:09.000Z</time>
      </trkpt>
      <trkpt lat="46.15756" lon="7.10626">
        <ele>1457.8000488281</ele>
        <time>2017-10-13T08:15:37.000Z</time>
      </trkpt>
      <trkpt lat="46.15759" lon="7.10614">
        <ele>1461</ele>
        <time>2017-10-13T08:15:47.000Z</time>
      </trkpt>
      <trkpt lat="46.15761" lon="7.10609">
        <ele>1462.4000244141</ele>
        <time>2017-10-13T08:15:51.000Z</time>
      </trkpt>
      <trkpt lat="46.15762" lon="7.10607">
        <ele>1463.5999755859</ele>
        <time>2017-10-13T08:15:53.000Z</time>
      </trkpt>
      <trkpt lat="46.15766" lon="7.106">
        <ele>1467.5999755859</ele>
        <time>2017-10-13T08:15:58.000Z</time>
      </trkpt>
      <trkpt lat="46.15768" lon="7.10587">
        <ele>1471.5999755859</ele>
        <time>2017-10-13T08:16:12.000Z</time>
      </trkpt>
      <trkpt lat="46.15766" lon="7.10574">
        <ele>1470.8000488281</ele>
        <time>2017-10-13T08:16:30.000Z</time>
      </trkpt>
      <trkpt lat="46.15764" lon="7.10557">
        <ele>1467.1999511719</ele>
        <time>2017-10-13T08:16:40.000Z</time>
      </trkpt>
      <trkpt lat="46.15774" lon="7.10536">
        <ele>1471.1999511719</ele>
        <time>2017-10-13T08:17:00.000Z</time>
      </trkpt>
      <trkpt lat="46.15774" lon="7.10537">
        <ele>1471.5999755859</ele>
        <time>2017-10-13T08:17:02.000Z</time>
      </trkpt>
      <trkpt lat="46.15775" lon="7.10546">
        <ele>1473.4000244141</ele>
        <time>2017-10-13T08:17:08.000Z</time>
      </trkpt>
      <trkpt lat="46.15776" lon="7.10553">
        <ele>1475.4000244141</ele>
        <time>2017-10-13T08:17:12.000Z</time>
      </trkpt>
      <trkpt lat="46.15782" lon="7.1056">
        <ele>1480.8000488281</ele>
        <time>2017-10-13T08:17:22.000Z</time>
      </trkpt>
      <trkpt lat="46.15783" lon="7.10552">
        <ele>1480.5999755859</ele>
        <time>2017-10-13T08:17:27.000Z</time>
      </trkpt>
      <trkpt lat="46.15784" lon="7.10547">
        <ele>1480.1999511719</ele>
        <time>2017-10-13T08:17:30.000Z</time>
      </trkpt>
      <trkpt lat="46.15784" lon="7.10542">
        <ele>1479.8000488281</ele>
        <time>2017-10-13T08:17:35.000Z</time>
      </trkpt>
      <trkpt lat="46.15788" lon="7.10522">
        <ele>1479.4000244141</ele>
        <time>2017-10-13T08:18:16.000Z</time>
      </trkpt>
      <trkpt lat="46.15798" lon="7.10499">
        <ele>1483.8000488281</ele>
        <time>2017-10-13T08:18:30.000Z</time>
      </trkpt>
      <trkpt lat="46.1581" lon="7.10479">
        <ele>1487.5999755859</ele>
        <time>2017-10-13T08:18:46.000Z</time>
      </trkpt>
      <trkpt lat="46.15828" lon="7.10474">
        <ele>1495</ele>
        <time>2017-10-13T08:19:01.000Z</time>
      </trkpt>
      <trkpt lat="46.15841" lon="7.1047">
        <ele>1500.1999511719</ele>
        <time>2017-10-13T08:19:13.000Z</time>
      </trkpt>
      <trkpt lat="46.15851" lon="7.10447">
        <ele>1499.1999511719</ele>
        <time>2017-10-13T08:19:29.000Z</time>
      </trkpt>
      <trkpt lat="46.15867" lon="7.10436">
        <ele>1507.5999755859</ele>
        <time>2017-10-13T08:19:43.000Z</time>
      </trkpt>
      <trkpt lat="46.15881" lon="7.10419">
        <ele>1513</ele>
        <time>2017-10-13T08:19:58.000Z</time>
      </trkpt>
      <trkpt lat="46.15886" lon="7.10407">
        <ele>1515.1999511719</ele>
        <time>2017-10-13T08:20:08.000Z</time>
      </trkpt>
      <trkpt lat="46.15879" lon="7.10432">
        <ele>1514</ele>
        <time>2017-10-13T08:20:27.000Z</time>
      </trkpt>
      <trkpt lat="46.15864" lon="7.10447">
        <ele>1507.1999511719</ele>
        <time>2017-10-13T08:20:40.000Z</time>
      </trkpt>
      <trkpt lat="46.15849" lon="7.10464">
        <ele>1502.8000488281</ele>
        <time>2017-10-13T08:20:53.000Z</time>
      </trkpt>
      <trkpt lat="46.1584" lon="7.10485">
        <ele>1503.8000488281</ele>
        <time>2017-10-13T08:21:07.000Z</time>
      </trkpt>
      <trkpt lat="46.15821" lon="7.10481">
        <ele>1493.5999755859</ele>
        <time>2017-10-13T08:21:20.000Z</time>
      </trkpt>
      <trkpt lat="46.15805" lon="7.10494">
        <ele>1488</ele>
        <time>2017-10-13T08:21:32.000Z</time>
      </trkpt>
      <trkpt lat="46.15799" lon="7.10509">
        <ele>1485.8000488281</ele>
        <time>2017-10-13T08:21:41.000Z</time>
      </trkpt>
      <trkpt lat="46.15799" lon="7.10521">
        <ele>1487.5999755859</ele>
        <time>2017-10-13T08:21:51.000Z</time>
      </trkpt>
      <trkpt lat="46.15799" lon="7.10523">
        <ele>1487.5999755859</ele>
        <time>2017-10-13T08:21:53.000Z</time>
      </trkpt>
      <trkpt lat="46.15799" lon="7.10526">
        <ele>1488.1999511719</ele>
        <time>2017-10-13T08:21:56.000Z</time>
      </trkpt>
      <trkpt lat="46.15799" lon="7.10527">
        <ele>1488.4000244141</ele>
        <time>2017-10-13T08:21:58.000Z</time>
      </trkpt>
      <trkpt lat="46.15808" lon="7.10507">
        <ele>1492</ele>
        <time>2017-10-13T08:22:35.000Z</time>
      </trkpt>
      <trkpt lat="46.15818" lon="7.10502">
        <ele>1497</ele>
        <time>2017-10-13T08:22:49.000Z</time>
      </trkpt>
      <trkpt lat="46.15828" lon="7.10504">
        <ele>1502.1999511719</ele>
        <time>2017-10-13T08:23:09.000Z</time>
      </trkpt>
      <trkpt lat="46.15831" lon="7.10531">
        <ele>1507.8000488281</ele>
        <time>2017-10-13T08:23:33.000Z</time>
      </trkpt>
      <trkpt lat="46.15839" lon="7.10554">
        <ele>1515.8000488281</ele>
        <time>2017-10-13T08:23:57.000Z</time>
      </trkpt>
      <trkpt lat="46.15843" lon="7.10559">
        <ele>1518.4000244141</ele>
        <time>2017-10-13T08:24:03.000Z</time>
      </trkpt>
      <trkpt lat="46.1586" lon="7.10566">
        <ele>1528.5999755859</ele>
        <time>2017-10-13T08:24:31.000Z</time>
      </trkpt>
      <trkpt lat="46.15868" lon="7.10591">
        <ele>1533</ele>
        <time>2017-10-13T08:24:51.000Z</time>
      </trkpt>
      <trkpt lat="46.15869" lon="7.10591">
        <ele>1533.5999755859</ele>
        <time>2017-10-13T08:24:54.000Z</time>
      </trkpt>
      <trkpt lat="46.15877" lon="7.10578">
        <ele>1538.8000488281</ele>
        <time>2017-10-13T08:25:09.000Z</time>
      </trkpt>
      <trkpt lat="46.1588" lon="7.10569">
        <ele>1539.5999755859</ele>
        <time>2017-10-13T08:25:16.000Z</time>
      </trkpt>
      <trkpt lat="46.15884" lon="7.10559">
        <ele>1539.8000488281</ele>
        <time>2017-10-13T08:25:23.000Z</time>
      </trkpt>
      <trkpt lat="46.15897" lon="7.10548">
        <ele>1544</ele>
        <time>2017-10-13T08:25:42.000Z</time>
      </trkpt>
      <trkpt lat="46.159" lon="7.10556">
        <ele>1547</ele>
        <time>2017-10-13T08:25:47.000Z</time>
      </trkpt>
      <trkpt lat="46.15906" lon="7.10574">
        <ele>1553.5999755859</ele>
        <time>2017-10-13T08:26:04.000Z</time>
      </trkpt>
      <trkpt lat="46.15907" lon="7.10573">
        <ele>1553.8000488281</ele>
        <time>2017-10-13T08:26:06.000Z</time>
      </trkpt>
      <trkpt lat="46.15909" lon="7.10565">
        <ele>1553.4000244141</ele>
        <time>2017-10-13T08:26:14.000Z</time>
      </trkpt>
      <trkpt lat="46.15911" lon="7.10559">
        <ele>1553.5999755859</ele>
        <time>2017-10-13T08:26:18.000Z</time>
      </trkpt>
      <trkpt lat="46.15917" lon="7.10557">
        <ele>1556.1999511719</ele>
        <time>2017-10-13T08:26:26.000Z</time>
      </trkpt>
      <trkpt lat="46.15918" lon="7.10559">
        <ele>1556.8000488281</ele>
        <time>2017-10-13T08:26:29.000Z</time>
      </trkpt>
      <trkpt lat="46.15923" lon="7.10577">
        <ele>1562.5999755859</ele>
        <time>2017-10-13T08:26:45.000Z</time>
      </trkpt>
      <trkpt lat="46.15922" lon="7.10591">
        <ele>1563.5999755859</ele>
        <time>2017-10-13T08:26:58.000Z</time>
      </trkpt>
      <trkpt lat="46.15922" lon="7.10596">
        <ele>1564.1999511719</ele>
        <time>2017-10-13T08:27:02.000Z</time>
      </trkpt>
      <trkpt lat="46.15922" lon="7.10598">
        <ele>1564.5999755859</ele>
        <time>2017-10-13T08:27:04.000Z</time>
      </trkpt>
      <trkpt lat="46.15923" lon="7.10601">
        <ele>1565.4000244141</ele>
        <time>2017-10-13T08:27:07.000Z</time>
      </trkpt>
      <trkpt lat="46.15933" lon="7.10615">
        <ele>1571.8000488281</ele>
        <time>2017-10-13T08:27:24.000Z</time>
      </trkpt>
      <trkpt lat="46.15941" lon="7.10604">
        <ele>1575</ele>
        <time>2017-10-13T08:27:52.000Z</time>
      </trkpt>
      <trkpt lat="46.15955" lon="7.10586">
        <ele>1580</ele>
        <time>2017-10-13T08:28:18.000Z</time>
      </trkpt>
      <trkpt lat="46.15962" lon="7.10575">
        <ele>1582.4000244141</ele>
        <time>2017-10-13T08:28:29.000Z</time>
      </trkpt>
      <trkpt lat="46.15969" lon="7.10574">
        <ele>1585.8000488281</ele>
        <time>2017-10-13T08:28:39.000Z</time>
      </trkpt>
      <trkpt lat="46.15969" lon="7.10577">
        <ele>1586.5999755859</ele>
        <time>2017-10-13T08:28:41.000Z</time>
      </trkpt>
      <trkpt lat="46.1597" lon="7.10582">
        <ele>1587.5999755859</ele>
        <time>2017-10-13T08:28:44.000Z</time>
      </trkpt>
      <trkpt lat="46.15971" lon="7.10586">
        <ele>1588.4000244141</ele>
        <time>2017-10-13T08:28:47.000Z</time>
      </trkpt>
      <trkpt lat="46.15972" lon="7.10589">
        <ele>1589.1999511719</ele>
        <time>2017-10-13T08:28:49.000Z</time>
      </trkpt>
      <trkpt lat="46.15973" lon="7.10594">
        <ele>1590.5999755859</ele>
        <time>2017-10-13T08:28:53.000Z</time>
      </trkpt>
      <trkpt lat="46.15981" lon="7.10619">
        <ele>1597.8000488281</ele>
        <time>2017-10-13T08:29:15.000Z</time>
      </trkpt>
      <trkpt lat="46.15982" lon="7.10645">
        <ele>1601.8000488281</ele>
        <time>2017-10-13T08:29:37.000Z</time>
      </trkpt>
      <trkpt lat="46.15983" lon="7.10646">
        <ele>1602.4000244141</ele>
        <time>2017-10-13T08:29:40.000Z</time>
      </trkpt>
      <trkpt lat="46.16" lon="7.10635">
        <ele>1614</ele>
        <time>2017-10-13T08:30:09.000Z</time>
      </trkpt>
      <trkpt lat="46.16015" lon="7.10629">
        <ele>1624.1999511719</ele>
        <time>2017-10-13T08:30:35.000Z</time>
      </trkpt>
      <trkpt lat="46.16013" lon="7.10655">
        <ele>1625.8000488281</ele>
        <time>2017-10-13T08:30:58.000Z</time>
      </trkpt>
      <trkpt lat="46.16011" lon="7.10682">
        <ele>1628.5999755859</ele>
        <time>2017-10-13T08:31:21.000Z</time>
      </trkpt>
      <trkpt lat="46.16015" lon="7.10704">
        <ele>1636</ele>
        <time>2017-10-13T08:31:49.000Z</time>
      </trkpt>
      <trkpt lat="46.16029" lon="7.10687">
        <ele>1643.4000244141</ele>
        <time>2017-10-13T08:32:16.000Z</time>
      </trkpt>
      <trkpt lat="46.16046" lon="7.10676">
        <ele>1653.8000488281</ele>
        <time>2017-10-13T08:32:43.000Z</time>
      </trkpt>
      <trkpt lat="46.16051" lon="7.10693">
        <ele>1660.5999755859</ele>
        <time>2017-10-13T08:32:57.000Z</time>
      </trkpt>
      <trkpt lat="46.16051" lon="7.10696">
        <ele>1661.1999511719</ele>
        <time>2017-10-13T08:32:59.000Z</time>
      </trkpt>
      <trkpt lat="46.1605" lon="7.10723">
        <ele>1665.1999511719</ele>
        <time>2017-10-13T08:33:21.000Z</time>
      </trkpt>
      <trkpt lat="46.16058" lon="7.10738">
        <ele>1673.8000488281</ele>
        <time>2017-10-13T08:33:55.000Z</time>
      </trkpt>
      <trkpt lat="46.16068" lon="7.10723">
        <ele>1677.8000488281</ele>
        <time>2017-10-13T08:34:12.000Z</time>
      </trkpt>
      <trkpt lat="46.1607" lon="7.1072">
        <ele>1679</ele>
        <time>2017-10-13T08:34:15.000Z</time>
      </trkpt>
      <trkpt lat="46.16086" lon="7.10718">
        <ele>1689.8000488281</ele>
        <time>2017-10-13T08:34:37.000Z</time>
      </trkpt>
      <trkpt lat="46.16085" lon="7.10739">
        <ele>1692.5999755859</ele>
        <time>2017-10-13T08:34:54.000Z</time>
      </trkpt>
      <trkpt lat="46.16086" lon="7.10765">
        <ele>1695.1999511719</ele>
        <time>2017-10-13T08:35:17.000Z</time>
      </trkpt>
      <trkpt lat="46.16101" lon="7.10747">
        <ele>1704.5999755859</ele>
        <time>2017-10-13T08:35:43.000Z</time>
      </trkpt>
      <trkpt lat="46.16111" lon="7.10752">
        <ele>1711.8000488281</ele>
        <time>2017-10-13T08:36:03.000Z</time>
      </trkpt>
      <trkpt lat="46.16111" lon="7.10755">
        <ele>1712.1999511719</ele>
        <time>2017-10-13T08:36:05.000Z</time>
      </trkpt>
      <trkpt lat="46.16112" lon="7.10759">
        <ele>1712.8000488281</ele>
        <time>2017-10-13T08:36:08.000Z</time>
      </trkpt>
      <trkpt lat="46.16113" lon="7.10762">
        <ele>1713.5999755859</ele>
        <time>2017-10-13T08:36:11.000Z</time>
      </trkpt>
      <trkpt lat="46.16113" lon="7.10766">
        <ele>1714</ele>
        <time>2017-10-13T08:36:15.000Z</time>
      </trkpt>
      <trkpt lat="46.16114" lon="7.1077">
        <ele>1714.4000244141</ele>
        <time>2017-10-13T08:36:18.000Z</time>
      </trkpt>
      <trkpt lat="46.16114" lon="7.10774">
        <ele>1714.8000488281</ele>
        <time>2017-10-13T08:36:20.000Z</time>
      </trkpt>
      <trkpt lat="46.16119" lon="7.10799">
        <ele>1718.8000488281</ele>
        <time>2017-10-13T08:36:47.000Z</time>
      </trkpt>
      <trkpt lat="46.16126" lon="7.1082">
        <ele>1723.4000244141</ele>
        <time>2017-10-13T08:37:05.000Z</time>
      </trkpt>
      <trkpt lat="46.16128" lon="7.10828">
        <ele>1724.4000244141</ele>
        <time>2017-10-13T08:37:14.000Z</time>
      </trkpt>
      <trkpt lat="46.16139" lon="7.10829">
        <ele>1732.1999511719</ele>
        <time>2017-10-13T08:37:46.000Z</time>
      </trkpt>
      <trkpt lat="46.16148" lon="7.10852">
        <ele>1729.4000244141</ele>
        <time>2017-10-13T08:38:06.000Z</time>
      </trkpt>
      <trkpt lat="46.16152" lon="7.10824">
        <ele>1743.4000244141</ele>
        <time>2017-10-13T08:38:35.000Z</time>
      </trkpt>
      <trkpt lat="46.16162" lon="7.10826">
        <ele>1752</ele>
        <time>2017-10-13T08:39:07.000Z</time>
      </trkpt>
      <trkpt lat="46.16169" lon="7.10824">
        <ele>1758.1999511719</ele>
        <time>2017-10-13T08:39:44.000Z</time>
      </trkpt>
      <trkpt lat="46.16178" lon="7.10802">
        <ele>1765.4000244141</ele>
        <time>2017-10-13T08:40:09.000Z</time>
      </trkpt>
      <trkpt lat="46.1619" lon="7.10786">
        <ele>1775.1999511719</ele>
        <time>2017-10-13T08:40:39.000Z</time>
      </trkpt>
      <trkpt lat="46.16196" lon="7.1081">
        <ele>1781.4000244141</ele>
        <time>2017-10-13T08:41:05.000Z</time>
      </trkpt>
      <trkpt lat="46.16205" lon="7.10813">
        <ele>1789.1999511719</ele>
        <time>2017-10-13T08:41:39.000Z</time>
      </trkpt>
      <trkpt lat="46.16208" lon="7.10789">
        <ele>1791.1999511719</ele>
        <time>2017-10-13T08:42:17.000Z</time>
      </trkpt>
      <trkpt lat="46.16206" lon="7.10775">
        <ele>1788.4000244141</ele>
        <time>2017-10-13T08:43:30.000Z</time>
      </trkpt>
      <trkpt lat="46.16213" lon="7.10772">
        <ele>1794</ele>
        <time>2017-10-13T08:45:33.000Z</time>
      </trkpt>
      <trkpt lat="46.16211" lon="7.10778">
        <ele>1792.5999755859</ele>
        <time>2017-10-13T08:47:39.000Z</time>
      </trkpt>
      <trkpt lat="46.16221" lon="7.10758">
        <ele>1801.1999511719</ele>
        <time>2017-10-13T08:48:05.000Z</time>
      </trkpt>
      <trkpt lat="46.1623" lon="7.10753">
        <ele>1808.5999755859</ele>
        <time>2017-10-13T08:49:05.000Z</time>
      </trkpt>
      <trkpt lat="46.16245" lon="7.10745">
        <ele>1821.1999511719</ele>
        <time>2017-10-13T08:49:42.000Z</time>
      </trkpt>
      <trkpt lat="46.16256" lon="7.10734">
        <ele>1830.4000244141</ele>
        <time>2017-10-13T08:50:29.000Z</time>
      </trkpt>
      <trkpt lat="46.16254" lon="7.10724">
        <ele>1828</ele>
        <time>2017-10-13T08:50:51.000Z</time>
      </trkpt>
      <trkpt lat="46.1626" lon="7.1072">
        <ele>1832.5999755859</ele>
        <time>2017-10-13T08:51:02.000Z</time>
      </trkpt>
      <trkpt lat="46.16261" lon="7.10722">
        <ele>1834.1999511719</ele>
        <time>2017-10-13T08:51:05.000Z</time>
      </trkpt>
      <trkpt lat="46.16263" lon="7.10725">
        <ele>1836.4000244141</ele>
        <time>2017-10-13T08:51:10.000Z</time>
      </trkpt>
      <trkpt lat="46.16264" lon="7.10727">
        <ele>1837.1999511719</ele>
        <time>2017-10-13T08:51:13.000Z</time>
      </trkpt>
      <trkpt lat="46.16281" lon="7.10721">
        <ele>1851.5999755859</ele>
        <time>2017-10-13T08:51:52.000Z</time>
      </trkpt>
      <trkpt lat="46.16283" lon="7.10739">
        <ele>1855.1999511719</ele>
        <time>2017-10-13T08:52:06.000Z</time>
      </trkpt>
      <trkpt lat="46.16283" lon="7.10743">
        <ele>1855.4000244141</ele>
        <time>2017-10-13T08:52:09.000Z</time>
      </trkpt>
      <trkpt lat="46.16284" lon="7.10745">
        <ele>1855.5999755859</ele>
        <time>2017-10-13T08:52:11.000Z</time>
      </trkpt>
      <trkpt lat="46.16284" lon="7.10749">
        <ele>1856.1999511719</ele>
        <time>2017-10-13T08:52:19.000Z</time>
      </trkpt>
      <trkpt lat="46.16288" lon="7.10745">
        <ele>1859.4000244141</ele>
        <time>2017-10-13T08:52:29.000Z</time>
      </trkpt>
      <trkpt lat="46.16289" lon="7.1074">
        <ele>1860.1999511719</ele>
        <time>2017-10-13T08:52:33.000Z</time>
      </trkpt>
      <trkpt lat="46.1629" lon="7.10738">
        <ele>1860.8000488281</ele>
        <time>2017-10-13T08:52:35.000Z</time>
      </trkpt>
      <trkpt lat="46.16291" lon="7.10734">
        <ele>1861.4000244141</ele>
        <time>2017-10-13T08:52:38.000Z</time>
      </trkpt>
      <trkpt lat="46.16292" lon="7.1073">
        <ele>1862.1999511719</ele>
        <time>2017-10-13T08:52:41.000Z</time>
      </trkpt>
      <trkpt lat="46.16293" lon="7.10727">
        <ele>1862.5999755859</ele>
        <time>2017-10-13T08:52:44.000Z</time>
      </trkpt>
      <trkpt lat="46.16294" lon="7.10725">
        <ele>1863.1999511719</ele>
        <time>2017-10-13T08:52:47.000Z</time>
      </trkpt>
      <trkpt lat="46.16298" lon="7.10715">
        <ele>1866</ele>
        <time>2017-10-13T08:52:58.000Z</time>
      </trkpt>
      <trkpt lat="46.16299" lon="7.1071">
        <ele>1867</ele>
        <time>2017-10-13T08:53:03.000Z</time>
      </trkpt>
      <trkpt lat="46.16301" lon="7.10707">
        <ele>1868.4000244141</ele>
        <time>2017-10-13T08:53:05.000Z</time>
      </trkpt>
      <trkpt lat="46.1631" lon="7.10683">
        <ele>1874.5999755859</ele>
        <time>2017-10-13T08:53:26.000Z</time>
      </trkpt>
      <trkpt lat="46.16319" lon="7.10675">
        <ele>1881.8000488281</ele>
        <time>2017-10-13T08:53:39.000Z</time>
      </trkpt>
      <trkpt lat="46.16325" lon="7.1067">
        <ele>1887.4000244141</ele>
        <time>2017-10-13T08:53:50.000Z</time>
      </trkpt>
      <trkpt lat="46.16328" lon="7.10669">
        <ele>1889.5999755859</ele>
        <time>2017-10-13T08:53:54.000Z</time>
      </trkpt>
      <trkpt lat="46.16328" lon="7.1067">
        <ele>1890</ele>
        <time>2017-10-13T08:53:56.000Z</time>
      </trkpt>
      <trkpt lat="46.16328" lon="7.10672">
        <ele>1890.1999511719</ele>
        <time>2017-10-13T08:53:58.000Z</time>
      </trkpt>
      <trkpt lat="46.1633" lon="7.10682">
        <ele>1892.1999511719</ele>
        <time>2017-10-13T08:54:07.000Z</time>
      </trkpt>
      <trkpt lat="46.16334" lon="7.10708">
        <ele>1898.1999511719</ele>
        <time>2017-10-13T08:54:28.000Z</time>
      </trkpt>
      <trkpt lat="46.16335" lon="7.1071">
        <ele>1898.8000488281</ele>
        <time>2017-10-13T08:54:29.000Z</time>
      </trkpt>
      <trkpt lat="46.16344" lon="7.10733">
        <ele>1908.8000488281</ele>
        <time>2017-10-13T08:54:45.000Z</time>
      </trkpt>
      <trkpt lat="46.16348" lon="7.10739">
        <ele>1912.1999511719</ele>
        <time>2017-10-13T08:54:54.000Z</time>
      </trkpt>
      <trkpt lat="46.16348" lon="7.10739">
        <ele>1912.4000244141</ele>
        <time>2017-10-13T08:54:57.000Z</time>
      </trkpt>
      <trkpt lat="46.1635" lon="7.10726">
        <ele>1913.5999755859</ele>
        <time>2017-10-13T08:55:09.000Z</time>
      </trkpt>
      <trkpt lat="46.16352" lon="7.10722">
        <ele>1915</ele>
        <time>2017-10-13T08:55:12.000Z</time>
      </trkpt>
      <trkpt lat="46.16359" lon="7.10703">
        <ele>1919.5999755859</ele>
        <time>2017-10-13T08:55:28.000Z</time>
      </trkpt>
      <trkpt lat="46.16369" lon="7.10689">
        <ele>1927.4000244141</ele>
        <time>2017-10-13T08:55:49.000Z</time>
      </trkpt>
      <trkpt lat="46.16376" lon="7.10685">
        <ele>1933</ele>
        <time>2017-10-13T08:56:02.000Z</time>
      </trkpt>
      <trkpt lat="46.16388" lon="7.10667">
        <ele>1942.8000488281</ele>
        <time>2017-10-13T08:56:30.000Z</time>
      </trkpt>
      <trkpt lat="46.16397" lon="7.10685">
        <ele>1952.1999511719</ele>
        <time>2017-10-13T08:56:54.000Z</time>
      </trkpt>
      <trkpt lat="46.16399" lon="7.10696">
        <ele>1954.4000244141</ele>
        <time>2017-10-13T08:57:05.000Z</time>
      </trkpt>
      <trkpt lat="46.164" lon="7.10697">
        <ele>1955.4000244141</ele>
        <time>2017-10-13T08:57:09.000Z</time>
      </trkpt>
      <trkpt lat="46.16412" lon="7.10674">
        <ele>1964.5999755859</ele>
        <time>2017-10-13T08:57:42.000Z</time>
      </trkpt>
      <trkpt lat="46.16423" lon="7.10656">
        <ele>1972.1999511719</ele>
        <time>2017-10-13T08:58:00.000Z</time>
      </trkpt>
      <trkpt lat="46.16437" lon="7.10638">
        <ele>1983.5999755859</ele>
        <time>2017-10-13T08:58:21.000Z</time>
      </trkpt>
      <trkpt lat="46.16439" lon="7.10633">
        <ele>1984.1999511719</ele>
        <time>2017-10-13T08:58:24.000Z</time>
      </trkpt>
      <trkpt lat="46.1645" lon="7.10614">
        <ele>1992.1999511719</ele>
        <time>2017-10-13T08:58:43.000Z</time>
      </trkpt>
      <trkpt lat="46.16469" lon="7.10611">
        <ele>2008.1999511719</ele>
        <time>2017-10-13T08:58:59.000Z</time>
      </trkpt>
      <trkpt lat="46.16487" lon="7.10608">
        <ele>2023.1999511719</ele>
        <time>2017-10-13T08:59:18.000Z</time>
      </trkpt>
      <trkpt lat="46.16494" lon="7.10605">
        <ele>2029</ele>
        <time>2017-10-13T08:59:31.000Z</time>
      </trkpt>
      <trkpt lat="46.16484" lon="7.10598">
        <ele>2020</ele>
        <time>2017-10-13T08:59:42.000Z</time>
      </trkpt>
      <trkpt lat="46.16476" lon="7.106">
        <ele>2013.1999511719</ele>
        <time>2017-10-13T08:59:49.000Z</time>
      </trkpt>
      <trkpt lat="46.16472" lon="7.10601">
        <ele>2010.4000244141</ele>
        <time>2017-10-13T08:59:52.000Z</time>
      </trkpt>
      <trkpt lat="46.16473" lon="7.10598">
        <ele>2010.4000244141</ele>
        <time>2017-10-13T08:59:56.000Z</time>
      </trkpt>
      <trkpt lat="46.16473" lon="7.10596">
        <ele>2010.4000244141</ele>
        <time>2017-10-13T09:00:01.000Z</time>
      </trkpt>
      <trkpt lat="46.16482" lon="7.10578">
        <ele>2016.5999755859</ele>
        <time>2017-10-13T09:00:06.000Z</time>
      </trkpt>
      <trkpt lat="46.16484" lon="7.10569">
        <ele>2018.4000244141</ele>
        <time>2017-10-13T09:00:10.000Z</time>
      </trkpt>
      <trkpt lat="46.16487" lon="7.10548">
        <ele>2018.8000488281</ele>
        <time>2017-10-13T09:00:30.000Z</time>
      </trkpt>
      <trkpt lat="46.16487" lon="7.10546">
        <ele>2018.4000244141</ele>
        <time>2017-10-13T09:00:32.000Z</time>
      </trkpt>
      <trkpt lat="46.16484" lon="7.10547">
        <ele>2015.4000244141</ele>
        <time>2017-10-13T09:00:36.000Z</time>
      </trkpt>
      <trkpt lat="46.16486" lon="7.10526">
        <ele>2015</ele>
        <time>2017-10-13T09:01:10.000Z</time>
      </trkpt>
      <trkpt lat="46.16486" lon="7.10509">
        <ele>2013.5999755859</ele>
        <time>2017-10-13T09:01:44.000Z</time>
      </trkpt>
      <trkpt lat="46.16476" lon="7.10488">
        <ele>2002.1999511719</ele>
        <time>2017-10-13T09:02:14.000Z</time>
      </trkpt>
      <trkpt lat="46.16476" lon="7.10462">
        <ele>2000.8000488281</ele>
        <time>2017-10-13T09:02:35.000Z</time>
      </trkpt>
      <trkpt lat="46.16479" lon="7.10454">
        <ele>2002.4000244141</ele>
        <time>2017-10-13T09:02:42.000Z</time>
      </trkpt>
      <trkpt lat="46.1648" lon="7.10448">
        <ele>2003</ele>
        <time>2017-10-13T09:02:47.000Z</time>
      </trkpt>
      <trkpt lat="46.1648" lon="7.10446">
        <ele>2002.8000488281</ele>
        <time>2017-10-13T09:02:49.000Z</time>
      </trkpt>
      <trkpt lat="46.1648" lon="7.10443">
        <ele>2002.5999755859</ele>
        <time>2017-10-13T09:02:51.000Z</time>
      </trkpt>
      <trkpt lat="46.16479" lon="7.1044">
        <ele>2002</ele>
        <time>2017-10-13T09:02:54.000Z</time>
      </trkpt>
      <trkpt lat="46.1649" lon="7.10445">
        <ele>2011.5999755859</ele>
        <time>2017-10-13T09:03:18.000Z</time>
      </trkpt>
      <trkpt lat="46.16493" lon="7.10457">
        <ele>2015.1999511719</ele>
        <time>2017-10-13T09:03:27.000Z</time>
      </trkpt>
      <trkpt lat="46.16497" lon="7.10468">
        <ele>2019.1999511719</ele>
        <time>2017-10-13T09:03:39.000Z</time>
      </trkpt>
      <trkpt lat="46.16505" lon="7.10491">
        <ele>2027.1999511719</ele>
        <time>2017-10-13T09:04:03.000Z</time>
      </trkpt>
      <trkpt lat="46.16516" lon="7.10492">
        <ele>2037.1999511719</ele>
        <time>2017-10-13T09:04:30.000Z</time>
      </trkpt>
      <trkpt lat="46.16518" lon="7.10477">
        <ele>2038</ele>
        <time>2017-10-13T09:04:41.000Z</time>
      </trkpt>
      <trkpt lat="46.16518" lon="7.10468">
        <ele>2038</ele>
        <time>2017-10-13T09:04:47.000Z</time>
      </trkpt>
      <trkpt lat="46.16519" lon="7.1046">
        <ele>2038</ele>
        <time>2017-10-13T09:04:53.000Z</time>
      </trkpt>
      <trkpt lat="46.16522" lon="7.10451">
        <ele>2039</ele>
        <time>2017-10-13T09:05:02.000Z</time>
      </trkpt>
      <trkpt lat="46.16524" lon="7.10442">
        <ele>2036</ele>
        <time>2017-10-13T09:05:09.000Z</time>
      </trkpt>
      <trkpt lat="46.16525" lon="7.10439">
        <ele>2034.5999755859</ele>
        <time>2017-10-13T09:05:12.000Z</time>
      </trkpt>
      <trkpt lat="46.16524" lon="7.10435">
        <ele>2033.1999511719</ele>
        <time>2017-10-13T09:05:15.000Z</time>
      </trkpt>
      <trkpt lat="46.16525" lon="7.1043">
        <ele>2031</ele>
        <time>2017-10-13T09:05:19.000Z</time>
      </trkpt>
      <trkpt lat="46.16526" lon="7.10428">
        <ele>2030.5999755859</ele>
        <time>2017-10-13T09:05:21.000Z</time>
      </trkpt>
      <trkpt lat="46.16531" lon="7.10412">
        <ele>2026</ele>
        <time>2017-10-13T09:05:36.000Z</time>
      </trkpt>
      <trkpt lat="46.16545" lon="7.104">
        <ele>2032.8000488281</ele>
        <time>2017-10-13T09:05:57.000Z</time>
      </trkpt>
      <trkpt lat="46.16553" lon="7.10398">
        <ele>2036.8000488281</ele>
        <time>2017-10-13T09:06:06.000Z</time>
      </trkpt>
      <trkpt lat="46.16558" lon="7.10395">
        <ele>2038.8000488281</ele>
        <time>2017-10-13T09:06:11.000Z</time>
      </trkpt>
      <trkpt lat="46.16576" lon="7.10403">
        <ele>2043.1999511719</ele>
        <time>2017-10-13T09:06:27.000Z</time>
      </trkpt>
      <trkpt lat="46.16592" lon="7.10414">
        <ele>2048.6000976562</ele>
        <time>2017-10-13T09:06:41.000Z</time>
      </trkpt>
      <trkpt lat="46.16611" lon="7.10412">
        <ele>2052.1999511719</ele>
        <time>2017-10-13T09:06:55.000Z</time>
      </trkpt>
      <trkpt lat="46.16629" lon="7.10409">
        <ele>2055.3999023438</ele>
        <time>2017-10-13T09:07:09.000Z</time>
      </trkpt>
      <trkpt lat="46.16645" lon="7.10398">
        <ele>2057</ele>
        <time>2017-10-13T09:07:25.000Z</time>
      </trkpt>
      <trkpt lat="46.16654" lon="7.10403">
        <ele>2061</ele>
        <time>2017-10-13T09:07:44.000Z</time>
      </trkpt>
      <trkpt lat="46.16651" lon="7.10427">
        <ele>2068.3999023438</ele>
        <time>2017-10-13T09:08:27.000Z</time>
      </trkpt>
      <trkpt lat="46.16655" lon="7.10452">
        <ele>2079.8000488281</ele>
        <time>2017-10-13T09:09:06.000Z</time>
      </trkpt>
      <trkpt lat="46.16658" lon="7.10477">
        <ele>2090.8000488281</ele>
        <time>2017-10-13T09:09:42.000Z</time>
      </trkpt>
      <trkpt lat="46.16659" lon="7.10497">
        <ele>2099.6000976562</ele>
        <time>2017-10-13T09:10:53.000Z</time>
      </trkpt>
      <trkpt lat="46.16659" lon="7.1051">
        <ele>2107.3999023438</ele>
        <time>2017-10-13T09:11:24.000Z</time>
      </trkpt>
      <trkpt lat="46.16655" lon="7.10517">
        <ele>2108.1999511719</ele>
        <time>2017-10-13T09:11:30.000Z</time>
      </trkpt>
      <trkpt lat="46.16648" lon="7.10541">
        <ele>2114.3999023438</ele>
        <time>2017-10-13T09:11:48.000Z</time>
      </trkpt>
      <trkpt lat="46.16642" lon="7.10567">
        <ele>2123</ele>
        <time>2017-10-13T09:12:07.000Z</time>
      </trkpt>
      <trkpt lat="46.16639" lon="7.10592">
        <ele>2131.3999023438</ele>
        <time>2017-10-13T09:12:26.000Z</time>
      </trkpt>
      <trkpt lat="46.16632" lon="7.10616">
        <ele>2137.8000488281</ele>
        <time>2017-10-13T09:12:44.000Z</time>
      </trkpt>
      <trkpt lat="46.16625" lon="7.10641">
        <ele>2144</ele>
        <time>2017-10-13T09:13:05.000Z</time>
      </trkpt>
      <trkpt lat="46.16624" lon="7.10656">
        <ele>2142.6000976562</ele>
        <time>2017-10-13T09:13:16.000Z</time>
      </trkpt>
      <trkpt lat="46.16631" lon="7.10679">
        <ele>2148</ele>
        <time>2017-10-13T09:13:37.000Z</time>
      </trkpt>
      <trkpt lat="46.16645" lon="7.10695">
        <ele>2160</ele>
        <time>2017-10-13T09:14:01.000Z</time>
      </trkpt>
      <trkpt lat="46.16643" lon="7.10712">
        <ele>2158</ele>
        <time>2017-10-13T09:14:16.000Z</time>
      </trkpt>
      <trkpt lat="46.16631" lon="7.10729">
        <ele>2147.3999023438</ele>
        <time>2017-10-13T09:14:34.000Z</time>
      </trkpt>
      <trkpt lat="46.16621" lon="7.10751">
        <ele>2141</ele>
        <time>2017-10-13T09:14:51.000Z</time>
      </trkpt>
      <trkpt lat="46.16622" lon="7.10777">
        <ele>2142.6000976562</ele>
        <time>2017-10-13T09:15:08.000Z</time>
      </trkpt>
      <trkpt lat="46.16624" lon="7.10803">
        <ele>2145.8000488281</ele>
        <time>2017-10-13T09:15:22.000Z</time>
      </trkpt>
      <trkpt lat="46.16627" lon="7.10829">
        <ele>2146.6000976562</ele>
        <time>2017-10-13T09:15:37.000Z</time>
      </trkpt>
      <trkpt lat="46.16633" lon="7.10855">
        <ele>2142.8000488281</ele>
        <time>2017-10-13T09:15:48.000Z</time>
      </trkpt>
      <trkpt lat="46.16636" lon="7.10882">
        <ele>2135.3999023438</ele>
        <time>2017-10-13T09:15:57.000Z</time>
      </trkpt>
      <trkpt lat="46.16652" lon="7.10896">
        <ele>2144.3999023438</ele>
        <time>2017-10-13T09:16:06.000Z</time>
      </trkpt>
      <trkpt lat="46.16652" lon="7.10902">
        <ele>2142.3999023438</ele>
        <time>2017-10-13T09:16:07.000Z</time>
      </trkpt>
      <trkpt lat="46.16656" lon="7.10928">
        <ele>2134.8000488281</ele>
        <time>2017-10-13T09:16:17.000Z</time>
      </trkpt>
      <trkpt lat="46.16668" lon="7.10949">
        <ele>2137</ele>
        <time>2017-10-13T09:16:31.000Z</time>
      </trkpt>
      <trkpt lat="46.16681" lon="7.10966">
        <ele>2139.6000976562</ele>
        <time>2017-10-13T09:16:47.000Z</time>
      </trkpt>
      <trkpt lat="46.16687" lon="7.10986">
        <ele>2139</ele>
        <time>2017-10-13T09:17:02.000Z</time>
      </trkpt>
      <trkpt lat="46.16682" lon="7.11002">
        <ele>2135.6000976562</ele>
        <time>2017-10-13T09:17:13.000Z</time>
      </trkpt>
      <trkpt lat="46.16685" lon="7.11028">
        <ele>2139.6000976562</ele>
        <time>2017-10-13T09:17:29.000Z</time>
      </trkpt>
      <trkpt lat="46.16686" lon="7.11028">
        <ele>2140.1999511719</ele>
        <time>2017-10-13T09:17:33.000Z</time>
      </trkpt>
      <trkpt lat="46.16686" lon="7.11022">
        <ele>2139.8000488281</ele>
        <time>2017-10-13T09:17:37.000Z</time>
      </trkpt>
      <trkpt lat="46.16694" lon="7.11021">
        <ele>2143.3999023438</ele>
        <time>2017-10-13T09:18:04.000Z</time>
      </trkpt>
      <trkpt lat="46.16699" lon="7.11013">
        <ele>2144.8000488281</ele>
        <time>2017-10-13T09:18:15.000Z</time>
      </trkpt>
      <trkpt lat="46.16705" lon="7.11016">
        <ele>2148</ele>
        <time>2017-10-13T09:18:41.000Z</time>
      </trkpt>
      <trkpt lat="46.16712" lon="7.11019">
        <ele>2151.8000488281</ele>
        <time>2017-10-13T09:19:05.000Z</time>
      </trkpt>
      <trkpt lat="46.16712" lon="7.1102">
        <ele>2151.6000976562</ele>
        <time>2017-10-13T09:19:06.000Z</time>
      </trkpt>
      <trkpt lat="46.16718" lon="7.11013">
        <ele>2154.1999511719</ele>
        <time>2017-10-13T09:19:37.000Z</time>
      </trkpt>
      <trkpt lat="46.16725" lon="7.11">
        <ele>2156.3999023438</ele>
        <time>2017-10-13T09:20:07.000Z</time>
      </trkpt>
      <trkpt lat="46.16732" lon="7.10984">
        <ele>2167</ele>
        <time>2017-10-13T09:20:27.000Z</time>
      </trkpt>
      <trkpt lat="46.16733" lon="7.10985">
        <ele>2167.6000976562</ele>
        <time>2017-10-13T09:20:30.000Z</time>
      </trkpt>
      <trkpt lat="46.16741" lon="7.10989">
        <ele>2176</ele>
        <time>2017-10-13T09:21:02.000Z</time>
      </trkpt>
      <trkpt lat="46.16742" lon="7.10991">
        <ele>2175.3999023438</ele>
        <time>2017-10-13T09:21:04.000Z</time>
      </trkpt>
      <trkpt lat="46.16743" lon="7.10996">
        <ele>2175</ele>
        <time>2017-10-13T09:21:07.000Z</time>
      </trkpt>
      <trkpt lat="46.16744" lon="7.11">
        <ele>2176</ele>
        <time>2017-10-13T09:21:12.000Z</time>
      </trkpt>
      <trkpt lat="46.16751" lon="7.10985">
        <ele>2190.6000976562</ele>
        <time>2017-10-13T09:21:36.000Z</time>
      </trkpt>
      <trkpt lat="46.16755" lon="7.10978">
        <ele>2198.3999023438</ele>
        <time>2017-10-13T09:21:51.000Z</time>
      </trkpt>
      <trkpt lat="46.16757" lon="7.10971">
        <ele>2205.1999511719</ele>
        <time>2017-10-13T09:22:00.000Z</time>
      </trkpt>
      <trkpt lat="46.16759" lon="7.10984">
        <ele>2200.3999023438</ele>
        <time>2017-10-13T09:22:15.000Z</time>
      </trkpt>
      <trkpt lat="46.16761" lon="7.10991">
        <ele>2198.6000976562</ele>
        <time>2017-10-13T09:22:20.000Z</time>
      </trkpt>
      <trkpt lat="46.16764" lon="7.10999">
        <ele>2199.8000488281</ele>
        <time>2017-10-13T09:22:29.000Z</time>
      </trkpt>
      <trkpt lat="46.16768" lon="7.10972">
        <ele>2218.3999023438</ele>
        <time>2017-10-13T09:22:56.000Z</time>
      </trkpt>
      <trkpt lat="46.1677" lon="7.10967">
        <ele>2223.8000488281</ele>
        <time>2017-10-13T09:23:01.000Z</time>
      </trkpt>
      <trkpt lat="46.16772" lon="7.10974">
        <ele>2221.6000976562</ele>
        <time>2017-10-13T09:23:13.000Z</time>
      </trkpt>
      <trkpt lat="46.16782" lon="7.10989">
        <ele>2225.1999511719</ele>
        <time>2017-10-13T09:23:37.000Z</time>
      </trkpt>
      <trkpt lat="46.16785" lon="7.10975">
        <ele>2236.3999023438</ele>
        <time>2017-10-13T09:23:58.000Z</time>
      </trkpt>
      <trkpt lat="46.1679" lon="7.10983">
        <ele>2238.6000976562</ele>
        <time>2017-10-13T09:24:26.000Z</time>
      </trkpt>
      <trkpt lat="46.16796" lon="7.1099">
        <ele>2241.1999511719</ele>
        <time>2017-10-13T09:24:54.000Z</time>
      </trkpt>
      <trkpt lat="46.16797" lon="7.10984">
        <ele>2246.1999511719</ele>
        <time>2017-10-13T09:24:58.000Z</time>
      </trkpt>
      <trkpt lat="46.16806" lon="7.1096">
        <ele>2257.1999511719</ele>
        <time>2017-10-13T09:25:22.000Z</time>
      </trkpt>
      <trkpt lat="46.16819" lon="7.10958">
        <ele>2267.8000488281</ele>
        <time>2017-10-13T09:25:54.000Z</time>
      </trkpt>
      <trkpt lat="46.16825" lon="7.10964">
        <ele>2273</ele>
        <time>2017-10-13T09:27:00.000Z</time>
      </trkpt>
      <trkpt lat="46.1683" lon="7.10976">
        <ele>2275.6000976562</ele>
        <time>2017-10-13T09:27:41.000Z</time>
      </trkpt>
      <trkpt lat="46.16827" lon="7.10987">
        <ele>2272.6000976562</ele>
        <time>2017-10-13T09:28:07.000Z</time>
      </trkpt>
      <trkpt lat="46.16844" lon="7.1098">
        <ele>2287.8000488281</ele>
        <time>2017-10-13T09:28:56.000Z</time>
      </trkpt>
      <trkpt lat="46.16851" lon="7.10996">
        <ele>2293.1999511719</ele>
        <time>2017-10-13T09:29:43.000Z</time>
      </trkpt>
      <trkpt lat="46.16863" lon="7.11001">
        <ele>2304.1999511719</ele>
        <time>2017-10-13T09:30:31.000Z</time>
      </trkpt>
      <trkpt lat="46.16862" lon="7.1101">
        <ele>2304.8000488281</ele>
        <time>2017-10-13T09:31:02.000Z</time>
      </trkpt>
      <trkpt lat="46.16855" lon="7.11026">
        <ele>2302.3999023438</ele>
        <time>2017-10-13T09:31:50.000Z</time>
      </trkpt>
      <trkpt lat="46.16868" lon="7.11041">
        <ele>2316.6000976562</ele>
        <time>2017-10-13T09:32:18.000Z</time>
      </trkpt>
      <trkpt lat="46.16875" lon="7.11038">
        <ele>2322.3999023438</ele>
        <time>2017-10-13T09:32:46.000Z</time>
      </trkpt>
      <trkpt lat="46.16881" lon="7.11034">
        <ele>2326.6000976562</ele>
        <time>2017-10-13T09:33:11.000Z</time>
      </trkpt>
      <trkpt lat="46.16893" lon="7.11013">
        <ele>2332.6000976562</ele>
        <time>2017-10-13T09:33:36.000Z</time>
      </trkpt>
      <trkpt lat="46.16906" lon="7.10996">
        <ele>2340</ele>
        <time>2017-10-13T09:34:05.000Z</time>
      </trkpt>
      <trkpt lat="46.16923" lon="7.10989">
        <ele>2355.1999511719</ele>
        <time>2017-10-13T09:34:35.000Z</time>
      </trkpt>
      <trkpt lat="46.16926" lon="7.10998">
        <ele>2357</ele>
        <time>2017-10-13T09:35:21.000Z</time>
      </trkpt>
      <trkpt lat="46.16932" lon="7.11004">
        <ele>2362.1999511719</ele>
        <time>2017-10-13T09:36:05.000Z</time>
      </trkpt>
      <trkpt lat="46.16944" lon="7.10994">
        <ele>2373.8000488281</ele>
        <time>2017-10-13T09:36:51.000Z</time>
      </trkpt>
      <trkpt lat="46.16943" lon="7.11006">
        <ele>2370.8000488281</ele>
        <time>2017-10-13T09:37:00.000Z</time>
      </trkpt>
      <trkpt lat="46.16936" lon="7.11028">
        <ele>2362.1999511719</ele>
        <time>2017-10-13T09:37:45.000Z</time>
      </trkpt>
      <trkpt lat="46.16947" lon="7.1103">
        <ele>2371.1999511719</ele>
        <time>2017-10-13T09:38:00.000Z</time>
      </trkpt>
      <trkpt lat="46.16962" lon="7.11015">
        <ele>2386.8000488281</ele>
        <time>2017-10-13T09:38:38.000Z</time>
      </trkpt>
      <trkpt lat="46.16972" lon="7.11015">
        <ele>2396</ele>
        <time>2017-10-13T09:39:15.000Z</time>
      </trkpt>
      <trkpt lat="46.16987" lon="7.11022">
        <ele>2403.8000488281</ele>
        <time>2017-10-13T09:39:50.000Z</time>
      </trkpt>
      <trkpt lat="46.16989" lon="7.11011">
        <ele>2406</ele>
        <time>2017-10-13T09:40:13.000Z</time>
      </trkpt>
      <trkpt lat="46.1699" lon="7.11008">
        <ele>2406.8000488281</ele>
        <time>2017-10-13T09:40:16.000Z</time>
      </trkpt>
      <trkpt lat="46.16994" lon="7.10989">
        <ele>2410.8000488281</ele>
        <time>2017-10-13T09:40:32.000Z</time>
      </trkpt>
      <trkpt lat="46.16995" lon="7.10985">
        <ele>2410.3999023438</ele>
        <time>2017-10-13T09:40:36.000Z</time>
      </trkpt>
      <trkpt lat="46.17005" lon="7.10992">
        <ele>2416.3999023438</ele>
        <time>2017-10-13T09:41:15.000Z</time>
      </trkpt>
      <trkpt lat="46.17006" lon="7.10981">
        <ele>2414.6000976562</ele>
        <time>2017-10-13T09:41:33.000Z</time>
      </trkpt>
      <trkpt lat="46.17008" lon="7.10979">
        <ele>2415</ele>
        <time>2017-10-13T09:41:38.000Z</time>
      </trkpt>
      <trkpt lat="46.17014" lon="7.11004">
        <ele>2418.8000488281</ele>
        <time>2017-10-13T09:42:08.000Z</time>
      </trkpt>
      <trkpt lat="46.17023" lon="7.11003">
        <ele>2423.1999511719</ele>
        <time>2017-10-13T09:42:51.000Z</time>
      </trkpt>
      <trkpt lat="46.17026" lon="7.10996">
        <ele>2426</ele>
        <time>2017-10-13T09:43:24.000Z</time>
      </trkpt>
      <trkpt lat="46.17033" lon="7.11011">
        <ele>2426.3999023438</ele>
        <time>2017-10-13T09:43:54.000Z</time>
      </trkpt>
      <trkpt lat="46.17035" lon="7.11003">
        <ele>2429</ele>
        <time>2017-10-13T09:44:33.000Z</time>
      </trkpt>
      <trkpt lat="46.17041" lon="7.11023">
        <ele>2428</ele>
        <time>2017-10-13T09:45:02.000Z</time>
      </trkpt>
      <trkpt lat="46.17043" lon="7.11043">
        <ele>2424.8000488281</ele>
        <time>2017-10-13T09:45:51.000Z</time>
      </trkpt>
      <trkpt lat="46.17048" lon="7.11048">
        <ele>2426.1999511719</ele>
        <time>2017-10-13T09:46:24.000Z</time>
      </trkpt>
      <trkpt lat="46.17056" lon="7.11025">
        <ele>2434.3999023438</ele>
        <time>2017-10-13T09:46:48.000Z</time>
      </trkpt>
      <trkpt lat="46.17061" lon="7.11016">
        <ele>2438.3999023438</ele>
        <time>2017-10-13T09:46:58.000Z</time>
      </trkpt>
      <trkpt lat="46.1707" lon="7.11006">
        <ele>2442.6000976562</ele>
        <time>2017-10-13T09:47:34.000Z</time>
      </trkpt>
      <trkpt lat="46.17073" lon="7.11014">
        <ele>2441.8000488281</ele>
        <time>2017-10-13T09:48:02.000Z</time>
      </trkpt>
      <trkpt lat="46.17081" lon="7.11008">
        <ele>2447.3999023438</ele>
        <time>2017-10-13T09:48:35.000Z</time>
      </trkpt>
      <trkpt lat="46.17085" lon="7.11026">
        <ele>2442.1999511719</ele>
        <time>2017-10-13T09:49:05.000Z</time>
      </trkpt>
      <trkpt lat="46.17089" lon="7.11014">
        <ele>2448.3999023438</ele>
        <time>2017-10-13T09:49:16.000Z</time>
      </trkpt>
      <trkpt lat="46.17099" lon="7.10994">
        <ele>2469</ele>
        <time>2017-10-13T09:49:42.000Z</time>
      </trkpt>
      <trkpt lat="46.1711" lon="7.10983">
        <ele>2476.3999023438</ele>
        <time>2017-10-13T09:50:25.000Z</time>
      </trkpt>
      <trkpt lat="46.17121" lon="7.10977">
        <ele>2484</ele>
        <time>2017-10-13T09:51:16.000Z</time>
      </trkpt>
      <trkpt lat="46.17132" lon="7.10967">
        <ele>2490.6000976562</ele>
        <time>2017-10-13T09:52:01.000Z</time>
      </trkpt>
      <trkpt lat="46.17137" lon="7.10954">
        <ele>2493</ele>
        <time>2017-10-13T09:52:51.000Z</time>
      </trkpt>
      <trkpt lat="46.17141" lon="7.10933">
        <ele>2494.8000488281</ele>
        <time>2017-10-13T09:53:28.000Z</time>
      </trkpt>
      <trkpt lat="46.17139" lon="7.1091">
        <ele>2492.3999023438</ele>
        <time>2017-10-13T09:54:02.000Z</time>
      </trkpt>
      <trkpt lat="46.17154" lon="7.10914">
        <ele>2503.8000488281</ele>
        <time>2017-10-13T09:54:47.000Z</time>
      </trkpt>
      <trkpt lat="46.17162" lon="7.10916">
        <ele>2511.6000976562</ele>
        <time>2017-10-13T09:55:25.000Z</time>
      </trkpt>
      <trkpt lat="46.17174" lon="7.10924">
        <ele>2521.6000976562</ele>
        <time>2017-10-13T09:56:04.000Z</time>
      </trkpt>
      <trkpt lat="46.17191" lon="7.1092">
        <ele>2540.1999511719</ele>
        <time>2017-10-13T09:56:43.000Z</time>
      </trkpt>
      <trkpt lat="46.17204" lon="7.10928">
        <ele>2551.1999511719</ele>
        <time>2017-10-13T09:57:10.000Z</time>
      </trkpt>
      <trkpt lat="46.17219" lon="7.1094">
        <ele>2562</ele>
        <time>2017-10-13T09:57:44.000Z</time>
      </trkpt>
      <trkpt lat="46.17237" lon="7.10943">
        <ele>2572.6000976562</ele>
        <time>2017-10-13T09:58:16.000Z</time>
      </trkpt>
      <trkpt lat="46.17253" lon="7.10943">
        <ele>2577.6000976562</ele>
        <time>2017-10-13T09:58:42.000Z</time>
      </trkpt>
      <trkpt lat="46.1726" lon="7.10946">
        <ele>2578.6000976562</ele>
        <time>2017-10-13T09:58:54.000Z</time>
      </trkpt>
      <trkpt lat="46.17263" lon="7.10948">
        <ele>2579</ele>
        <time>2017-10-13T09:58:58.000Z</time>
      </trkpt>
      <trkpt lat="46.17266" lon="7.10949">
        <ele>2579.3999023438</ele>
        <time>2017-10-13T09:59:01.000Z</time>
      </trkpt>
      <trkpt lat="46.17272" lon="7.10952">
        <ele>2579.1999511719</ele>
        <time>2017-10-13T09:59:09.000Z</time>
      </trkpt>
      <trkpt lat="46.17275" lon="7.10952">
        <ele>2578.6000976562</ele>
        <time>2017-10-13T09:59:13.000Z</time>
      </trkpt>
      <trkpt lat="46.1728" lon="7.10951">
        <ele>2577.8000488281</ele>
        <time>2017-10-13T09:59:19.000Z</time>
      </trkpt>
      <trkpt lat="46.17288" lon="7.10951">
        <ele>2576.1999511719</ele>
        <time>2017-10-13T09:59:32.000Z</time>
      </trkpt>
      <trkpt lat="46.1729" lon="7.10952">
        <ele>2576</ele>
        <time>2017-10-13T09:59:35.000Z</time>
      </trkpt>
      <trkpt lat="46.17305" lon="7.10956">
        <ele>2574</ele>
        <time>2017-10-13T10:00:29.000Z</time>
      </trkpt>
      <trkpt lat="46.17313" lon="7.10971">
        <ele>2575.8000488281</ele>
        <time>2017-10-13T10:01:16.000Z</time>
      </trkpt>
      <trkpt lat="46.17319" lon="7.10978">
        <ele>2579.1999511719</ele>
        <time>2017-10-13T10:01:28.000Z</time>
      </trkpt>
      <trkpt lat="46.17333" lon="7.10986">
        <ele>2587.1999511719</ele>
        <time>2017-10-13T10:01:47.000Z</time>
      </trkpt>
      <trkpt lat="46.17348" lon="7.10991">
        <ele>2595.1999511719</ele>
        <time>2017-10-13T10:02:12.000Z</time>
      </trkpt>
      <trkpt lat="46.17355" lon="7.10992">
        <ele>2599</ele>
        <time>2017-10-13T10:02:25.000Z</time>
      </trkpt>
      <trkpt lat="46.17364" lon="7.10997">
        <ele>2603</ele>
        <time>2017-10-13T10:02:37.000Z</time>
      </trkpt>
      <trkpt lat="46.17382" lon="7.11004">
        <ele>2610.3999023438</ele>
        <time>2017-10-13T10:03:08.000Z</time>
      </trkpt>
      <trkpt lat="46.174" lon="7.11006">
        <ele>2620.6000976562</ele>
        <time>2017-10-13T10:03:43.000Z</time>
      </trkpt>
      <trkpt lat="46.17402" lon="7.11007">
        <ele>2622.3999023438</ele>
        <time>2017-10-13T10:03:46.000Z</time>
      </trkpt>
      <trkpt lat="46.1741" lon="7.11009">
        <ele>2628.8000488281</ele>
        <time>2017-10-13T10:03:56.000Z</time>
      </trkpt>
      <trkpt lat="46.17424" lon="7.11019">
        <ele>2638.3999023438</ele>
        <time>2017-10-13T10:04:59.000Z</time>
      </trkpt>
      <trkpt lat="46.1743" lon="7.11019">
        <ele>2644.3999023438</ele>
        <time>2017-10-13T10:05:11.000Z</time>
      </trkpt>
      <trkpt lat="46.17448" lon="7.1102">
        <ele>2661</ele>
        <time>2017-10-13T10:05:39.000Z</time>
      </trkpt>
      <trkpt lat="46.17466" lon="7.11015">
        <ele>2679.8000488281</ele>
        <time>2017-10-13T10:06:15.000Z</time>
      </trkpt>
      <trkpt lat="46.17484" lon="7.11013">
        <ele>2695</ele>
        <time>2017-10-13T10:06:52.000Z</time>
      </trkpt>
      <trkpt lat="46.175" lon="7.1102">
        <ele>2702.3999023438</ele>
        <time>2017-10-13T10:07:32.000Z</time>
      </trkpt>
      <trkpt lat="46.17509" lon="7.11039">
        <ele>2701.1999511719</ele>
        <time>2017-10-13T10:08:19.000Z</time>
      </trkpt>
      <trkpt lat="46.17525" lon="7.11034">
        <ele>2708.6000976562</ele>
        <time>2017-10-13T10:08:56.000Z</time>
      </trkpt>
      <trkpt lat="46.17541" lon="7.11036">
        <ele>2710.1999511719</ele>
        <time>2017-10-13T10:09:47.000Z</time>
      </trkpt>
      <trkpt lat="46.17558" lon="7.1104">
        <ele>2712.1999511719</ele>
        <time>2017-10-13T10:10:36.000Z</time>
      </trkpt>
      <trkpt lat="46.17577" lon="7.11041">
        <ele>2720.8000488281</ele>
        <time>2017-10-13T10:11:15.000Z</time>
      </trkpt>
      <trkpt lat="46.17592" lon="7.11045">
        <ele>2729.8000488281</ele>
        <time>2017-10-13T10:11:57.000Z</time>
      </trkpt>
      <trkpt lat="46.17608" lon="7.11045">
        <ele>2738.3999023438</ele>
        <time>2017-10-13T10:12:46.000Z</time>
      </trkpt>
      <trkpt lat="46.1762" lon="7.11059">
        <ele>2747.1999511719</ele>
        <time>2017-10-13T10:13:38.000Z</time>
      </trkpt>
      <trkpt lat="46.17636" lon="7.11058">
        <ele>2755</ele>
        <time>2017-10-13T10:14:13.000Z</time>
      </trkpt>
      <trkpt lat="46.17642" lon="7.11061">
        <ele>2758.3999023438</ele>
        <time>2017-10-13T10:14:23.000Z</time>
      </trkpt>
      <trkpt lat="46.17644" lon="7.11061">
        <ele>2759.6000976562</ele>
        <time>2017-10-13T10:14:26.000Z</time>
      </trkpt>
      <trkpt lat="46.17649" lon="7.1106">
        <ele>2759.8000488281</ele>
        <time>2017-10-13T10:14:32.000Z</time>
      </trkpt>
      <trkpt lat="46.17657" lon="7.11064">
        <ele>2761.3999023438</ele>
        <time>2017-10-13T10:14:49.000Z</time>
      </trkpt>
      <trkpt lat="46.17673" lon="7.11076">
        <ele>2765.6000976562</ele>
        <time>2017-10-13T10:15:34.000Z</time>
      </trkpt>
      <trkpt lat="46.17684" lon="7.11088">
        <ele>2769.8000488281</ele>
        <time>2017-10-13T10:15:58.000Z</time>
      </trkpt>
      <trkpt lat="46.1769" lon="7.11092">
        <ele>2771.3999023438</ele>
        <time>2017-10-13T10:16:06.000Z</time>
      </trkpt>
      <trkpt lat="46.17702" lon="7.11106">
        <ele>2776.6000976562</ele>
        <time>2017-10-13T10:16:29.000Z</time>
      </trkpt>
      <trkpt lat="46.1771" lon="7.11112">
        <ele>2778.8000488281</ele>
        <time>2017-10-13T10:16:44.000Z</time>
      </trkpt>
      <trkpt lat="46.17712" lon="7.11113">
        <ele>2779.1999511719</ele>
        <time>2017-10-13T10:16:47.000Z</time>
      </trkpt>
      <trkpt lat="46.1772" lon="7.1112">
        <ele>2781.8000488281</ele>
        <time>2017-10-13T10:17:00.000Z</time>
      </trkpt>
      <trkpt lat="46.17723" lon="7.11123">
        <ele>2783</ele>
        <time>2017-10-13T10:17:04.000Z</time>
      </trkpt>
      <trkpt lat="46.17724" lon="7.11125">
        <ele>2783.8000488281</ele>
        <time>2017-10-13T10:17:07.000Z</time>
      </trkpt>
      <trkpt lat="46.17739" lon="7.11137">
        <ele>2790</ele>
        <time>2017-10-13T10:17:36.000Z</time>
      </trkpt>
      <trkpt lat="46.17752" lon="7.11156">
        <ele>2798</ele>
        <time>2017-10-13T10:18:18.000Z</time>
      </trkpt>
      <trkpt lat="46.17766" lon="7.11172">
        <ele>2806</ele>
        <time>2017-10-13T10:18:55.000Z</time>
      </trkpt>
      <trkpt lat="46.17779" lon="7.11187">
        <ele>2813.1999511719</ele>
        <time>2017-10-13T10:19:33.000Z</time>
      </trkpt>
      <trkpt lat="46.17786" lon="7.1119">
        <ele>2815.3999023438</ele>
        <time>2017-10-13T10:19:45.000Z</time>
      </trkpt>
      <trkpt lat="46.17801" lon="7.11199">
        <ele>2821.1999511719</ele>
        <time>2017-10-13T10:20:15.000Z</time>
      </trkpt>
      <trkpt lat="46.1781" lon="7.1122">
        <ele>2829.6000976562</ele>
        <time>2017-10-13T10:21:15.000Z</time>
      </trkpt>
      <trkpt lat="46.17823" lon="7.11236">
        <ele>2834.1999511719</ele>
        <time>2017-10-13T10:22:08.000Z</time>
      </trkpt>
      <trkpt lat="46.17839" lon="7.11248">
        <ele>2835.1999511719</ele>
        <time>2017-10-13T10:22:51.000Z</time>
      </trkpt>
      <trkpt lat="46.17847" lon="7.11263">
        <ele>2832.6000976562</ele>
        <time>2017-10-13T10:24:10.000Z</time>
      </trkpt>
      <trkpt lat="46.17852" lon="7.11281">
        <ele>2829.8000488281</ele>
        <time>2017-10-13T10:25:11.000Z</time>
      </trkpt>
      <trkpt lat="46.17864" lon="7.11293">
        <ele>2827.3999023438</ele>
        <time>2017-10-13T10:26:14.000Z</time>
      </trkpt>
      <trkpt lat="46.17866" lon="7.11295">
        <ele>2827</ele>
        <time>2017-10-13T10:26:17.000Z</time>
      </trkpt>
      <trkpt lat="46.17867" lon="7.11297">
        <ele>2826.6000976562</ele>
        <time>2017-10-13T10:26:20.000Z</time>
      </trkpt>
      <trkpt lat="46.17863" lon="7.11304">
        <ele>2825.8000488281</ele>
        <time>2017-10-13T10:28:57.000Z</time>
      </trkpt>
      <trkpt lat="46.17864" lon="7.11304">
        <ele>2825.8000488281</ele>
        <time>2017-10-13T10:36:39.000Z</time>
      </trkpt>
      <trkpt lat="46.17865" lon="7.11305">
        <ele>2825.6000976562</ele>
        <time>2017-10-13T10:47:25.000Z</time>
      </trkpt>
      <trkpt lat="46.1787" lon="7.11304">
        <ele>2825.6000976562</ele>
        <time>2017-10-13T10:53:21.000Z</time>
      </trkpt>
      <trkpt lat="46.17864" lon="7.11304">
        <ele>2825.8000488281</ele>
        <time>2017-10-13T10:59:11.000Z</time>
      </trkpt>
      <trkpt lat="46.17863" lon="7.11302">
        <ele>2826</ele>
        <time>2017-10-13T11:01:48.000Z</time>
      </trkpt>
      <trkpt lat="46.17865" lon="7.11294">
        <ele>2827.1999511719</ele>
        <time>2017-10-13T11:04:13.000Z</time>
      </trkpt>
      <trkpt lat="46.17853" lon="7.11279">
        <ele>2830</ele>
        <time>2017-10-13T11:04:58.000Z</time>
      </trkpt>
      <trkpt lat="46.17839" lon="7.11266">
        <ele>2832.3999023438</ele>
        <time>2017-10-13T11:06:15.000Z</time>
      </trkpt>
      <trkpt lat="46.17841" lon="7.11253">
        <ele>2834.3999023438</ele>
        <time>2017-10-13T11:07:57.000Z</time>
      </trkpt>
      <trkpt lat="46.1783" lon="7.11242">
        <ele>2835.8000488281</ele>
        <time>2017-10-13T11:08:38.000Z</time>
      </trkpt>
      <trkpt lat="46.17815" lon="7.11229">
        <ele>2832.3999023438</ele>
        <time>2017-10-13T11:09:24.000Z</time>
      </trkpt>
      <trkpt lat="46.17806" lon="7.11209">
        <ele>2825.1999511719</ele>
        <time>2017-10-13T11:10:31.000Z</time>
      </trkpt>
      <trkpt lat="46.17794" lon="7.11196">
        <ele>2818.8000488281</ele>
        <time>2017-10-13T11:11:10.000Z</time>
      </trkpt>
      <trkpt lat="46.17794" lon="7.11195">
        <ele>2818.6000976562</ele>
        <time>2017-10-13T11:11:12.000Z</time>
      </trkpt>
      <trkpt lat="46.17787" lon="7.11189">
        <ele>2815.6000976562</ele>
        <time>2017-10-13T11:11:25.000Z</time>
      </trkpt>
      <trkpt lat="46.17783" lon="7.11188">
        <ele>2814.1999511719</ele>
        <time>2017-10-13T11:11:31.000Z</time>
      </trkpt>
      <trkpt lat="46.17771" lon="7.11174">
        <ele>2807.6000976562</ele>
        <time>2017-10-13T11:12:22.000Z</time>
      </trkpt>
      <trkpt lat="46.17755" lon="7.1116">
        <ele>2800.1999511719</ele>
        <time>2017-10-13T11:12:45.000Z</time>
      </trkpt>
      <trkpt lat="46.17753" lon="7.11155">
        <ele>2798.3999023438</ele>
        <time>2017-10-13T11:12:51.000Z</time>
      </trkpt>
      <trkpt lat="46.1774" lon="7.11138">
        <ele>2790.3999023438</ele>
        <time>2017-10-13T11:13:22.000Z</time>
      </trkpt>
      <trkpt lat="46.17725" lon="7.11123">
        <ele>2783.1999511719</ele>
        <time>2017-10-13T11:13:45.000Z</time>
      </trkpt>
      <trkpt lat="46.17725" lon="7.11122">
        <ele>2782.8000488281</ele>
        <time>2017-10-13T11:13:46.000Z</time>
      </trkpt>
      <trkpt lat="46.17708" lon="7.1111">
        <ele>2778.3999023438</ele>
        <time>2017-10-13T11:14:03.000Z</time>
      </trkpt>
      <trkpt lat="46.17694" lon="7.11094">
        <ele>2772.3999023438</ele>
        <time>2017-10-13T11:14:22.000Z</time>
      </trkpt>
      <trkpt lat="46.17679" lon="7.11079">
        <ele>2766.8000488281</ele>
        <time>2017-10-13T11:14:40.000Z</time>
      </trkpt>
      <trkpt lat="46.17679" lon="7.11079">
        <ele>2766.6000976562</ele>
        <time>2017-10-13T11:14:41.000Z</time>
      </trkpt>
      <trkpt lat="46.17678" lon="7.11077">
        <ele>2765.8000488281</ele>
        <time>2017-10-13T11:14:44.000Z</time>
      </trkpt>
      <trkpt lat="46.17673" lon="7.11073">
        <ele>2764.6000976562</ele>
        <time>2017-10-13T11:14:52.000Z</time>
      </trkpt>
      <trkpt lat="46.17656" lon="7.11061">
        <ele>2760.6000976562</ele>
        <time>2017-10-13T11:15:25.000Z</time>
      </trkpt>
      <trkpt lat="46.17645" lon="7.1106">
        <ele>2759.6000976562</ele>
        <time>2017-10-13T11:15:39.000Z</time>
      </trkpt>
      <trkpt lat="46.17637" lon="7.11059">
        <ele>2756</ele>
        <time>2017-10-13T11:15:48.000Z</time>
      </trkpt>
      <trkpt lat="46.17621" lon="7.11056">
        <ele>2747.6000976562</ele>
        <time>2017-10-13T11:16:20.000Z</time>
      </trkpt>
      <trkpt lat="46.17611" lon="7.1105">
        <ele>2740.8000488281</ele>
        <time>2017-10-13T11:16:45.000Z</time>
      </trkpt>
      <trkpt lat="46.17597" lon="7.11046">
        <ele>2732.6000976562</ele>
        <time>2017-10-13T11:17:19.000Z</time>
      </trkpt>
      <trkpt lat="46.17581" lon="7.11045">
        <ele>2723.8000488281</ele>
        <time>2017-10-13T11:17:51.000Z</time>
      </trkpt>
      <trkpt lat="46.17565" lon="7.11039">
        <ele>2714.1999511719</ele>
        <time>2017-10-13T11:18:20.000Z</time>
      </trkpt>
      <trkpt lat="46.17549" lon="7.11036">
        <ele>2710.8000488281</ele>
        <time>2017-10-13T11:18:59.000Z</time>
      </trkpt>
      <trkpt lat="46.17545" lon="7.11037">
        <ele>2710.6000976562</ele>
        <time>2017-10-13T11:19:03.000Z</time>
      </trkpt>
      <trkpt lat="46.17528" lon="7.11033">
        <ele>2708.8000488281</ele>
        <time>2017-10-13T11:19:38.000Z</time>
      </trkpt>
      <trkpt lat="46.17512" lon="7.11037">
        <ele>2703.3999023438</ele>
        <time>2017-10-13T11:20:07.000Z</time>
      </trkpt>
      <trkpt lat="46.17506" lon="7.11041">
        <ele>2699</ele>
        <time>2017-10-13T11:20:15.000Z</time>
      </trkpt>
      <trkpt lat="46.17501" lon="7.1102">
        <ele>2702.6000976562</ele>
        <time>2017-10-13T11:21:01.000Z</time>
      </trkpt>
      <trkpt lat="46.17483" lon="7.11015">
        <ele>2694</ele>
        <time>2017-10-13T11:21:27.000Z</time>
      </trkpt>
      <trkpt lat="46.17478" lon="7.11017">
        <ele>2690.3999023438</ele>
        <time>2017-10-13T11:21:33.000Z</time>
      </trkpt>
      <trkpt lat="46.1746" lon="7.11017">
        <ele>2673.3999023438</ele>
        <time>2017-10-13T11:21:56.000Z</time>
      </trkpt>
      <trkpt lat="46.1744" lon="7.11021">
        <ele>2653.8000488281</ele>
        <time>2017-10-13T11:22:13.000Z</time>
      </trkpt>
      <trkpt lat="46.17423" lon="7.11017">
        <ele>2638.1999511719</ele>
        <time>2017-10-13T11:22:24.000Z</time>
      </trkpt>
      <trkpt lat="46.17405" lon="7.11008">
        <ele>2625</ele>
        <time>2017-10-13T11:22:36.000Z</time>
      </trkpt>
      <trkpt lat="46.17397" lon="7.11006">
        <ele>2618.8000488281</ele>
        <time>2017-10-13T11:22:44.000Z</time>
      </trkpt>
      <trkpt lat="46.17394" lon="7.11005">
        <ele>2616.3999023438</ele>
        <time>2017-10-13T11:22:48.000Z</time>
      </trkpt>
      <trkpt lat="46.17391" lon="7.11005">
        <ele>2615</ele>
        <time>2017-10-13T11:22:52.000Z</time>
      </trkpt>
      <trkpt lat="46.17373" lon="7.11">
        <ele>2607</ele>
        <time>2017-10-13T11:23:18.000Z</time>
      </trkpt>
      <trkpt lat="46.17356" lon="7.10991">
        <ele>2599.3999023438</ele>
        <time>2017-10-13T11:23:31.000Z</time>
      </trkpt>
      <trkpt lat="46.17345" lon="7.10989">
        <ele>2593.3999023438</ele>
        <time>2017-10-13T11:23:41.000Z</time>
      </trkpt>
      <trkpt lat="46.17327" lon="7.10982">
        <ele>2583.6000976562</ele>
        <time>2017-10-13T11:23:54.000Z</time>
      </trkpt>
      <trkpt lat="46.17316" lon="7.10975">
        <ele>2577.6000976562</ele>
        <time>2017-10-13T11:24:02.000Z</time>
      </trkpt>
      <trkpt lat="46.17314" lon="7.10969">
        <ele>2575.6000976562</ele>
        <time>2017-10-13T11:24:08.000Z</time>
      </trkpt>
      <trkpt lat="46.17306" lon="7.10953">
        <ele>2573.3999023438</ele>
        <time>2017-10-13T11:24:43.000Z</time>
      </trkpt>
      <trkpt lat="46.17289" lon="7.1095">
        <ele>2576.1999511719</ele>
        <time>2017-10-13T11:25:34.000Z</time>
      </trkpt>
      <trkpt lat="46.17271" lon="7.10951">
        <ele>2579.1999511719</ele>
        <time>2017-10-13T11:25:59.000Z</time>
      </trkpt>
      <trkpt lat="46.17265" lon="7.1095">
        <ele>2579</ele>
        <time>2017-10-13T11:27:32.000Z</time>
      </trkpt>
      <trkpt lat="46.17249" lon="7.10941">
        <ele>2577</ele>
        <time>2017-10-13T11:27:50.000Z</time>
      </trkpt>
      <trkpt lat="46.17243" lon="7.10943">
        <ele>2574.6000976562</ele>
        <time>2017-10-13T11:27:59.000Z</time>
      </trkpt>
      <trkpt lat="46.17226" lon="7.10941">
        <ele>2568.8000488281</ele>
        <time>2017-10-13T11:28:36.000Z</time>
      </trkpt>
      <trkpt lat="46.17215" lon="7.10934">
        <ele>2560.3999023438</ele>
        <time>2017-10-13T11:28:54.000Z</time>
      </trkpt>
      <trkpt lat="46.17202" lon="7.10917">
        <ele>2552.1999511719</ele>
        <time>2017-10-13T11:29:21.000Z</time>
      </trkpt>
      <trkpt lat="46.17185" lon="7.10923">
        <ele>2532.8000488281</ele>
        <time>2017-10-13T11:29:47.000Z</time>
      </trkpt>
      <trkpt lat="46.17168" lon="7.1092">
        <ele>2516.1999511719</ele>
        <time>2017-10-13T11:30:18.000Z</time>
      </trkpt>
      <trkpt lat="46.17167" lon="7.10912">
        <ele>2518</ele>
        <time>2017-10-13T11:30:37.000Z</time>
      </trkpt>
      <trkpt lat="46.17149" lon="7.10912">
        <ele>2500.1999511719</ele>
        <time>2017-10-13T11:31:10.000Z</time>
      </trkpt>
      <trkpt lat="46.17142" lon="7.10922">
        <ele>2494.8000488281</ele>
        <time>2017-10-13T11:31:45.000Z</time>
      </trkpt>
      <trkpt lat="46.17144" lon="7.10943">
        <ele>2496.8000488281</ele>
        <time>2017-10-13T11:32:04.000Z</time>
      </trkpt>
      <trkpt lat="46.17135" lon="7.10956">
        <ele>2491.8000488281</ele>
        <time>2017-10-13T11:32:39.000Z</time>
      </trkpt>
      <trkpt lat="46.17127" lon="7.10971">
        <ele>2487.3999023438</ele>
        <time>2017-10-13T11:33:19.000Z</time>
      </trkpt>
      <trkpt lat="46.17117" lon="7.10978">
        <ele>2480.8000488281</ele>
        <time>2017-10-13T11:34:08.000Z</time>
      </trkpt>
      <trkpt lat="46.17106" lon="7.10989">
        <ele>2473.3999023438</ele>
        <time>2017-10-13T11:34:47.000Z</time>
      </trkpt>
      <trkpt lat="46.17102" lon="7.10992">
        <ele>2471.1999511719</ele>
        <time>2017-10-13T11:34:55.000Z</time>
      </trkpt>
      <trkpt lat="46.171" lon="7.10997">
        <ele>2467.3999023438</ele>
        <time>2017-10-13T11:35:00.000Z</time>
      </trkpt>
      <trkpt lat="46.17088" lon="7.11017">
        <ele>2446.1999511719</ele>
        <time>2017-10-13T11:35:17.000Z</time>
      </trkpt>
      <trkpt lat="46.17085" lon="7.11031">
        <ele>2441</ele>
        <time>2017-10-13T11:35:32.000Z</time>
      </trkpt>
      <trkpt lat="46.17085" lon="7.11028">
        <ele>2441.8000488281</ele>
        <time>2017-10-13T11:35:34.000Z</time>
      </trkpt>
      <trkpt lat="46.17086" lon="7.11006">
        <ele>2451.6000976562</ele>
        <time>2017-10-13T11:35:49.000Z</time>
      </trkpt>
      <trkpt lat="46.17078" lon="7.11021">
        <ele>2441.6000976562</ele>
        <time>2017-10-13T11:36:25.000Z</time>
      </trkpt>
      <trkpt lat="46.17077" lon="7.11024">
        <ele>2440.8000488281</ele>
        <time>2017-10-13T11:36:27.000Z</time>
      </trkpt>
      <trkpt lat="46.17077" lon="7.11023">
        <ele>2440.8000488281</ele>
        <time>2017-10-13T11:36:30.000Z</time>
      </trkpt>
      <trkpt lat="46.17076" lon="7.11015">
        <ele>2442.1999511719</ele>
        <time>2017-10-13T11:36:34.000Z</time>
      </trkpt>
      <trkpt lat="46.17074" lon="7.11005">
        <ele>2444.3999023438</ele>
        <time>2017-10-13T11:36:43.000Z</time>
      </trkpt>
      <trkpt lat="46.17066" lon="7.11013">
        <ele>2440.3999023438</ele>
        <time>2017-10-13T11:37:02.000Z</time>
      </trkpt>
      <trkpt lat="46.17055" lon="7.11035">
        <ele>2432.3999023438</ele>
        <time>2017-10-13T11:37:17.000Z</time>
      </trkpt>
      <trkpt lat="46.17047" lon="7.11058">
        <ele>2423.8000488281</ele>
        <time>2017-10-13T11:37:32.000Z</time>
      </trkpt>
      <trkpt lat="46.17046" lon="7.11056">
        <ele>2423.8000488281</ele>
        <time>2017-10-13T11:37:35.000Z</time>
      </trkpt>
      <trkpt lat="46.17046" lon="7.11053">
        <ele>2424.3999023438</ele>
        <time>2017-10-13T11:37:37.000Z</time>
      </trkpt>
      <trkpt lat="46.17045" lon="7.11044">
        <ele>2425.6000976562</ele>
        <time>2017-10-13T11:37:46.000Z</time>
      </trkpt>
      <trkpt lat="46.17043" lon="7.11026">
        <ele>2428.3999023438</ele>
        <time>2017-10-13T11:38:12.000Z</time>
      </trkpt>
      <trkpt lat="46.17046" lon="7.1101">
        <ele>2432.6000976562</ele>
        <time>2017-10-13T11:38:25.000Z</time>
      </trkpt>
      <trkpt lat="46.17035" lon="7.11021">
        <ele>2425.3999023438</ele>
        <time>2017-10-13T11:39:09.000Z</time>
      </trkpt>
      <trkpt lat="46.17036" lon="7.11014">
        <ele>2427.3999023438</ele>
        <time>2017-10-13T11:39:15.000Z</time>
      </trkpt>
      <trkpt lat="46.17036" lon="7.11004">
        <ele>2429.1999511719</ele>
        <time>2017-10-13T11:39:24.000Z</time>
      </trkpt>
      <trkpt lat="46.17023" lon="7.1101">
        <ele>2422</ele>
        <time>2017-10-13T11:39:56.000Z</time>
      </trkpt>
      <trkpt lat="46.17024" lon="7.11003">
        <ele>2423.8000488281</ele>
        <time>2017-10-13T11:40:02.000Z</time>
      </trkpt>
      <trkpt lat="46.17022" lon="7.10998">
        <ele>2423.6000976562</ele>
        <time>2017-10-13T11:40:08.000Z</time>
      </trkpt>
      <trkpt lat="46.1702" lon="7.11">
        <ele>2422.6000976562</ele>
        <time>2017-10-13T11:40:12.000Z</time>
      </trkpt>
      <trkpt lat="46.17008" lon="7.10986">
        <ele>2416.8000488281</ele>
        <time>2017-10-13T11:40:47.000Z</time>
      </trkpt>
      <trkpt lat="46.17007" lon="7.10982">
        <ele>2415</ele>
        <time>2017-10-13T11:40:53.000Z</time>
      </trkpt>
      <trkpt lat="46.17005" lon="7.10991">
        <ele>2416</ele>
        <time>2017-10-13T11:40:59.000Z</time>
      </trkpt>
      <trkpt lat="46.17004" lon="7.10999">
        <ele>2415</ele>
        <time>2017-10-13T11:41:07.000Z</time>
      </trkpt>
      <trkpt lat="46.17003" lon="7.10998">
        <ele>2415</ele>
        <time>2017-10-13T11:41:09.000Z</time>
      </trkpt>
      <trkpt lat="46.17" lon="7.1099">
        <ele>2413.8000488281</ele>
        <time>2017-10-13T11:41:30.000Z</time>
      </trkpt>
      <trkpt lat="46.16999" lon="7.10985">
        <ele>2412</ele>
        <time>2017-10-13T11:41:36.000Z</time>
      </trkpt>
      <trkpt lat="46.16997" lon="7.10989">
        <ele>2412</ele>
        <time>2017-10-13T11:41:40.000Z</time>
      </trkpt>
      <trkpt lat="46.16996" lon="7.10992">
        <ele>2412.1999511719</ele>
        <time>2017-10-13T11:41:42.000Z</time>
      </trkpt>
      <trkpt lat="46.16988" lon="7.11015">
        <ele>2405</ele>
        <time>2017-10-13T11:41:57.000Z</time>
      </trkpt>
      <trkpt lat="46.16986" lon="7.11024">
        <ele>2402.8000488281</ele>
        <time>2017-10-13T11:42:07.000Z</time>
      </trkpt>
      <trkpt lat="46.16979" lon="7.1102">
        <ele>2400.6000976562</ele>
        <time>2017-10-13T11:42:25.000Z</time>
      </trkpt>
      <trkpt lat="46.1697" lon="7.11021">
        <ele>2392.6000976562</ele>
        <time>2017-10-13T11:42:41.000Z</time>
      </trkpt>
      <trkpt lat="46.16954" lon="7.11026">
        <ele>2378.3999023438</ele>
        <time>2017-10-13T11:43:07.000Z</time>
      </trkpt>
      <trkpt lat="46.16936" lon="7.11031">
        <ele>2361.6000976562</ele>
        <time>2017-10-13T11:43:27.000Z</time>
      </trkpt>
      <trkpt lat="46.16941" lon="7.11015">
        <ele>2368.3999023438</ele>
        <time>2017-10-13T11:43:48.000Z</time>
      </trkpt>
      <trkpt lat="46.16946" lon="7.11002">
        <ele>2374.8000488281</ele>
        <time>2017-10-13T11:44:00.000Z</time>
      </trkpt>
      <trkpt lat="46.1694" lon="7.11002">
        <ele>2369.1999511719</ele>
        <time>2017-10-13T11:44:26.000Z</time>
      </trkpt>
      <trkpt lat="46.1693" lon="7.11008">
        <ele>2359.8000488281</ele>
        <time>2017-10-13T11:44:38.000Z</time>
      </trkpt>
      <trkpt lat="46.16935" lon="7.10998">
        <ele>2365.6000976562</ele>
        <time>2017-10-13T11:44:51.000Z</time>
      </trkpt>
      <trkpt lat="46.16927" lon="7.10991">
        <ele>2358.8000488281</ele>
        <time>2017-10-13T11:45:32.000Z</time>
      </trkpt>
      <trkpt lat="46.16917" lon="7.10993">
        <ele>2350</ele>
        <time>2017-10-13T11:45:59.000Z</time>
      </trkpt>
      <trkpt lat="46.169" lon="7.11004">
        <ele>2335</ele>
        <time>2017-10-13T11:46:16.000Z</time>
      </trkpt>
      <trkpt lat="46.16886" lon="7.11022">
        <ele>2328.3999023438</ele>
        <time>2017-10-13T11:46:33.000Z</time>
      </trkpt>
      <trkpt lat="46.16874" lon="7.11042">
        <ele>2322.1999511719</ele>
        <time>2017-10-13T11:46:50.000Z</time>
      </trkpt>
      <trkpt lat="46.16872" lon="7.11045">
        <ele>2321.1999511719</ele>
        <time>2017-10-13T11:46:56.000Z</time>
      </trkpt>
      <trkpt lat="46.16872" lon="7.11042">
        <ele>2320.8000488281</ele>
        <time>2017-10-13T11:46:58.000Z</time>
      </trkpt>
      <trkpt lat="46.16872" lon="7.11037">
        <ele>2319.3999023438</ele>
        <time>2017-10-13T11:47:02.000Z</time>
      </trkpt>
      <trkpt lat="46.16873" lon="7.11035">
        <ele>2319.6000976562</ele>
        <time>2017-10-13T11:47:04.000Z</time>
      </trkpt>
      <trkpt lat="46.16873" lon="7.1103">
        <ele>2319.3999023438</ele>
        <time>2017-10-13T11:47:16.000Z</time>
      </trkpt>
      <trkpt lat="46.1687" lon="7.11034">
        <ele>2317.1999511719</ele>
        <time>2017-10-13T11:47:20.000Z</time>
      </trkpt>
      <trkpt lat="46.16866" lon="7.11041">
        <ele>2315.1999511719</ele>
        <time>2017-10-13T11:47:30.000Z</time>
      </trkpt>
      <trkpt lat="46.16865" lon="7.11037">
        <ele>2313</ele>
        <time>2017-10-13T11:47:33.000Z</time>
      </trkpt>
      <trkpt lat="46.16864" lon="7.11027">
        <ele>2310.3999023438</ele>
        <time>2017-10-13T11:47:43.000Z</time>
      </trkpt>
      <trkpt lat="46.1685" lon="7.11024">
        <ele>2298.1999511719</ele>
        <time>2017-10-13T11:48:00.000Z</time>
      </trkpt>
      <trkpt lat="46.16853" lon="7.11021">
        <ele>2300.1999511719</ele>
        <time>2017-10-13T11:48:04.000Z</time>
      </trkpt>
      <trkpt lat="46.16864" lon="7.11009">
        <ele>2307</ele>
        <time>2017-10-13T11:48:20.000Z</time>
      </trkpt>
      <trkpt lat="46.16859" lon="7.11011">
        <ele>2302.3999023438</ele>
        <time>2017-10-13T11:48:28.000Z</time>
      </trkpt>
      <trkpt lat="46.1686" lon="7.10997">
        <ele>2300.6000976562</ele>
        <time>2017-10-13T11:49:02.000Z</time>
      </trkpt>
      <trkpt lat="46.1685" lon="7.10987">
        <ele>2291.8000488281</ele>
        <time>2017-10-13T11:50:07.000Z</time>
      </trkpt>
      <trkpt lat="46.16833" lon="7.10988">
        <ele>2277.6000976562</ele>
        <time>2017-10-13T11:50:41.000Z</time>
      </trkpt>
      <trkpt lat="46.16824" lon="7.10971">
        <ele>2270.8000488281</ele>
        <time>2017-10-13T11:51:05.000Z</time>
      </trkpt>
      <trkpt lat="46.16824" lon="7.10971">
        <ele>2271.3999023438</ele>
        <time>2017-10-13T11:51:42.000Z</time>
      </trkpt>
      <trkpt lat="46.16815" lon="7.1096">
        <ele>2264.6000976562</ele>
        <time>2017-10-13T11:52:28.000Z</time>
      </trkpt>
      <trkpt lat="46.16808" lon="7.10952">
        <ele>2259.3999023438</ele>
        <time>2017-10-13T11:53:17.000Z</time>
      </trkpt>
      <trkpt lat="46.168" lon="7.1097">
        <ele>2252.3999023438</ele>
        <time>2017-10-13T11:53:33.000Z</time>
      </trkpt>
      <trkpt lat="46.16796" lon="7.10996">
        <ele>2238.6000976562</ele>
        <time>2017-10-13T11:53:50.000Z</time>
      </trkpt>
      <trkpt lat="46.16793" lon="7.11">
        <ele>2234.8000488281</ele>
        <time>2017-10-13T11:53:58.000Z</time>
      </trkpt>
      <trkpt lat="46.16789" lon="7.10973">
        <ele>2243.3999023438</ele>
        <time>2017-10-13T11:54:16.000Z</time>
      </trkpt>
      <trkpt lat="46.16788" lon="7.10969">
        <ele>2243.3999023438</ele>
        <time>2017-10-13T11:54:22.000Z</time>
      </trkpt>
      <trkpt lat="46.16778" lon="7.1099">
        <ele>2219.1999511719</ele>
        <time>2017-10-13T11:54:39.000Z</time>
      </trkpt>
      <trkpt lat="46.16776" lon="7.10988">
        <ele>2217.8000488281</ele>
        <time>2017-10-13T11:54:44.000Z</time>
      </trkpt>
      <trkpt lat="46.16775" lon="7.10983">
        <ele>2220.6000976562</ele>
        <time>2017-10-13T11:54:47.000Z</time>
      </trkpt>
      <trkpt lat="46.16773" lon="7.10976">
        <ele>2222.3999023438</ele>
        <time>2017-10-13T11:54:56.000Z</time>
      </trkpt>
      <trkpt lat="46.16772" lon="7.10977">
        <ele>2220</ele>
        <time>2017-10-13T11:54:58.000Z</time>
      </trkpt>
      <trkpt lat="46.16766" lon="7.10983">
        <ele>2209.1999511719</ele>
        <time>2017-10-13T11:55:22.000Z</time>
      </trkpt>
      <trkpt lat="46.16759" lon="7.10999">
        <ele>2194</ele>
        <time>2017-10-13T11:55:39.000Z</time>
      </trkpt>
      <trkpt lat="46.16757" lon="7.10992">
        <ele>2193.8000488281</ele>
        <time>2017-10-13T11:55:44.000Z</time>
      </trkpt>
      <trkpt lat="46.16754" lon="7.10973">
        <ele>2201.1999511719</ele>
        <time>2017-10-13T11:56:05.000Z</time>
      </trkpt>
      <trkpt lat="46.16748" lon="7.10986">
        <ele>2185.6000976562</ele>
        <time>2017-10-13T11:56:18.000Z</time>
      </trkpt>
      <trkpt lat="46.16739" lon="7.11002">
        <ele>2170</ele>
        <time>2017-10-13T11:56:37.000Z</time>
      </trkpt>
      <trkpt lat="46.16738" lon="7.11">
        <ele>2168.8000488281</ele>
        <time>2017-10-13T11:56:41.000Z</time>
      </trkpt>
      <trkpt lat="46.16738" lon="7.10995">
        <ele>2168.8000488281</ele>
        <time>2017-10-13T11:56:44.000Z</time>
      </trkpt>
      <trkpt lat="46.16734" lon="7.10982">
        <ele>2171.6000976562</ele>
        <time>2017-10-13T11:56:55.000Z</time>
      </trkpt>
      <trkpt lat="46.16725" lon="7.11001">
        <ele>2156.1999511719</ele>
        <time>2017-10-13T11:57:20.000Z</time>
      </trkpt>
      <trkpt lat="46.16716" lon="7.11016">
        <ele>2153.6000976562</ele>
        <time>2017-10-13T11:57:43.000Z</time>
      </trkpt>
      <trkpt lat="46.16716" lon="7.11015">
        <ele>2153.3999023438</ele>
        <time>2017-10-13T11:57:45.000Z</time>
      </trkpt>
      <trkpt lat="46.16711" lon="7.11024">
        <ele>2152</ele>
        <time>2017-10-13T11:57:57.000Z</time>
      </trkpt>
      <trkpt lat="46.16711" lon="7.11023">
        <ele>2151.6000976562</ele>
        <time>2017-10-13T11:57:59.000Z</time>
      </trkpt>
      <trkpt lat="46.16709" lon="7.11014">
        <ele>2149.6000976562</ele>
        <time>2017-10-13T11:58:06.000Z</time>
      </trkpt>
      <trkpt lat="46.16706" lon="7.11023">
        <ele>2149.6000976562</ele>
        <time>2017-10-13T11:58:15.000Z</time>
      </trkpt>
      <trkpt lat="46.16705" lon="7.11021">
        <ele>2148.6000976562</ele>
        <time>2017-10-13T11:58:18.000Z</time>
      </trkpt>
      <trkpt lat="46.16703" lon="7.11008">
        <ele>2146.6000976562</ele>
        <time>2017-10-13T11:58:26.000Z</time>
      </trkpt>
      <trkpt lat="46.16701" lon="7.11012">
        <ele>2145.8000488281</ele>
        <time>2017-10-13T11:58:32.000Z</time>
      </trkpt>
      <trkpt lat="46.16699" lon="7.11017">
        <ele>2145.6000976562</ele>
        <time>2017-10-13T11:58:36.000Z</time>
      </trkpt>
      <trkpt lat="46.16697" lon="7.11028">
        <ele>2145.6000976562</ele>
        <time>2017-10-13T11:58:47.000Z</time>
      </trkpt>
      <trkpt lat="46.16697" lon="7.11023">
        <ele>2144.8000488281</ele>
        <time>2017-10-13T11:58:50.000Z</time>
      </trkpt>
      <trkpt lat="46.16695" lon="7.11011">
        <ele>2142.8000488281</ele>
        <time>2017-10-13T11:59:02.000Z</time>
      </trkpt>
      <trkpt lat="46.16693" lon="7.11023">
        <ele>2143</ele>
        <time>2017-10-13T11:59:10.000Z</time>
      </trkpt>
      <trkpt lat="46.16689" lon="7.11026">
        <ele>2141.3999023438</ele>
        <time>2017-10-13T11:59:22.000Z</time>
      </trkpt>
      <trkpt lat="46.16685" lon="7.1102">
        <ele>2139</ele>
        <time>2017-10-13T11:59:30.000Z</time>
      </trkpt>
      <trkpt lat="46.16685" lon="7.11022">
        <ele>2139</ele>
        <time>2017-10-13T11:59:32.000Z</time>
      </trkpt>
      <trkpt lat="46.16679" lon="7.11023">
        <ele>2136.6000976562</ele>
        <time>2017-10-13T11:59:45.000Z</time>
      </trkpt>
      <trkpt lat="46.16677" lon="7.11003">
        <ele>2133.3999023438</ele>
        <time>2017-10-13T12:00:00.000Z</time>
      </trkpt>
      <trkpt lat="46.16676" lon="7.1101">
        <ele>2134</ele>
        <time>2017-10-13T12:02:10.000Z</time>
      </trkpt>
      <trkpt lat="46.16672" lon="7.11035">
        <ele>2128.1999511719</ele>
        <time>2017-10-13T12:02:26.000Z</time>
      </trkpt>
      <trkpt lat="46.1668" lon="7.11061">
        <ele>2126.3999023438</ele>
        <time>2017-10-13T12:02:39.000Z</time>
      </trkpt>
      <trkpt lat="46.16684" lon="7.11086">
        <ele>2123.1999511719</ele>
        <time>2017-10-13T12:02:47.000Z</time>
      </trkpt>
      <trkpt lat="46.1669" lon="7.11112">
        <ele>2122</ele>
        <time>2017-10-13T12:02:55.000Z</time>
      </trkpt>
      <trkpt lat="46.16688" lon="7.11116">
        <ele>2118.8000488281</ele>
        <time>2017-10-13T12:02:57.000Z</time>
      </trkpt>
      <trkpt lat="46.16687" lon="7.1114">
        <ele>2113</ele>
        <time>2017-10-13T12:03:09.000Z</time>
      </trkpt>
      <trkpt lat="46.16694" lon="7.11166">
        <ele>2112.3999023438</ele>
        <time>2017-10-13T12:03:18.000Z</time>
      </trkpt>
      <trkpt lat="46.167" lon="7.11193">
        <ele>2105.1999511719</ele>
        <time>2017-10-13T12:03:26.000Z</time>
      </trkpt>
      <trkpt lat="46.167" lon="7.11219">
        <ele>2094.6000976562</ele>
        <time>2017-10-13T12:03:33.000Z</time>
      </trkpt>
      <trkpt lat="46.16701" lon="7.11244">
        <ele>2090</ele>
        <time>2017-10-13T12:03:41.000Z</time>
      </trkpt>
      <trkpt lat="46.16713" lon="7.11256">
        <ele>2095.6000976562</ele>
        <time>2017-10-13T12:03:48.000Z</time>
      </trkpt>
      <trkpt lat="46.16729" lon="7.11268">
        <ele>2103.8000488281</ele>
        <time>2017-10-13T12:03:57.000Z</time>
      </trkpt>
      <trkpt lat="46.16732" lon="7.11278">
        <ele>2104</ele>
        <time>2017-10-13T12:04:01.000Z</time>
      </trkpt>
      <trkpt lat="46.1673" lon="7.11304">
        <ele>2098.8000488281</ele>
        <time>2017-10-13T12:04:10.000Z</time>
      </trkpt>
      <trkpt lat="46.16738" lon="7.11331">
        <ele>2098.6000976562</ele>
        <time>2017-10-13T12:04:19.000Z</time>
      </trkpt>
      <trkpt lat="46.16749" lon="7.11354">
        <ele>2100.6000976562</ele>
        <time>2017-10-13T12:04:28.000Z</time>
      </trkpt>
      <trkpt lat="46.1675" lon="7.11359">
        <ele>2099.6000976562</ele>
        <time>2017-10-13T12:04:30.000Z</time>
      </trkpt>
      <trkpt lat="46.16745" lon="7.11387">
        <ele>2091</ele>
        <time>2017-10-13T12:04:38.000Z</time>
      </trkpt>
      <trkpt lat="46.16758" lon="7.11404">
        <ele>2094.6000976562</ele>
        <time>2017-10-13T12:04:47.000Z</time>
      </trkpt>
      <trkpt lat="46.16766" lon="7.11426">
        <ele>2092.3999023438</ele>
        <time>2017-10-13T12:04:56.000Z</time>
      </trkpt>
      <trkpt lat="46.1677" lon="7.11452">
        <ele>2085.8000488281</ele>
        <time>2017-10-13T12:05:05.000Z</time>
      </trkpt>
      <trkpt lat="46.16769" lon="7.11479">
        <ele>2078.8000488281</ele>
        <time>2017-10-13T12:05:13.000Z</time>
      </trkpt>
      <trkpt lat="46.16774" lon="7.11506">
        <ele>2072.8000488281</ele>
        <time>2017-10-13T12:05:22.000Z</time>
      </trkpt>
      <trkpt lat="46.1678" lon="7.11531">
        <ele>2066.3999023438</ele>
        <time>2017-10-13T12:05:33.000Z</time>
      </trkpt>
      <trkpt lat="46.16787" lon="7.11556">
        <ele>2060.6000976562</ele>
        <time>2017-10-13T12:05:45.000Z</time>
      </trkpt>
      <trkpt lat="46.168" lon="7.11577">
        <ele>2057.6000976562</ele>
        <time>2017-10-13T12:05:55.000Z</time>
      </trkpt>
      <trkpt lat="46.16815" lon="7.11584">
        <ele>2061.3999023438</ele>
        <time>2017-10-13T12:06:07.000Z</time>
      </trkpt>
      <trkpt lat="46.1682" lon="7.11593">
        <ele>2058.1999511719</ele>
        <time>2017-10-13T12:06:12.000Z</time>
      </trkpt>
      <trkpt lat="46.16835" lon="7.11607">
        <ele>2055.3999023438</ele>
        <time>2017-10-13T12:06:24.000Z</time>
      </trkpt>
      <trkpt lat="46.16854" lon="7.11616">
        <ele>2055.8000488281</ele>
        <time>2017-10-13T12:06:36.000Z</time>
      </trkpt>
      <trkpt lat="46.16871" lon="7.11622">
        <ele>2057.1999511719</ele>
        <time>2017-10-13T12:06:48.000Z</time>
      </trkpt>
      <trkpt lat="46.1689" lon="7.11629">
        <ele>2058.6000976562</ele>
        <time>2017-10-13T12:06:57.000Z</time>
      </trkpt>
      <trkpt lat="46.16904" lon="7.11646">
        <ele>2054.6000976562</ele>
        <time>2017-10-13T12:07:07.000Z</time>
      </trkpt>
      <trkpt lat="46.16921" lon="7.1165">
        <ele>2058.8000488281</ele>
        <time>2017-10-13T12:07:16.000Z</time>
      </trkpt>
      <trkpt lat="46.16931" lon="7.11651">
        <ele>2062</ele>
        <time>2017-10-13T12:07:23.000Z</time>
      </trkpt>
      <trkpt lat="46.16933" lon="7.11677">
        <ele>2049.8000488281</ele>
        <time>2017-10-13T12:07:32.000Z</time>
      </trkpt>
      <trkpt lat="46.16935" lon="7.11679">
        <ele>2049.8000488281</ele>
        <time>2017-10-13T12:07:33.000Z</time>
      </trkpt>
      <trkpt lat="46.16949" lon="7.11696">
        <ele>2047</ele>
        <time>2017-10-13T12:07:42.000Z</time>
      </trkpt>
      <trkpt lat="46.16963" lon="7.11713">
        <ele>2044.1999511719</ele>
        <time>2017-10-13T12:07:54.000Z</time>
      </trkpt>
      <trkpt lat="46.16978" lon="7.11731">
        <ele>2040.8000488281</ele>
        <time>2017-10-13T12:08:03.000Z</time>
      </trkpt>
      <trkpt lat="46.16988" lon="7.11753">
        <ele>2034.4000244141</ele>
        <time>2017-10-13T12:08:12.000Z</time>
      </trkpt>
      <trkpt lat="46.17006" lon="7.11762">
        <ele>2036.8000488281</ele>
        <time>2017-10-13T12:08:21.000Z</time>
      </trkpt>
      <trkpt lat="46.17019" lon="7.11782">
        <ele>2032.1999511719</ele>
        <time>2017-10-13T12:08:31.000Z</time>
      </trkpt>
      <trkpt lat="46.17029" lon="7.11805">
        <ele>2024.4000244141</ele>
        <time>2017-10-13T12:08:41.000Z</time>
      </trkpt>
      <trkpt lat="46.17044" lon="7.11822">
        <ele>2021.8000488281</ele>
        <time>2017-10-13T12:08:54.000Z</time>
      </trkpt>
      <trkpt lat="46.17057" lon="7.11842">
        <ele>2015.8000488281</ele>
        <time>2017-10-13T12:09:06.000Z</time>
      </trkpt>
      <trkpt lat="46.17066" lon="7.11852">
        <ele>2014.1999511719</ele>
        <time>2017-10-13T12:09:13.000Z</time>
      </trkpt>
      <trkpt lat="46.17084" lon="7.11857">
        <ele>2019.8000488281</ele>
        <time>2017-10-13T12:09:23.000Z</time>
      </trkpt>
      <trkpt lat="46.17096" lon="7.11862">
        <ele>2023</ele>
        <time>2017-10-13T12:09:35.000Z</time>
      </trkpt>
      <trkpt lat="46.1711" lon="7.11862">
        <ele>2026.4000244141</ele>
        <time>2017-10-13T12:09:43.000Z</time>
      </trkpt>
      <trkpt lat="46.17116" lon="7.11888">
        <ele>2017.4000244141</ele>
        <time>2017-10-13T12:09:53.000Z</time>
      </trkpt>
      <trkpt lat="46.1713" lon="7.11904">
        <ele>2014.1999511719</ele>
        <time>2017-10-13T12:10:02.000Z</time>
      </trkpt>
      <trkpt lat="46.17147" lon="7.11917">
        <ele>2017.4000244141</ele>
        <time>2017-10-13T12:10:11.000Z</time>
      </trkpt>
      <trkpt lat="46.17166" lon="7.11913">
        <ele>2032.8000488281</ele>
        <time>2017-10-13T12:10:18.000Z</time>
      </trkpt>
      <trkpt lat="46.17183" lon="7.11903">
        <ele>2049.6000976562</ele>
        <time>2017-10-13T12:10:31.000Z</time>
      </trkpt>
      <trkpt lat="46.17184" lon="7.119">
        <ele>2051.3999023438</ele>
        <time>2017-10-13T12:10:34.000Z</time>
      </trkpt>
      <trkpt lat="46.17183" lon="7.11903">
        <ele>2049.8000488281</ele>
        <time>2017-10-13T12:10:36.000Z</time>
      </trkpt>
      <trkpt lat="46.17181" lon="7.11911">
        <ele>2045.1999511719</ele>
        <time>2017-10-13T12:10:39.000Z</time>
      </trkpt>
      <trkpt lat="46.17173" lon="7.11936">
        <ele>2027.5999755859</ele>
        <time>2017-10-13T12:10:48.000Z</time>
      </trkpt>
      <trkpt lat="46.1717" lon="7.11962">
        <ele>2015</ele>
        <time>2017-10-13T12:10:55.000Z</time>
      </trkpt>
      <trkpt lat="46.17169" lon="7.1199">
        <ele>2002.8000488281</ele>
        <time>2017-10-13T12:11:02.000Z</time>
      </trkpt>
      <trkpt lat="46.17175" lon="7.12015">
        <ele>1999.1999511719</ele>
        <time>2017-10-13T12:11:09.000Z</time>
      </trkpt>
      <trkpt lat="46.17171" lon="7.12041">
        <ele>1991.5999755859</ele>
        <time>2017-10-13T12:11:19.000Z</time>
      </trkpt>
      <trkpt lat="46.17176" lon="7.12065">
        <ele>1990.5999755859</ele>
        <time>2017-10-13T12:11:29.000Z</time>
      </trkpt>
      <trkpt lat="46.17194" lon="7.12073">
        <ele>1999.4000244141</ele>
        <time>2017-10-13T12:11:39.000Z</time>
      </trkpt>
      <trkpt lat="46.17201" lon="7.12096">
        <ele>2006.4000244141</ele>
        <time>2017-10-13T12:11:47.000Z</time>
      </trkpt>
      <trkpt lat="46.17209" lon="7.12121">
        <ele>2016.4000244141</ele>
        <time>2017-10-13T12:11:56.000Z</time>
      </trkpt>
      <trkpt lat="46.17226" lon="7.12135">
        <ele>2028.1999511719</ele>
        <time>2017-10-13T12:12:04.000Z</time>
      </trkpt>
      <trkpt lat="46.17231" lon="7.12144">
        <ele>2035</ele>
        <time>2017-10-13T12:12:12.000Z</time>
      </trkpt>
      <trkpt lat="46.17219" lon="7.12163">
        <ele>2026</ele>
        <time>2017-10-13T12:12:23.000Z</time>
      </trkpt>
      <trkpt lat="46.17217" lon="7.12166">
        <ele>2024.1999511719</ele>
        <time>2017-10-13T12:12:25.000Z</time>
      </trkpt>
      <trkpt lat="46.172" lon="7.12179">
        <ele>2006.1999511719</ele>
        <time>2017-10-13T12:12:40.000Z</time>
      </trkpt>
      <trkpt lat="46.17198" lon="7.12206">
        <ele>2001.5999755859</ele>
        <time>2017-10-13T12:12:55.000Z</time>
      </trkpt>
      <trkpt lat="46.17206" lon="7.12226">
        <ele>2005.8000488281</ele>
        <time>2017-10-13T12:13:10.000Z</time>
      </trkpt>
      <trkpt lat="46.17207" lon="7.12229">
        <ele>2006.5999755859</ele>
        <time>2017-10-13T12:13:11.000Z</time>
      </trkpt>
      <trkpt lat="46.17218" lon="7.1225">
        <ele>2014.8000488281</ele>
        <time>2017-10-13T12:13:25.000Z</time>
      </trkpt>
      <trkpt lat="46.17217" lon="7.12253">
        <ele>2013.4000244141</ele>
        <time>2017-10-13T12:13:27.000Z</time>
      </trkpt>
      <trkpt lat="46.17208" lon="7.12277">
        <ele>2000.4000244141</ele>
        <time>2017-10-13T12:13:41.000Z</time>
      </trkpt>
      <trkpt lat="46.17212" lon="7.12304">
        <ele>2001</ele>
        <time>2017-10-13T12:13:51.000Z</time>
      </trkpt>
      <trkpt lat="46.17214" lon="7.12329">
        <ele>1999.8000488281</ele>
        <time>2017-10-13T12:13:59.000Z</time>
      </trkpt>
      <trkpt lat="46.17212" lon="7.12342">
        <ele>1995.5999755859</ele>
        <time>2017-10-13T12:14:06.000Z</time>
      </trkpt>
      <trkpt lat="46.1723" lon="7.12345">
        <ele>2015.5999755859</ele>
        <time>2017-10-13T12:14:17.000Z</time>
      </trkpt>
      <trkpt lat="46.17241" lon="7.12351">
        <ele>2028.1999511719</ele>
        <time>2017-10-13T12:14:23.000Z</time>
      </trkpt>
      <trkpt lat="46.17252" lon="7.12373">
        <ele>2039.8000488281</ele>
        <time>2017-10-13T12:14:33.000Z</time>
      </trkpt>
      <trkpt lat="46.17257" lon="7.12383">
        <ele>2044.4000244141</ele>
        <time>2017-10-13T12:14:38.000Z</time>
      </trkpt>
      <trkpt lat="46.17243" lon="7.12403">
        <ele>2024.5999755859</ele>
        <time>2017-10-13T12:14:46.000Z</time>
      </trkpt>
      <trkpt lat="46.17232" lon="7.12424">
        <ele>2009.4000244141</ele>
        <time>2017-10-13T12:14:54.000Z</time>
      </trkpt>
      <trkpt lat="46.17223" lon="7.12448">
        <ele>1997</ele>
        <time>2017-10-13T12:15:04.000Z</time>
      </trkpt>
      <trkpt lat="46.17225" lon="7.12472">
        <ele>1998</ele>
        <time>2017-10-13T12:15:15.000Z</time>
      </trkpt>
      <trkpt lat="46.17238" lon="7.12491">
        <ele>2011</ele>
        <time>2017-10-13T12:15:25.000Z</time>
      </trkpt>
      <trkpt lat="46.17246" lon="7.12515">
        <ele>2014.5999755859</ele>
        <time>2017-10-13T12:15:36.000Z</time>
      </trkpt>
      <trkpt lat="46.17242" lon="7.12542">
        <ele>2008</ele>
        <time>2017-10-13T12:15:45.000Z</time>
      </trkpt>
      <trkpt lat="46.17228" lon="7.12558">
        <ele>1992.8000488281</ele>
        <time>2017-10-13T12:15:53.000Z</time>
      </trkpt>
      <trkpt lat="46.17227" lon="7.12562">
        <ele>1991.5999755859</ele>
        <time>2017-10-13T12:15:54.000Z</time>
      </trkpt>
      <trkpt lat="46.17219" lon="7.12589">
        <ele>1978.8000488281</ele>
        <time>2017-10-13T12:16:03.000Z</time>
      </trkpt>
      <trkpt lat="46.17213" lon="7.12617">
        <ele>1966.8000488281</ele>
        <time>2017-10-13T12:16:11.000Z</time>
      </trkpt>
      <trkpt lat="46.17212" lon="7.12644">
        <ele>1961.1999511719</ele>
        <time>2017-10-13T12:16:19.000Z</time>
      </trkpt>
      <trkpt lat="46.17202" lon="7.12667">
        <ele>1947.8000488281</ele>
        <time>2017-10-13T12:16:27.000Z</time>
      </trkpt>
      <trkpt lat="46.17197" lon="7.12693">
        <ele>1936.1999511719</ele>
        <time>2017-10-13T12:16:38.000Z</time>
      </trkpt>
      <trkpt lat="46.17198" lon="7.1272">
        <ele>1931.8000488281</ele>
        <time>2017-10-13T12:16:46.000Z</time>
      </trkpt>
      <trkpt lat="46.17199" lon="7.12746">
        <ele>1928.5999755859</ele>
        <time>2017-10-13T12:16:55.000Z</time>
      </trkpt>
      <trkpt lat="46.17204" lon="7.12771">
        <ele>1929.8000488281</ele>
        <time>2017-10-13T12:17:05.000Z</time>
      </trkpt>
      <trkpt lat="46.17218" lon="7.12783">
        <ele>1942</ele>
        <time>2017-10-13T12:17:14.000Z</time>
      </trkpt>
      <trkpt lat="46.17237" lon="7.12782">
        <ele>1958.1999511719</ele>
        <time>2017-10-13T12:17:24.000Z</time>
      </trkpt>
      <trkpt lat="46.17245" lon="7.12788">
        <ele>1962.4000244141</ele>
        <time>2017-10-13T12:17:29.000Z</time>
      </trkpt>
      <trkpt lat="46.17246" lon="7.12799">
        <ele>1961.5999755859</ele>
        <time>2017-10-13T12:17:34.000Z</time>
      </trkpt>
      <trkpt lat="46.17245" lon="7.12803">
        <ele>1960</ele>
        <time>2017-10-13T12:17:36.000Z</time>
      </trkpt>
      <trkpt lat="46.17236" lon="7.12825">
        <ele>1950.4000244141</ele>
        <time>2017-10-13T12:17:50.000Z</time>
      </trkpt>
      <trkpt lat="46.17233" lon="7.12853">
        <ele>1951</ele>
        <time>2017-10-13T12:18:00.000Z</time>
      </trkpt>
      <trkpt lat="46.17228" lon="7.12877">
        <ele>1952</ele>
        <time>2017-10-13T12:18:09.000Z</time>
      </trkpt>
      <trkpt lat="46.17219" lon="7.12902">
        <ele>1946.8000488281</ele>
        <time>2017-10-13T12:18:19.000Z</time>
      </trkpt>
      <trkpt lat="46.17207" lon="7.12925">
        <ele>1928</ele>
        <time>2017-10-13T12:18:27.000Z</time>
      </trkpt>
      <trkpt lat="46.17206" lon="7.12949">
        <ele>1916.1999511719</ele>
        <time>2017-10-13T12:18:36.000Z</time>
      </trkpt>
      <trkpt lat="46.17208" lon="7.12976">
        <ele>1908.4000244141</ele>
        <time>2017-10-13T12:18:47.000Z</time>
      </trkpt>
      <trkpt lat="46.17213" lon="7.12987">
        <ele>1912</ele>
        <time>2017-10-13T12:18:53.000Z</time>
      </trkpt>
      <trkpt lat="46.17217" lon="7.13013">
        <ele>1909.4000244141</ele>
        <time>2017-10-13T12:19:03.000Z</time>
      </trkpt>
      <trkpt lat="46.17223" lon="7.1304">
        <ele>1906.5999755859</ele>
        <time>2017-10-13T12:19:11.000Z</time>
      </trkpt>
      <trkpt lat="46.17225" lon="7.13066">
        <ele>1901.1999511719</ele>
        <time>2017-10-13T12:19:22.000Z</time>
      </trkpt>
      <trkpt lat="46.17234" lon="7.13091">
        <ele>1897</ele>
        <time>2017-10-13T12:19:37.000Z</time>
      </trkpt>
      <trkpt lat="46.17243" lon="7.13112">
        <ele>1892</ele>
        <time>2017-10-13T12:19:46.000Z</time>
      </trkpt>
      <trkpt lat="46.17253" lon="7.13128">
        <ele>1888.4000244141</ele>
        <time>2017-10-13T12:19:59.000Z</time>
      </trkpt>
      <trkpt lat="46.17256" lon="7.13133">
        <ele>1887.1999511719</ele>
        <time>2017-10-13T12:20:06.000Z</time>
      </trkpt>
      <trkpt lat="46.17256" lon="7.13134">
        <ele>1887</ele>
        <time>2017-10-13T12:20:09.000Z</time>
      </trkpt>
      <trkpt lat="46.17258" lon="7.13134">
        <ele>1887</ele>
        <time>2017-10-13T12:20:13.000Z</time>
      </trkpt>
      <trkpt lat="46.17272" lon="7.13152">
        <ele>1883</ele>
        <time>2017-10-13T12:20:28.000Z</time>
      </trkpt>
      <trkpt lat="46.17287" lon="7.13166">
        <ele>1878.8000488281</ele>
        <time>2017-10-13T12:20:42.000Z</time>
      </trkpt>
      <trkpt lat="46.17305" lon="7.13164">
        <ele>1879.5999755859</ele>
        <time>2017-10-13T12:20:58.000Z</time>
      </trkpt>
      <trkpt lat="46.17324" lon="7.13164">
        <ele>1879.8000488281</ele>
        <time>2017-10-13T12:21:11.000Z</time>
      </trkpt>
      <trkpt lat="46.17342" lon="7.13168">
        <ele>1878.4000244141</ele>
        <time>2017-10-13T12:21:24.000Z</time>
      </trkpt>
      <trkpt lat="46.17361" lon="7.13171">
        <ele>1877.4000244141</ele>
        <time>2017-10-13T12:21:33.000Z</time>
      </trkpt>
      <trkpt lat="46.1738" lon="7.13176">
        <ele>1875.5999755859</ele>
        <time>2017-10-13T12:21:41.000Z</time>
      </trkpt>
      <trkpt lat="46.17399" lon="7.13179">
        <ele>1874.1999511719</ele>
        <time>2017-10-13T12:21:48.000Z</time>
      </trkpt>
      <trkpt lat="46.17418" lon="7.13187">
        <ele>1869.8000488281</ele>
        <time>2017-10-13T12:21:56.000Z</time>
      </trkpt>
      <trkpt lat="46.17436" lon="7.13195">
        <ele>1866.1999511719</ele>
        <time>2017-10-13T12:22:04.000Z</time>
      </trkpt>
      <trkpt lat="46.17456" lon="7.13191">
        <ele>1867.8000488281</ele>
        <time>2017-10-13T12:22:13.000Z</time>
      </trkpt>
      <trkpt lat="46.17472" lon="7.13196">
        <ele>1865.8000488281</ele>
        <time>2017-10-13T12:22:27.000Z</time>
      </trkpt>
      <trkpt lat="46.17472" lon="7.13196">
        <ele>1865.8000488281</ele>
        <time>2017-10-13T12:22:29.000Z</time>
      </trkpt>
      <trkpt lat="46.1747" lon="7.13199">
        <ele>1864.4000244141</ele>
        <time>2017-10-13T12:22:34.000Z</time>
      </trkpt>
      <trkpt lat="46.17454" lon="7.13213">
        <ele>1858.4000244141</ele>
        <time>2017-10-13T12:22:47.000Z</time>
      </trkpt>
      <trkpt lat="46.17438" lon="7.13228">
        <ele>1853.5999755859</ele>
        <time>2017-10-13T12:22:59.000Z</time>
      </trkpt>
      <trkpt lat="46.1743" lon="7.13239">
        <ele>1850.8000488281</ele>
        <time>2017-10-13T12:23:11.000Z</time>
      </trkpt>
      <trkpt lat="46.1743" lon="7.1324">
        <ele>1850.1999511719</ele>
        <time>2017-10-13T12:23:14.000Z</time>
      </trkpt>
      <trkpt lat="46.17423" lon="7.13246">
        <ele>1848.8000488281</ele>
        <time>2017-10-13T12:23:22.000Z</time>
      </trkpt>
      <trkpt lat="46.17408" lon="7.13263">
        <ele>1845.1999511719</ele>
        <time>2017-10-13T12:23:31.000Z</time>
      </trkpt>
      <trkpt lat="46.1739" lon="7.13275">
        <ele>1846.1999511719</ele>
        <time>2017-10-13T12:23:39.000Z</time>
      </trkpt>
      <trkpt lat="46.17371" lon="7.13281">
        <ele>1844.1999511719</ele>
        <time>2017-10-13T12:23:46.000Z</time>
      </trkpt>
      <trkpt lat="46.17354" lon="7.13286">
        <ele>1842.4000244141</ele>
        <time>2017-10-13T12:23:54.000Z</time>
      </trkpt>
      <trkpt lat="46.17344" lon="7.1331">
        <ele>1836.4000244141</ele>
        <time>2017-10-13T12:24:03.000Z</time>
      </trkpt>
      <trkpt lat="46.17339" lon="7.13319">
        <ele>1834</ele>
        <time>2017-10-13T12:24:11.000Z</time>
      </trkpt>
      <trkpt lat="46.17343" lon="7.13322">
        <ele>1833.8000488281</ele>
        <time>2017-10-13T12:24:15.000Z</time>
      </trkpt>
      <trkpt lat="46.17347" lon="7.13328">
        <ele>1832.5999755859</ele>
        <time>2017-10-13T12:24:22.000Z</time>
      </trkpt>
      <trkpt lat="46.17362" lon="7.13345">
        <ele>1827.1999511719</ele>
        <time>2017-10-13T12:24:37.000Z</time>
      </trkpt>
      <trkpt lat="46.17379" lon="7.13357">
        <ele>1823.4000244141</ele>
        <time>2017-10-13T12:24:52.000Z</time>
      </trkpt>
      <trkpt lat="46.17383" lon="7.13366">
        <ele>1820.4000244141</ele>
        <time>2017-10-13T12:25:00.000Z</time>
      </trkpt>
      <trkpt lat="46.174" lon="7.13375">
        <ele>1816.4000244141</ele>
        <time>2017-10-13T12:25:13.000Z</time>
      </trkpt>
      <trkpt lat="46.17408" lon="7.13387">
        <ele>1809.1999511719</ele>
        <time>2017-10-13T12:25:24.000Z</time>
      </trkpt>
      <trkpt lat="46.17419" lon="7.13402">
        <ele>1800.8000488281</ele>
        <time>2017-10-13T12:25:40.000Z</time>
      </trkpt>
      <trkpt lat="46.17438" lon="7.13406">
        <ele>1794.5999755859</ele>
        <time>2017-10-13T12:25:56.000Z</time>
      </trkpt>
      <trkpt lat="46.17446" lon="7.13403">
        <ele>1793.5999755859</ele>
        <time>2017-10-13T12:26:03.000Z</time>
      </trkpt>
      <trkpt lat="46.17465" lon="7.13406">
        <ele>1788</ele>
        <time>2017-10-13T12:26:19.000Z</time>
      </trkpt>
      <trkpt lat="46.1747" lon="7.13408">
        <ele>1786</ele>
        <time>2017-10-13T12:26:24.000Z</time>
      </trkpt>
      <trkpt lat="46.17473" lon="7.13409">
        <ele>1785</ele>
        <time>2017-10-13T12:26:26.000Z</time>
      </trkpt>
      <trkpt lat="46.17491" lon="7.13412">
        <ele>1780.4000244141</ele>
        <time>2017-10-13T12:26:37.000Z</time>
      </trkpt>
      <trkpt lat="46.17501" lon="7.13412">
        <ele>1779</ele>
        <time>2017-10-13T12:26:44.000Z</time>
      </trkpt>
      <trkpt lat="46.17502" lon="7.13415">
        <ele>1777.8000488281</ele>
        <time>2017-10-13T12:26:48.000Z</time>
      </trkpt>
      <trkpt lat="46.17502" lon="7.13416">
        <ele>1777.1999511719</ele>
        <time>2017-10-13T12:26:50.000Z</time>
      </trkpt>
      <trkpt lat="46.17503" lon="7.1342">
        <ele>1775.8000488281</ele>
        <time>2017-10-13T12:26:52.000Z</time>
      </trkpt>
      <trkpt lat="46.17501" lon="7.13425">
        <ele>1774</ele>
        <time>2017-10-13T12:26:58.000Z</time>
      </trkpt>
      <trkpt lat="46.17505" lon="7.13429">
        <ele>1771.5999755859</ele>
        <time>2017-10-13T12:27:03.000Z</time>
      </trkpt>
      <trkpt lat="46.17507" lon="7.1343">
        <ele>1771.1999511719</ele>
        <time>2017-10-13T12:27:05.000Z</time>
      </trkpt>
      <trkpt lat="46.1751" lon="7.13431">
        <ele>1770.4000244141</ele>
        <time>2017-10-13T12:27:08.000Z</time>
      </trkpt>
      <trkpt lat="46.17511" lon="7.13436">
        <ele>1768.1999511719</ele>
        <time>2017-10-13T12:27:12.000Z</time>
      </trkpt>
      <trkpt lat="46.175" lon="7.13453">
        <ele>1762</ele>
        <time>2017-10-13T12:27:26.000Z</time>
      </trkpt>
      <trkpt lat="46.17494" lon="7.13459">
        <ele>1759.4000244141</ele>
        <time>2017-10-13T12:27:32.000Z</time>
      </trkpt>
      <trkpt lat="46.17488" lon="7.1347">
        <ele>1755.4000244141</ele>
        <time>2017-10-13T12:27:48.000Z</time>
      </trkpt>
      <trkpt lat="46.17491" lon="7.1347">
        <ele>1754.5999755859</ele>
        <time>2017-10-13T12:27:51.000Z</time>
      </trkpt>
      <trkpt lat="46.1751" lon="7.13476">
        <ele>1750.5999755859</ele>
        <time>2017-10-13T12:28:01.000Z</time>
      </trkpt>
      <trkpt lat="46.17529" lon="7.13471">
        <ele>1751.1999511719</ele>
        <time>2017-10-13T12:28:08.000Z</time>
      </trkpt>
      <trkpt lat="46.17543" lon="7.13453">
        <ele>1757</ele>
        <time>2017-10-13T12:28:16.000Z</time>
      </trkpt>
      <trkpt lat="46.1756" lon="7.13457">
        <ele>1753</ele>
        <time>2017-10-13T12:28:25.000Z</time>
      </trkpt>
      <trkpt lat="46.17574" lon="7.13476">
        <ele>1747.5999755859</ele>
        <time>2017-10-13T12:28:33.000Z</time>
      </trkpt>
      <trkpt lat="46.17587" lon="7.13494">
        <ele>1743.4000244141</ele>
        <time>2017-10-13T12:28:40.000Z</time>
      </trkpt>
      <trkpt lat="46.17602" lon="7.13511">
        <ele>1738.5999755859</ele>
        <time>2017-10-13T12:28:48.000Z</time>
      </trkpt>
      <trkpt lat="46.1762" lon="7.1352">
        <ele>1738</ele>
        <time>2017-10-13T12:28:58.000Z</time>
      </trkpt>
      <trkpt lat="46.17623" lon="7.13527">
        <ele>1735.5999755859</ele>
        <time>2017-10-13T12:29:10.000Z</time>
      </trkpt>
      <trkpt lat="46.17623" lon="7.13529">
        <ele>1734.8000488281</ele>
        <time>2017-10-13T12:29:13.000Z</time>
      </trkpt>
      <trkpt lat="46.17625" lon="7.13531">
        <ele>1734</ele>
        <time>2017-10-13T12:29:15.000Z</time>
      </trkpt>
      <trkpt lat="46.1763" lon="7.13543">
        <ele>1729.5999755859</ele>
        <time>2017-10-13T12:29:26.000Z</time>
      </trkpt>
      <trkpt lat="46.17632" lon="7.13545">
        <ele>1729</ele>
        <time>2017-10-13T12:29:30.000Z</time>
      </trkpt>
      <trkpt lat="46.17649" lon="7.13558">
        <ele>1725.8000488281</ele>
        <time>2017-10-13T12:29:45.000Z</time>
      </trkpt>
      <trkpt lat="46.17654" lon="7.13565">
        <ele>1722.4000244141</ele>
        <time>2017-10-13T12:29:50.000Z</time>
      </trkpt>
      <trkpt lat="46.17656" lon="7.13566">
        <ele>1721.5999755859</ele>
        <time>2017-10-13T12:29:52.000Z</time>
      </trkpt>
      <trkpt lat="46.17674" lon="7.13575">
        <ele>1716.4000244141</ele>
        <time>2017-10-13T12:30:03.000Z</time>
      </trkpt>
      <trkpt lat="46.17692" lon="7.13575">
        <ele>1715.8000488281</ele>
        <time>2017-10-13T12:30:11.000Z</time>
      </trkpt>
      <trkpt lat="46.17708" lon="7.13579">
        <ele>1712.8000488281</ele>
        <time>2017-10-13T12:30:20.000Z</time>
      </trkpt>
      <trkpt lat="46.17724" lon="7.13593">
        <ele>1704.8000488281</ele>
        <time>2017-10-13T12:30:39.000Z</time>
      </trkpt>
      <trkpt lat="46.17729" lon="7.13594">
        <ele>1703.8000488281</ele>
        <time>2017-10-13T12:30:43.000Z</time>
      </trkpt>
      <trkpt lat="46.17748" lon="7.13587">
        <ele>1704.8000488281</ele>
        <time>2017-10-13T12:30:58.000Z</time>
      </trkpt>
      <trkpt lat="46.17765" lon="7.13588">
        <ele>1700.8000488281</ele>
        <time>2017-10-13T12:31:14.000Z</time>
      </trkpt>
      <trkpt lat="46.17768" lon="7.13588">
        <ele>1700.1999511719</ele>
        <time>2017-10-13T12:31:16.000Z</time>
      </trkpt>
      <trkpt lat="46.17777" lon="7.13586">
        <ele>1699.5999755859</ele>
        <time>2017-10-13T12:31:22.000Z</time>
      </trkpt>
      <trkpt lat="46.17779" lon="7.13587">
        <ele>1698.4000244141</ele>
        <time>2017-10-13T12:31:24.000Z</time>
      </trkpt>
      <trkpt lat="46.17784" lon="7.13591">
        <ele>1695.8000488281</ele>
        <time>2017-10-13T12:31:28.000Z</time>
      </trkpt>
      <trkpt lat="46.17791" lon="7.13589">
        <ele>1695</ele>
        <time>2017-10-13T12:31:33.000Z</time>
      </trkpt>
      <trkpt lat="46.17809" lon="7.13595">
        <ele>1688.8000488281</ele>
        <time>2017-10-13T12:31:46.000Z</time>
      </trkpt>
      <trkpt lat="46.17817" lon="7.13589">
        <ele>1691.4000244141</ele>
        <time>2017-10-13T12:31:54.000Z</time>
      </trkpt>
      <trkpt lat="46.17831" lon="7.13592">
        <ele>1690</ele>
        <time>2017-10-13T12:32:06.000Z</time>
      </trkpt>
      <trkpt lat="46.17832" lon="7.13598">
        <ele>1687</ele>
        <time>2017-10-13T12:32:11.000Z</time>
      </trkpt>
      <trkpt lat="46.17833" lon="7.13601">
        <ele>1685.5999755859</ele>
        <time>2017-10-13T12:32:14.000Z</time>
      </trkpt>
      <trkpt lat="46.17835" lon="7.13603">
        <ele>1684.5999755859</ele>
        <time>2017-10-13T12:32:18.000Z</time>
      </trkpt>
      <trkpt lat="46.17836" lon="7.13607">
        <ele>1682.8000488281</ele>
        <time>2017-10-13T12:32:21.000Z</time>
      </trkpt>
      <trkpt lat="46.17831" lon="7.13624">
        <ele>1674.5999755859</ele>
        <time>2017-10-13T12:32:36.000Z</time>
      </trkpt>
      <trkpt lat="46.17832" lon="7.13625">
        <ele>1674.4000244141</ele>
        <time>2017-10-13T12:32:38.000Z</time>
      </trkpt>
      <trkpt lat="46.17835" lon="7.13626">
        <ele>1673.5999755859</ele>
        <time>2017-10-13T12:32:41.000Z</time>
      </trkpt>
      <trkpt lat="46.17839" lon="7.13627">
        <ele>1673</ele>
        <time>2017-10-13T12:32:46.000Z</time>
      </trkpt>
      <trkpt lat="46.17845" lon="7.13631">
        <ele>1671.4000244141</ele>
        <time>2017-10-13T12:32:53.000Z</time>
      </trkpt>
      <trkpt lat="46.17833" lon="7.13643">
        <ele>1665.1999511719</ele>
        <time>2017-10-13T12:33:04.000Z</time>
      </trkpt>
      <trkpt lat="46.17839" lon="7.13655">
        <ele>1659.5999755859</ele>
        <time>2017-10-13T12:33:16.000Z</time>
      </trkpt>
      <trkpt lat="46.17822" lon="7.13664">
        <ele>1655.8000488281</ele>
        <time>2017-10-13T12:33:29.000Z</time>
      </trkpt>
      <trkpt lat="46.1782" lon="7.13664">
        <ele>1655.5999755859</ele>
        <time>2017-10-13T12:33:31.000Z</time>
      </trkpt>
      <trkpt lat="46.1782" lon="7.13669">
        <ele>1653.8000488281</ele>
        <time>2017-10-13T12:33:34.000Z</time>
      </trkpt>
      <trkpt lat="46.17822" lon="7.13673">
        <ele>1652.4000244141</ele>
        <time>2017-10-13T12:33:37.000Z</time>
      </trkpt>
      <trkpt lat="46.17836" lon="7.13685">
        <ele>1647.4000244141</ele>
        <time>2017-10-13T12:33:50.000Z</time>
      </trkpt>
      <trkpt lat="46.17835" lon="7.13689">
        <ele>1646.1999511719</ele>
        <time>2017-10-13T12:33:53.000Z</time>
      </trkpt>
      <trkpt lat="46.17819" lon="7.13703">
        <ele>1644</ele>
        <time>2017-10-13T12:34:06.000Z</time>
      </trkpt>
      <trkpt lat="46.17806" lon="7.13723">
        <ele>1639.5999755859</ele>
        <time>2017-10-13T12:34:19.000Z</time>
      </trkpt>
      <trkpt lat="46.1779" lon="7.13736">
        <ele>1634</ele>
        <time>2017-10-13T12:34:34.000Z</time>
      </trkpt>
      <trkpt lat="46.17773" lon="7.13748">
        <ele>1625.1999511719</ele>
        <time>2017-10-13T12:34:49.000Z</time>
      </trkpt>
      <trkpt lat="46.17755" lon="7.13755">
        <ele>1619.5999755859</ele>
        <time>2017-10-13T12:35:01.000Z</time>
      </trkpt>
      <trkpt lat="46.17742" lon="7.13755">
        <ele>1617.4000244141</ele>
        <time>2017-10-13T12:35:11.000Z</time>
      </trkpt>
      <trkpt lat="46.17733" lon="7.13762">
        <ele>1612.5999755859</ele>
        <time>2017-10-13T12:35:22.000Z</time>
      </trkpt>
      <trkpt lat="46.17716" lon="7.13764">
        <ele>1609.4000244141</ele>
        <time>2017-10-13T12:35:35.000Z</time>
      </trkpt>
      <trkpt lat="46.17712" lon="7.13764">
        <ele>1609</ele>
        <time>2017-10-13T12:35:38.000Z</time>
      </trkpt>
      <trkpt lat="46.17709" lon="7.13771">
        <ele>1606</ele>
        <time>2017-10-13T12:35:42.000Z</time>
      </trkpt>
      <trkpt lat="46.17727" lon="7.13773">
        <ele>1607</ele>
        <time>2017-10-13T12:35:57.000Z</time>
      </trkpt>
      <trkpt lat="46.17735" lon="7.13772">
        <ele>1609</ele>
        <time>2017-10-13T12:36:06.000Z</time>
      </trkpt>
      <trkpt lat="46.17735" lon="7.13773">
        <ele>1608.5999755859</ele>
        <time>2017-10-13T12:36:08.000Z</time>
      </trkpt>
      <trkpt lat="46.17734" lon="7.13777">
        <ele>1606.8000488281</ele>
        <time>2017-10-13T12:36:11.000Z</time>
      </trkpt>
      <trkpt lat="46.17736" lon="7.13786">
        <ele>1603.4000244141</ele>
        <time>2017-10-13T12:36:15.000Z</time>
      </trkpt>
      <trkpt lat="46.1774" lon="7.1379">
        <ele>1602.8000488281</ele>
        <time>2017-10-13T12:36:19.000Z</time>
      </trkpt>
      <trkpt lat="46.17744" lon="7.13789">
        <ele>1603.5999755859</ele>
        <time>2017-10-13T12:36:23.000Z</time>
      </trkpt>
      <trkpt lat="46.17745" lon="7.13784">
        <ele>1606.1999511719</ele>
        <time>2017-10-13T12:36:31.000Z</time>
      </trkpt>
      <trkpt lat="46.17747" lon="7.13796">
        <ele>1601.5999755859</ele>
        <time>2017-10-13T12:36:40.000Z</time>
      </trkpt>
      <trkpt lat="46.17746" lon="7.13791">
        <ele>1603.4000244141</ele>
        <time>2017-10-13T12:37:13.000Z</time>
      </trkpt>
      <trkpt lat="46.17729" lon="7.13782">
        <ele>1603.5999755859</ele>
        <time>2017-10-13T12:37:28.000Z</time>
      </trkpt>
      <trkpt lat="46.17719" lon="7.1378">
        <ele>1603.1999511719</ele>
        <time>2017-10-13T12:37:40.000Z</time>
      </trkpt>
      <trkpt lat="46.1772" lon="7.13784">
        <ele>1601.5999755859</ele>
        <time>2017-10-13T12:37:43.000Z</time>
      </trkpt>
      <trkpt lat="46.17735" lon="7.13801">
        <ele>1597</ele>
        <time>2017-10-13T12:37:56.000Z</time>
      </trkpt>
      <trkpt lat="46.17753" lon="7.13808">
        <ele>1598</ele>
        <time>2017-10-13T12:38:08.000Z</time>
      </trkpt>
      <trkpt lat="46.17771" lon="7.13816">
        <ele>1598.4000244141</ele>
        <time>2017-10-13T12:38:21.000Z</time>
      </trkpt>
      <trkpt lat="46.17786" lon="7.13833">
        <ele>1596.4000244141</ele>
        <time>2017-10-13T12:38:31.000Z</time>
      </trkpt>
      <trkpt lat="46.17788" lon="7.13839">
        <ele>1596.4000244141</ele>
        <time>2017-10-13T12:38:35.000Z</time>
      </trkpt>
      <trkpt lat="46.1779" lon="7.13841">
        <ele>1596.5999755859</ele>
        <time>2017-10-13T12:38:38.000Z</time>
      </trkpt>
      <trkpt lat="46.17793" lon="7.13845">
        <ele>1596.8000488281</ele>
        <time>2017-10-13T12:38:40.000Z</time>
      </trkpt>
      <trkpt lat="46.1781" lon="7.13859">
        <ele>1599</ele>
        <time>2017-10-13T12:38:48.000Z</time>
      </trkpt>
      <trkpt lat="46.17829" lon="7.13859">
        <ele>1601.4000244141</ele>
        <time>2017-10-13T12:38:56.000Z</time>
      </trkpt>
      <trkpt lat="46.17848" lon="7.13865">
        <ele>1603.1999511719</ele>
        <time>2017-10-13T12:39:04.000Z</time>
      </trkpt>
      <trkpt lat="46.17851" lon="7.13868">
        <ele>1603.4000244141</ele>
        <time>2017-10-13T12:39:06.000Z</time>
      </trkpt>
      <trkpt lat="46.17845" lon="7.13892">
        <ele>1600.5999755859</ele>
        <time>2017-10-13T12:39:14.000Z</time>
      </trkpt>
      <trkpt lat="46.17828" lon="7.13904">
        <ele>1597.5999755859</ele>
        <time>2017-10-13T12:39:21.000Z</time>
      </trkpt>
      <trkpt lat="46.17809" lon="7.13908">
        <ele>1594.8000488281</ele>
        <time>2017-10-13T12:39:28.000Z</time>
      </trkpt>
      <trkpt lat="46.17791" lon="7.13918">
        <ele>1592.4000244141</ele>
        <time>2017-10-13T12:39:37.000Z</time>
      </trkpt>
      <trkpt lat="46.17775" lon="7.13932">
        <ele>1592.5999755859</ele>
        <time>2017-10-13T12:39:45.000Z</time>
      </trkpt>
      <trkpt lat="46.17756" lon="7.13938">
        <ele>1589.8000488281</ele>
        <time>2017-10-13T12:39:52.000Z</time>
      </trkpt>
      <trkpt lat="46.17737" lon="7.13936">
        <ele>1586.8000488281</ele>
        <time>2017-10-13T12:40:00.000Z</time>
      </trkpt>
      <trkpt lat="46.17719" lon="7.13938">
        <ele>1583</ele>
        <time>2017-10-13T12:40:08.000Z</time>
      </trkpt>
      <trkpt lat="46.17717" lon="7.13939">
        <ele>1582.8000488281</ele>
        <time>2017-10-13T12:40:12.000Z</time>
      </trkpt>
    </trkseg>
  </trk>
</gpx>